Provisional Data: Grays Run near Gray, PA


Please select a monitoring station.
Please select start date.
Please select start date.

Toggle Unit: C/F Toggle Unit: C/F
Sample Time Temperature (C) Temperature (F) Specific Conductivity (mS/cm) pH   Turbidity (NTU+) DO (mg/L)
4/13/2022 12:00:00 AM 8.85 47.93 0.031 6.64 2.2 11.11
4/13/2022 12:15:00 AM 8.78 47.804 0.031 6.64 2.22 11.13
4/13/2022 12:30:00 AM 8.72 47.696 0.031 6.64 2.13 11.15
4/13/2022 12:45:00 AM 8.65 47.57 0.031 6.64 2.27 11.17
4/13/2022 1:00:00 AM 8.58 47.444 0.031 6.64 2.2 11.18
4/13/2022 1:15:00 AM 8.52 47.336 0.031 6.64 2.25 11.2
4/13/2022 1:30:00 AM 8.45 47.21 0.031 6.64 2.19 11.22
4/13/2022 1:45:00 AM 8.4 47.12 0.031 6.64 2.18 11.24
4/13/2022 2:00:00 AM 8.35 47.03 0.031 6.64 2.17 11.25
4/13/2022 2:15:00 AM 8.3 46.94 0.031 6.64 2.22 11.27
4/13/2022 2:30:00 AM 8.26 46.868 0.031 6.63 2.17 11.28
4/13/2022 2:45:00 AM 8.21 46.778 0.031 6.64 2.18 11.29
4/13/2022 3:00:00 AM 8.16 46.688 0.031 6.63 2.23 11.31
4/13/2022 3:15:00 AM 8.11 46.598 0.031 6.63 2.19 11.32
4/13/2022 3:30:00 AM 8.06 46.508 0.031 6.63 2.21 11.33
4/13/2022 3:45:00 AM 8.03 46.454 0.031 6.63 2.19 11.35
4/13/2022 4:00:00 AM 8.01 46.418 0.031 6.64 2.21 11.36
4/13/2022 4:15:00 AM 7.98 46.364 0.031 6.64 2.19 11.36
4/13/2022 4:30:00 AM 7.95 46.31 0.031 6.62 2.16 11.37
4/13/2022 4:45:00 AM 7.93 46.274 0.031 6.63 2.18 11.38
4/13/2022 5:00:00 AM 7.91 46.238 0.031 6.63 2.19 11.38
4/13/2022 5:15:00 AM 7.89 46.202 0.031 6.63 2.22 11.39
4/13/2022 5:30:00 AM 7.87 46.166 0.031 6.62 2.15 11.4
4/13/2022 5:45:00 AM 7.85 46.13 0.031 6.63 2.19 11.41
4/13/2022 6:00:00 AM 7.84 46.112 0.031 6.63 2.18 11.41
4/13/2022 6:15:00 AM 7.83 46.094 0.031 6.63 2.21 11.41
4/13/2022 6:30:00 AM 7.81 46.058 0.031 6.63 2.18 11.42
4/13/2022 6:45:00 AM 7.8 46.04 0.031 6.62 2.14 11.43
4/13/2022 7:00:00 AM 7.78 46.004 0.031 6.63 2.13 11.44
4/13/2022 7:15:00 AM 7.76 45.968 0.031 6.63 2.15 11.46
4/13/2022 7:30:00 AM 7.75 45.95 0.031 6.64 2.13 11.5
4/13/2022 7:45:00 AM 7.74 45.932 0.031 6.65 2.08 11.52
4/13/2022 8:00:00 AM 7.73 45.914 0.031 6.65 2.08 11.52
4/13/2022 8:15:00 AM 7.72 45.896 0.031 6.65 2.14 11.53
4/13/2022 8:30:00 AM 7.73 45.914 0.031 6.65 2.08 11.54
4/13/2022 8:45:00 AM 7.76 45.968 0.031 6.67 2.09 11.56
4/13/2022 9:00:00 AM 7.8 46.04 0.031 6.68 2.1 11.55
4/13/2022 9:15:00 AM 7.86 46.148 0.031 6.69 2.08 11.56
4/13/2022 9:30:00 AM 7.93 46.274 0.031 6.69 2.09 11.55
4/13/2022 9:45:00 AM 8.02 46.436 0.031 6.7 2.07 11.54
4/13/2022 10:00:00 AM 8.13 46.634 0.031 6.71 2.08 11.52
4/13/2022 10:15:00 AM 8.23 46.814 0.031 6.72 2.05 11.5
4/13/2022 10:30:00 AM 8.36 47.048 0.031 6.73 2.05 11.47
4/13/2022 10:45:00 AM 8.48 47.264 0.031 6.73 2.05 11.44
4/13/2022 11:00:00 AM 8.57 47.426 0.031 6.73 2.02 11.4
4/13/2022 11:15:00 AM 8.68 47.624 0.031 6.74 2.07 11.37
4/13/2022 11:30:00 AM 8.81 47.858 0.031 6.74 2 11.33
4/13/2022 11:45:00 AM 9.06 48.308 0.031 6.75 2 11.3
4/13/2022 12:00:00 PM 9.32 48.776 0.031 6.76 2.03 11.24
4/13/2022 12:15:00 PM 9.48 49.064 0.031 6.76 1.97 11.19
4/13/2022 12:30:00 PM 9.63 49.334 0.031 6.76 2.03 11.15
4/13/2022 12:45:00 PM 9.79 49.622 0.031 6.76 2.03 11.11
4/13/2022 1:00:00 PM 9.9 49.82 0.031 6.76 2.02 11.07
4/13/2022 1:15:00 PM 9.99 49.982 0.031 6.76 2.12 11.04
4/13/2022 1:30:00 PM 10.12 50.216 0.031 6.76 2.03 11.02
4/13/2022 1:45:00 PM 10.23 50.414 0.031 6.76 2.05 10.97
4/13/2022 2:00:00 PM 10.27 50.486 0.031 6.75 2 10.92
4/13/2022 2:15:00 PM 10.3 50.54 0.031 6.75 2.03 10.9
4/13/2022 2:30:00 PM 10.36 50.648 0.031 6.76 2.04 10.89
4/13/2022 2:45:00 PM 10.42 50.756 0.031 6.77 2 10.88
4/13/2022 3:00:00 PM 10.44 50.792 0.031 6.76 2.06 10.87
4/13/2022 3:15:00 PM 10.47 50.846 0.031 6.77 2.07 10.86
4/13/2022 3:30:00 PM 10.52 50.936 0.031 6.77 2.04 10.85
4/13/2022 3:45:00 PM 10.57 51.026 0.031 6.77 2.05 10.83
4/13/2022 4:00:00 PM 10.64 51.152 0.031 6.77 2.02 10.82
4/13/2022 4:15:00 PM 10.68 51.224 0.031 6.77 2.08 10.8
4/13/2022 4:30:00 PM 10.7 51.26 0.031 6.77 2.02 10.79
4/13/2022 4:45:00 PM 10.7 51.26 0.031 6.76 2.06 10.77
4/13/2022 5:00:00 PM 10.69 51.242 0.031 6.76 2.02 10.77
4/13/2022 5:15:00 PM 10.68 51.224 0.031 6.75 2.07 10.75
4/13/2022 5:30:00 PM 10.69 51.242 0.031 6.75 2.05 10.74
4/13/2022 5:45:00 PM 10.67 51.206 0.031 6.75 2.05 10.74
4/13/2022 6:00:00 PM 10.69 51.242 0.031 6.75 2.03 10.73
4/13/2022 6:15:00 PM 10.68 51.224 0.031 6.74 2.06 10.69
4/13/2022 6:30:00 PM 10.69 51.242 0.031 6.73 2.04 10.66
4/13/2022 6:45:00 PM 10.65 51.17 0.031 6.71 2.05 10.63
4/13/2022 7:00:00 PM 10.64 51.152 0.031 6.7 2.14 10.63
4/13/2022 7:15:00 PM 10.63 51.134 0.031 6.69 2.01 10.62
4/13/2022 7:30:00 PM 10.62 51.116 0.031 6.69 2.1 10.6
4/13/2022 7:45:00 PM 10.59 51.062 0.031 6.68 1.99 10.59
4/13/2022 8:00:00 PM 10.56 51.008 0.031 6.68 2.05 10.59
4/13/2022 8:15:00 PM 10.53 50.954 0.031 6.66 2.06 10.58
4/13/2022 8:30:00 PM 10.49 50.882 0.031 6.66 2.17 10.58
4/13/2022 8:45:00 PM 10.44 50.792 0.031 6.65 2.12 10.59
4/13/2022 9:00:00 PM 10.39 50.702 0.031 6.64 2.19 10.6
4/13/2022 9:15:00 PM 10.35 50.63 0.031 6.65 2.11 10.61
4/13/2022 9:30:00 PM 10.32 50.576 0.031 6.63 2.12 10.62
4/13/2022 9:45:00 PM 10.29 50.522 0.031 6.64 2.06 10.63
4/13/2022 10:00:00 PM 10.26 50.468 0.031 6.63 2.09 10.64
4/13/2022 10:15:00 PM 10.22 50.396 0.031 6.63 2.07 10.64
4/13/2022 10:30:00 PM 10.19 50.342 0.031 6.63 2.13 10.65
4/13/2022 10:45:00 PM 10.15 50.27 0.031 6.62 2.11 10.66
4/13/2022 11:00:00 PM 10.11 50.198 0.031 6.62 2.02 10.67
4/13/2022 11:15:00 PM 10.07 50.126 0.031 6.62 2.16 10.67
4/13/2022 11:30:00 PM 10.05 50.09 0.031 6.61 2.12 10.68
4/13/2022 11:45:00 PM 10.02 50.036 0.031 6.62 2.13 10.68
4/14/2022 12:00:00 AM 9.98 49.964 0.031 6.61 2.16 10.69
4/14/2022 12:15:00 AM 9.95 49.91 0.031 6.61 2.09 10.7
4/14/2022 12:30:00 AM 9.91 49.838 0.031 6.61 2.18 10.7
4/14/2022 12:45:00 AM 9.87 49.766 0.031 6.6 2.16 10.71
4/14/2022 1:00:00 AM 9.84 49.712 0.031 6.61 2.16 10.72
4/14/2022 1:15:00 AM 9.81 49.658 0.031 6.61 2.15 10.73
4/14/2022 1:30:00 AM 9.78 49.604 0.031 6.61 2.08 10.74
4/14/2022 1:45:00 AM 9.74 49.532 0.031 6.61 2.18 10.75
4/14/2022 2:00:00 AM 9.71 49.478 0.031 6.59 2.19 10.76
4/14/2022 2:15:00 AM 9.68 49.424 0.031 6.6 2.18 10.77
4/14/2022 2:30:00 AM 9.66 49.388 0.031 6.6 2.15 10.77
4/14/2022 2:45:00 AM 9.63 49.334 0.031 6.59 2.21 10.78
4/14/2022 3:00:00 AM 9.61 49.298 0.031 6.6 2.11 10.78
4/14/2022 3:15:00 AM 9.59 49.262 0.031 6.6 2.13 10.79
4/14/2022 3:30:00 AM 9.56 49.208 0.031 6.6 2.16 10.8
4/14/2022 3:45:00 AM 9.53 49.154 0.031 6.6 2.1 10.81
4/14/2022 4:00:00 AM 9.49 49.082 0.031 6.6 2.16 10.81
4/14/2022 4:15:00 AM 9.46 49.028 0.031 6.6 2.16 10.82
4/14/2022 4:30:00 AM 9.42 48.956 0.031 6.6 2.12 10.82
4/14/2022 4:45:00 AM 9.39 48.902 0.031 6.6 2.14 10.84
4/14/2022 5:00:00 AM 9.35 48.83 0.031 6.6 2.16 10.84
4/14/2022 5:15:00 AM 9.31 48.758 0.031 6.6 2.19 10.85
4/14/2022 5:30:00 AM 9.27 48.686 0.031 6.6 2.09 10.86
4/14/2022 5:45:00 AM 9.23 48.614 0.031 6.59 2.16 10.87
4/14/2022 6:00:00 AM 9.19 48.542 0.031 6.6 2.18 10.89
4/14/2022 6:15:00 AM 9.15 48.47 0.031 6.6 2.15 10.9
4/14/2022 6:30:00 AM 9.12 48.416 0.031 6.59 2.14 10.9
4/14/2022 6:45:00 AM 9.08 48.344 0.031 6.6 2.11 10.92
4/14/2022 7:00:00 AM 9.04 48.272 0.031 6.6 2.09 10.94
4/14/2022 7:15:00 AM 9.01 48.218 0.031 6.61 2.11 10.97
4/14/2022 7:30:00 AM 8.98 48.164 0.031 6.61 2.06 10.99
4/14/2022 7:45:00 AM 8.96 48.128 0.031 6.62 2.07 11.01
4/14/2022 8:00:00 AM 8.93 48.074 0.031 6.61 2.12 11.02
4/14/2022 8:15:00 AM 8.92 48.056 0.031 6.63 2.03 11.04
4/14/2022 8:30:00 AM 8.93 48.074 0.031 6.64 2.05 11.07
4/14/2022 8:45:00 AM 8.96 48.128 0.031 6.65 2.07 11.09
4/14/2022 9:00:00 AM 9 48.2 0.031 6.67 2.01 11.1
4/14/2022 9:15:00 AM 9.08 48.344 0.031 6.68 2.04 11.11
4/14/2022 9:30:00 AM 9.18 48.524 0.031 6.7 2 11.11
4/14/2022 9:45:00 AM 9.29 48.722 0.031 6.72 1.95 11.1
4/14/2022 10:00:00 AM 9.43 48.974 0.031 6.73 2 11.07
4/14/2022 10:15:00 AM 9.58 49.244 0.031 6.73 2 11.04
4/14/2022 10:30:00 AM 9.75 49.55 0.031 6.75 1.99 11
4/14/2022 10:45:00 AM 9.92 49.856 0.031 6.75 1.99 10.95
4/14/2022 11:00:00 AM 10.01 50.018 0.031 6.75 1.96 10.9
4/14/2022 11:15:00 AM 10.13 50.234 0.031 6.75 1.96 10.86
4/14/2022 11:30:00 AM 10.24 50.432 0.031 6.75 1.97 10.81
4/14/2022 11:45:00 AM 10.32 50.576 0.031 6.75 2.03 10.78
4/14/2022 12:00:00 PM 10.37 50.666 0.031 6.74 1.97 10.75
4/14/2022 12:15:00 PM 10.41 50.738 0.031 6.73 1.88 10.73
4/14/2022 12:30:00 PM 10.47 50.846 0.031 6.75 1.98 10.76
4/14/2022 12:45:00 PM 10.5 50.9 0.031 6.75 2.09 10.74
4/14/2022 1:00:00 PM 10.5 50.9 0.031 6.76 1.99 10.74
4/14/2022 1:15:00 PM 10.49 50.882 0.031 6.76 1.99 10.73
4/14/2022 1:30:00 PM 10.47 50.846 0.031 6.76 1.91 10.71
4/14/2022 1:45:00 PM 10.46 50.828 0.031 6.75 1.95 10.73
4/14/2022 2:00:00 PM 10.45 50.81 0.031 6.74 2.03 10.73
4/14/2022 2:15:00 PM 10.41 50.738 0.031 6.75 1.99 10.76
4/14/2022 2:30:00 PM 10.37 50.666 0.031 6.73 1.99 10.77
4/14/2022 2:45:00 PM 10.37 50.666 0.031 6.74 2.01 10.8
4/14/2022 3:00:00 PM 10.38 50.684 0.031 6.76 2.03 10.82
4/14/2022 3:15:00 PM 10.39 50.702 0.031 6.77 2 10.84
4/14/2022 3:30:00 PM 10.37 50.666 0.031 6.77 2.05 10.85
4/14/2022 3:45:00 PM 10.34 50.612 0.031 6.77 2.01 10.85
4/14/2022 4:00:00 PM 10.33 50.594 0.031 6.77 1.97 10.86
4/14/2022 4:15:00 PM 10.32 50.576 0.031 6.78 2.05 10.87
4/14/2022 4:30:00 PM 10.31 50.558 0.031 6.77 1.96 10.86
4/14/2022 4:45:00 PM 10.28 50.504 0.031 6.77 1.99 10.85
4/14/2022 5:00:00 PM 10.26 50.468 0.031 6.77 2 10.85
4/14/2022 5:15:00 PM 10.22 50.396 0.031 6.75 1.98 10.84
4/14/2022 5:30:00 PM 10.21 50.378 0.031 6.75 1.98 10.86
4/14/2022 5:45:00 PM 10.19 50.342 0.031 6.75 2 10.85
4/14/2022 6:00:00 PM 10.16 50.288 0.031 6.75 1.95 10.85
4/14/2022 6:15:00 PM 10.11 50.198 0.031 6.73 2.03 10.84
4/14/2022 6:30:00 PM 10.06 50.108 0.031 6.74 2.01 10.86
4/14/2022 6:45:00 PM 10.03 50.054 0.031 6.73 2.06 10.87
4/14/2022 7:00:00 PM 9.99 49.982 0.031 6.71 1.96 10.85
4/14/2022 7:15:00 PM 9.92 49.856 0.031 6.71 2 10.84
4/14/2022 7:30:00 PM 9.85 49.73 0.031 6.7 1.96 10.83
4/14/2022 7:45:00 PM 9.79 49.622 0.031 6.69 2 10.83
4/14/2022 8:00:00 PM 9.72 49.496 0.031 6.69 2.01 10.84
4/14/2022 8:15:00 PM 9.64 49.352 0.031 6.68 1.99 10.84
4/14/2022 8:30:00 PM 9.56 49.208 0.031 6.67 1.99 10.86
4/14/2022 8:45:00 PM 9.48 49.064 0.031 6.65 2.03 10.88
4/14/2022 9:00:00 PM 9.4 48.92 0.031 6.68 2.1 10.91
4/14/2022 9:15:00 PM 9.32 48.776 0.031 6.67 2.09 10.93
4/14/2022 9:30:00 PM 9.24 48.632 0.031 6.67 2.06 10.95
4/14/2022 9:45:00 PM 9.15 48.47 0.031 6.66 2.12 10.98
4/14/2022 10:00:00 PM 9.07 48.326 0.031 6.67 2.09 11.01
4/14/2022 10:15:00 PM 8.99 48.182 0.031 6.67 2.16 11.03
4/14/2022 10:30:00 PM 8.91 48.038 0.031 6.66 2.09 11.05
4/14/2022 10:45:00 PM 8.83 47.894 0.031 6.66 2.08 11.07
4/14/2022 11:00:00 PM 8.76 47.768 0.031 6.66 2.11 11.09
4/14/2022 11:15:00 PM 8.68 47.624 0.031 6.66 2.08 11.11
4/14/2022 11:30:00 PM 8.61 47.498 0.031 6.66 2.1 11.14
4/14/2022 11:45:00 PM 8.53 47.354 0.031 6.65 2.15 11.16
4/15/2022 12:00:00 AM 8.46 47.228 0.031 6.66 2.1 11.18
4/15/2022 12:15:00 AM 8.39 47.102 0.031 6.66 2.06 11.2
4/15/2022 12:30:00 AM 8.31 46.958 0.031 6.66 2.07 11.23
4/15/2022 12:45:00 AM 8.25 46.85 0.031 6.66 2.1 11.25
4/15/2022 1:00:00 AM 8.18 46.724 0.031 6.66 2.13 11.26
4/15/2022 1:15:00 AM 8.11 46.598 0.031 6.66 2.06 11.28
4/15/2022 1:30:00 AM 8.04 46.472 0.031 6.65 2.1 11.31
4/15/2022 1:45:00 AM 7.97 46.346 0.031 6.65 2.08 11.33
4/15/2022 2:00:00 AM 7.9 46.22 0.031 6.65 2.09 11.35
4/15/2022 2:15:00 AM 7.84 46.112 0.031 6.64 2.16 11.36
4/15/2022 2:30:00 AM 7.77 45.986 0.031 6.65 2.11 11.39
4/15/2022 2:45:00 AM 7.71 45.878 0.031 6.65 2.16 11.41
4/15/2022 3:00:00 AM 7.64 45.752 0.031 6.65 2.12 11.42
4/15/2022 3:15:00 AM 7.58 45.644 0.031 6.65 2.1 11.45
4/15/2022 3:30:00 AM 7.51 45.518 0.031 6.65 2.09 11.47
4/15/2022 3:45:00 AM 7.45 45.41 0.031 6.64 2.1 11.48
4/15/2022 4:00:00 AM 7.39 45.302 0.031 6.65 2.16 11.51
4/15/2022 4:15:00 AM 7.33 45.194 0.031 6.64 2.09 11.52
4/15/2022 4:30:00 AM 7.27 45.086 0.031 6.64 2.12 11.55
4/15/2022 4:45:00 AM 7.21 44.978 0.031 6.64 2.14 11.57
4/15/2022 5:00:00 AM 7.15 44.87 0.031 6.65 2.11 11.59
4/15/2022 5:15:00 AM 7.09 44.762 0.031 6.65 2.13 11.61
4/15/2022 5:30:00 AM 7.03 44.654 0.031 6.64 2.13 11.63
4/15/2022 5:45:00 AM 6.97 44.546 0.031 6.64 2.12 11.65
4/15/2022 6:00:00 AM 6.91 44.438 0.031 6.64 2.18 11.67
4/15/2022 6:15:00 AM 6.86 44.348 0.031 6.64 2.07 11.69
4/15/2022 6:30:00 AM 6.8 44.24 0.031 6.64 2.11 11.7
4/15/2022 6:45:00 AM 6.75 44.15 0.031 6.65 2.07 11.73
4/15/2022 7:00:00 AM 6.7 44.06 0.031 6.65 2.06 11.76
4/15/2022 7:15:00 AM 6.65 43.97 0.031 6.65 2.09 11.79
4/15/2022 7:30:00 AM 6.61 43.898 0.031 6.66 2.03 11.83
4/15/2022 7:45:00 AM 6.56 43.808 0.031 6.66 2.07 11.85
4/15/2022 8:00:00 AM 6.52 43.736 0.031 6.67 2.02 11.88
4/15/2022 8:15:00 AM 6.49 43.682 0.031 6.66 2.01 11.9
4/15/2022 8:30:00 AM 6.49 43.682 0.031 6.67 2.08 11.93
4/15/2022 8:45:00 AM 6.5 43.7 0.031 6.68 2.02 11.95
4/15/2022 9:00:00 AM 6.54 43.772 0.031 6.69 2.05 11.95
4/15/2022 9:15:00 AM 6.59 43.862 0.031 6.68 2.02 11.95
4/15/2022 9:30:00 AM 6.66 43.988 0.031 6.71 2.03 11.95
4/15/2022 9:45:00 AM 6.76 44.168 0.031 6.71 1.95 11.93
4/15/2022 10:00:00 AM 6.89 44.402 0.031 6.72 1.96 11.91
4/15/2022 10:15:00 AM 7.03 44.654 0.031 6.72 2.59 11.87
4/15/2022 10:30:00 AM 7.19 44.942 0.031 6.74 1.94 11.84
4/15/2022 10:45:00 AM 7.36 45.248 0.031 6.74 1.97 11.79
4/15/2022 11:00:00 AM 7.56 45.608 0.031 6.74 1.94 11.73
4/15/2022 11:15:00 AM 7.78 46.004 0.031 6.75 2.01 11.68
4/15/2022 11:30:00 AM 8.01 46.418 0.031 6.74 1.97 11.61
4/15/2022 11:45:00 AM 8.25 46.85 0.031 6.75 1.93 11.55
4/15/2022 12:00:00 PM 8.51 47.318 0.031 6.76 1.93 11.48
4/15/2022 12:15:00 PM 8.78 47.804 0.031 6.75 1.93 11.41
4/15/2022 12:30:00 PM 9.04 48.272 0.031 6.76 1.91 11.34
4/15/2022 12:45:00 PM 9.31 48.758 0.031 6.77 1.89 11.27
4/15/2022 1:00:00 PM 9.53 49.154 0.031 6.77 1.92 11.19
4/15/2022 1:15:00 PM 9.55 49.19 0.031 6.77 1.92 11.13
4/15/2022 1:30:00 PM 9.67 49.406 0.031 6.76 1.89 11.1
4/15/2022 1:45:00 PM 9.9 49.82 0.031 6.77 1.9 11.06
4/15/2022 2:00:00 PM 10.14 50.252 0.031 6.77 1.93 11.01
4/15/2022 2:15:00 PM 10.31 50.558 0.031 6.76 1.9 10.96
4/15/2022 2:30:00 PM 10.41 50.738 0.031 6.77 1.91 10.93
4/15/2022 2:45:00 PM 10.52 50.936 0.031 6.77 1.9 10.9
4/15/2022 3:00:00 PM 10.6 51.08 0.031 6.77 1.88 10.87
4/15/2022 3:15:00 PM 10.64 51.152 0.031 6.77 1.89 10.84
4/15/2022 3:30:00 PM 10.64 51.152 0.031 6.77 1.92 10.83
4/15/2022 3:45:00 PM 10.57 51.026 0.031 6.77 1.95 10.82
4/15/2022 4:00:00 PM 10.53 50.954 0.031 6.77 1.92 10.83
4/15/2022 4:15:00 PM 10.47 50.846 0.031 6.77 1.98 10.83
4/15/2022 4:30:00 PM 10.45 50.81 0.031 6.77 1.99 10.84
4/15/2022 4:45:00 PM 10.4 50.72 0.031 6.78 1.92 10.85
4/15/2022 5:00:00 PM 10.39 50.702 0.031 6.77 1.9 10.86
4/15/2022 5:15:00 PM 10.35 50.63 0.031 6.76 1.97 10.85
4/15/2022 5:30:00 PM 10.29 50.522 0.031 6.76 1.88 10.85
4/15/2022 5:45:00 PM 10.24 50.432 0.031 6.76 1.97 10.85
4/15/2022 6:00:00 PM 10.18 50.324 0.031 6.77 1.92 10.83
4/15/2022 6:15:00 PM 10.12 50.216 0.031 6.75 1.93 10.84
4/15/2022 6:30:00 PM 10.07 50.126 0.031 6.74 1.94 10.84
4/15/2022 6:45:00 PM 10.02 50.036 0.031 6.74 1.93 10.83
4/15/2022 7:00:00 PM 9.97 49.946 0.031 6.73 1.94 10.83
4/15/2022 7:15:00 PM 9.94 49.892 0.031 6.73 1.98 10.82
4/15/2022 7:30:00 PM 9.9 49.82 0.031 6.72 2.01 10.81
4/15/2022 7:45:00 PM 9.85 49.73 0.031 6.72 1.96 10.81
4/15/2022 8:00:00 PM 9.79 49.622 0.031 6.71 2.05 10.81
4/15/2022 8:15:00 PM 9.73 49.514 0.031 6.7 1.97 10.81
4/15/2022 8:30:00 PM 9.67 49.406 0.031 6.69 1.99 10.82
4/15/2022 8:45:00 PM 9.62 49.316 0.031 6.68 2.04 10.83
4/15/2022 9:00:00 PM 9.57 49.226 0.031 6.69 2.17 10.85
4/15/2022 9:15:00 PM 9.51 49.118 0.031 6.68 2.09 10.86
4/15/2022 9:30:00 PM 9.44 48.992 0.031 6.68 2.12 10.88
4/15/2022 9:45:00 PM 9.39 48.902 0.031 6.68 2.11 10.89
4/15/2022 10:00:00 PM 9.35 48.83 0.031 6.68 2.11 10.9
4/15/2022 10:15:00 PM 9.31 48.758 0.031 6.69 2.12 10.92
4/15/2022 10:30:00 PM 9.28 48.704 0.031 6.68 2.06 10.92
4/15/2022 10:45:00 PM 9.25 48.65 0.031 6.69 2.05 10.93
4/15/2022 11:00:00 PM 9.23 48.614 0.031 6.69 2.05 10.94
4/15/2022 11:15:00 PM 9.2 48.56 0.031 6.68 2.07 10.95
4/15/2022 11:30:00 PM 9.18 48.524 0.031 6.69 2.1 10.96
4/15/2022 11:45:00 PM 9.16 48.488 0.031 6.68 2.07 10.96
4/16/2022 12:00:00 AM 9.13 48.434 0.031 6.68 2.08 10.97
4/16/2022 12:15:00 AM 9.1 48.38 0.031 6.68 2.07 10.97
4/16/2022 12:30:00 AM 9.07 48.326 0.031 6.68 2.07 10.98
4/16/2022 12:45:00 AM 9.03 48.254 0.031 6.68 2.06 10.99
4/16/2022 1:00:00 AM 8.99 48.182 0.031 6.66 2.06 11
4/16/2022 1:15:00 AM 8.96 48.128 0.031 6.67 2.07 11.01
4/16/2022 1:30:00 AM 8.91 48.038 0.031 6.66 2.05 11.02
4/16/2022 1:45:00 AM 8.86 47.948 0.031 6.66 2.11 11.03
4/16/2022 2:00:00 AM 8.81 47.858 0.031 6.66 2.03 11.05
4/16/2022 2:15:00 AM 8.76 47.768 0.031 6.65 2.07 11.06
4/16/2022 2:30:00 AM 8.72 47.696 0.031 6.66 2.05 11.07
4/16/2022 2:45:00 AM 8.68 47.624 0.031 6.67 2.05 11.09
4/16/2022 3:00:00 AM 8.64 47.552 0.031 6.66 2.03 11.09
4/16/2022 3:15:00 AM 8.6 47.48 0.031 6.66 2.06 11.11
4/16/2022 3:30:00 AM 8.56 47.408 0.031 6.66 2.08 11.11
4/16/2022 3:45:00 AM 8.53 47.354 0.031 6.65 2.05 11.12
4/16/2022 4:00:00 AM 8.49 47.282 0.031 6.65 2.01 11.14
4/16/2022 4:15:00 AM 8.46 47.228 0.031 6.65 2.03 11.14
4/16/2022 4:30:00 AM 8.43 47.174 0.031 6.66 2.01 11.16
4/16/2022 4:45:00 AM 8.4 47.12 0.031 6.66 2.11 11.16
4/16/2022 5:00:00 AM 8.37 47.066 0.031 6.65 2.06 11.17
4/16/2022 5:15:00 AM 8.35 47.03 0.031 6.65 2.03 11.19
4/16/2022 5:30:00 AM 8.32 46.976 0.031 6.64 2.06 11.19
4/16/2022 5:45:00 AM 8.3 46.94 0.031 6.65 2.07 11.2
4/16/2022 6:00:00 AM 8.28 46.904 0.031 6.65 2.04 11.21
4/16/2022 6:15:00 AM 8.26 46.868 0.031 6.65 2.05 11.21
4/16/2022 6:30:00 AM 8.24 46.832 0.031 6.64 2.03 11.22
4/16/2022 6:45:00 AM 8.23 46.814 0.031 6.66 2.04 11.23
4/16/2022 7:00:00 AM 8.21 46.778 0.031 6.66 2 11.25
4/16/2022 7:15:00 AM 8.2 46.76 0.031 6.66 1.99 11.26
4/16/2022 7:30:00 AM 8.2 46.76 0.031 6.67 2.09 11.3
4/16/2022 7:45:00 AM 8.21 46.778 0.031 6.68 1.96 11.32
4/16/2022 8:00:00 AM 8.22 46.796 0.031 6.69 1.96 11.33
4/16/2022 8:15:00 AM 8.25 46.85 0.031 6.7 1.97 11.36
4/16/2022 8:30:00 AM 8.28 46.904 0.031 6.72 1.99 11.37
4/16/2022 8:45:00 AM 8.31 46.958 0.031 6.72 1.96 11.38
4/16/2022 9:00:00 AM 8.33 46.994 0.031 6.73 2.01 11.37
4/16/2022 9:15:00 AM 8.36 47.048 0.031 6.73 1.98 11.36
4/16/2022 9:30:00 AM 8.38 47.084 0.031 6.74 1.97 11.35
4/16/2022 9:45:00 AM 8.43 47.174 0.031 6.75 1.94 11.37
4/16/2022 10:00:00 AM 8.48 47.264 0.031 6.75 1.91 11.36
4/16/2022 10:15:00 AM 8.5 47.3 0.031 6.74 1.91 11.32
4/16/2022 10:30:00 AM 8.51 47.318 0.031 6.73 1.94 11.29
4/16/2022 10:45:00 AM 8.52 47.336 0.031 6.73 1.94 11.26
4/16/2022 11:00:00 AM 8.53 47.354 0.031 6.71 1.93 11.25
4/16/2022 11:15:00 AM 8.55 47.39 0.031 6.71 1.92 11.24
4/16/2022 11:30:00 AM 8.56 47.408 0.031 6.71 1.94 11.23
4/16/2022 11:45:00 AM 8.57 47.426 0.031 6.73 1.94 11.24
4/16/2022 12:00:00 PM 8.58 47.444 0.031 6.73 1.98 11.24
4/16/2022 12:15:00 PM 8.6 47.48 0.031 6.73 1.92 11.25
4/16/2022 12:30:00 PM 8.61 47.498 0.031 6.74 1.9 11.25
4/16/2022 12:45:00 PM 8.62 47.516 0.031 6.73 1.96 11.25
4/16/2022 1:00:00 PM 8.62 47.516 0.031 6.73 1.97 11.26
4/16/2022 1:15:00 PM 8.61 47.498 0.031 6.72 1.96 11.24
4/16/2022 1:30:00 PM 8.58 47.444 0.031 6.73 2.05 11.25
4/16/2022 1:45:00 PM 8.54 47.372 0.031 6.71 1.95 11.25
4/16/2022 2:00:00 PM 8.5 47.3 0.031 6.71 2.01 11.24
4/16/2022 2:15:00 PM 8.47 47.246 0.031 6.72 2.04 11.27
4/16/2022 2:30:00 PM 8.44 47.192 0.031 6.72 2.06 11.27
4/16/2022 2:45:00 PM 8.43 47.174 0.031 6.73 1.98 11.32
4/16/2022 3:00:00 PM 8.41 47.138 0.031 6.74 2.07 11.32
4/16/2022 3:15:00 PM 8.39 47.102 0.031 6.73 2.03 11.32
4/16/2022 3:30:00 PM 8.37 47.066 0.031 6.73 2.09 11.32
4/16/2022 3:45:00 PM 8.36 47.048 0.031 6.74 2.05 11.34
4/16/2022 4:00:00 PM 8.36 47.048 0.031 6.75 2.16 11.34
4/16/2022 4:15:00 PM 8.35 47.03 0.031 6.75 2.27 11.34
4/16/2022 4:30:00 PM 8.35 47.03 0.031 6.75 2.25 11.36
4/16/2022 4:45:00 PM 8.35 47.03 0.031 6.76 2.22 11.34
4/16/2022 5:00:00 PM 8.35 47.03 0.031 6.76 2.29 11.35
4/16/2022 5:15:00 PM 8.35 47.03 0.031 6.75 2.35 11.35
4/16/2022 5:30:00 PM 8.33 46.994 0.031 6.74 2.28 11.32
4/16/2022 5:45:00 PM 8.33 46.994 0.031 6.74 2.31 11.32
4/16/2022 6:00:00 PM 8.32 46.976 0.031 6.73 2.28 11.31
4/16/2022 6:15:00 PM 8.31 46.958 0.031 6.75 2.17 11.33
4/16/2022 6:30:00 PM 8.3 46.94 0.031 6.74 2.24 11.33
4/16/2022 6:45:00 PM 8.28 46.904 0.031 6.75 2.24 11.33
4/16/2022 7:00:00 PM 8.26 46.868 0.031 6.74 2.14 11.33
4/16/2022 7:15:00 PM 8.23 46.814 0.031 6.74 2.17 11.32
4/16/2022 7:30:00 PM 8.21 46.778 0.031 6.73 2.2 11.31
4/16/2022 7:45:00 PM 8.17 46.706 0.031 6.73 2.13 11.3
4/16/2022 8:00:00 PM 8.13 46.634 0.031 6.72 2.14 11.28
4/16/2022 8:15:00 PM 8.08 46.544 0.031 6.69 2.13 11.28
4/16/2022 8:30:00 PM 8.03 46.454 0.031 6.69 2.14 11.28
4/16/2022 8:45:00 PM 7.98 46.364 0.031 6.68 2.14 11.3
4/16/2022 9:00:00 PM 7.92 46.256 0.031 6.68 2.14 11.32
4/16/2022 9:15:00 PM 7.87 46.166 0.031 6.69 2.07 11.33
4/16/2022 9:30:00 PM 7.81 46.058 0.031 6.68 2.13 11.34
4/16/2022 9:45:00 PM 7.75 45.95 0.031 6.67 2.16 11.36
4/16/2022 10:00:00 PM 7.7 45.86 0.031 6.68 2.14 11.38
4/16/2022 10:15:00 PM 7.65 45.77 0.031 6.67 2.16 11.4
4/16/2022 10:30:00 PM 7.61 45.698 0.031 6.68 2.13 11.41
4/16/2022 10:45:00 PM 7.57 45.626 0.031 6.68 2.09 11.42
4/16/2022 11:00:00 PM 7.52 45.536 0.031 6.67 2.14 11.44
4/16/2022 11:15:00 PM 7.47 45.446 0.031 6.68 2.18 11.45
4/16/2022 11:30:00 PM 7.42 45.356 0.031 6.68 2.11 11.47
4/16/2022 11:45:00 PM 7.36 45.248 0.031 6.67 2.08 11.48
4/17/2022 12:00:00 AM 7.31 45.158 0.031 6.68 2.09 11.5
4/17/2022 12:15:00 AM 7.26 45.068 0.031 6.68 2.09 11.52
4/17/2022 12:30:00 AM 7.2 44.96 0.031 6.67 2.15 11.54
4/17/2022 12:45:00 AM 7.14 44.852 0.031 6.67 2.16 11.55
4/17/2022 1:00:00 AM 7.08 44.744 0.031 6.68 2.09 11.57
4/17/2022 1:15:00 AM 7.03 44.654 0.031 6.67 2.13 11.59
4/17/2022 1:30:00 AM 6.98 44.564 0.031 6.67 2.06 11.61
4/17/2022 1:45:00 AM 6.93 44.474 0.031 6.67 2.12 11.62
4/17/2022 2:00:00 AM 6.87 44.366 0.031 6.66 2.11 11.65
4/17/2022 2:15:00 AM 6.82 44.276 0.031 6.68 2.1 11.66
4/17/2022 2:30:00 AM 6.77 44.186 0.031 6.67 2.11 11.67
4/17/2022 2:45:00 AM 6.73 44.114 0.031 6.67 5.02 11.7
4/17/2022 3:00:00 AM 6.68 44.024 0.031 6.67 2.13 11.71
4/17/2022 3:15:00 AM 6.64 43.952 0.031 6.66 2.13 11.73
4/17/2022 3:30:00 AM 6.6 43.88 0.031 6.67 2.08 11.73
4/17/2022 3:45:00 AM 6.55 43.79 0.031 6.66 2.03 11.74
4/17/2022 4:00:00 AM 6.51 43.718 0.031 6.66 2.1 11.76
4/17/2022 4:15:00 AM 6.47 43.646 0.031 6.67 2.09 11.78
4/17/2022 4:30:00 AM 6.45 43.61 0.031 6.67 2.14 11.78
4/17/2022 4:45:00 AM 6.42 43.556 0.031 6.67 2.1 11.8
4/17/2022 5:00:00 AM 6.4 43.52 0.031 6.66 2.03 11.81
4/17/2022 5:15:00 AM 6.37 43.466 0.031 6.66 2.04 11.82
4/17/2022 5:30:00 AM 6.35 43.43 0.031 6.66 2.01 11.82
4/17/2022 5:45:00 AM 6.33 43.394 0.031 6.66 2.13 11.83
4/17/2022 6:00:00 AM 6.31 43.358 0.031 6.67 2.13 11.85
4/17/2022 6:15:00 AM 6.29 43.322 0.031 6.66 2.06 11.85
4/17/2022 6:30:00 AM 6.27 43.286 0.031 6.66 2.1 11.86
4/17/2022 6:45:00 AM 6.25 43.25 0.031 6.67 2.12 11.88
4/17/2022 7:00:00 AM 6.23 43.214 0.031 6.67 2.03 11.9
4/17/2022 7:15:00 AM 6.22 43.196 0.031 6.67 2.02 11.93
4/17/2022 7:30:00 AM 6.21 43.178 0.031 6.68 2.06 11.96
4/17/2022 7:45:00 AM 6.21 43.178 0.031 6.7 2.04 11.98
4/17/2022 8:00:00 AM 6.23 43.214 0.031 6.7 2 12.02
4/17/2022 8:15:00 AM 6.23 43.214 0.031 6.71 2 12.03
4/17/2022 8:30:00 AM 6.24 43.232 0.031 6.71 1.95 12.04
4/17/2022 8:45:00 AM 6.24 43.232 0.031 6.7 1.98 12.06
4/17/2022 9:00:00 AM 6.22 43.196 0.031 6.72 1.95 12.05
4/17/2022 9:15:00 AM 6.21 43.178 0.031 6.72 2.02 12.06
4/17/2022 9:30:00 AM 6.16 43.088 0.031 6.72 2.02 12.08
4/17/2022 9:45:00 AM 6.19 43.142 0.031 6.73 2 12.12
4/17/2022 10:00:00 AM 6.22 43.196 0.031 6.74 1.98 12.13
4/17/2022 10:15:00 AM 6.23 43.214 0.031 6.75 1.95 12.14
4/17/2022 10:30:00 AM 6.28 43.304 0.031 6.74 1.95 12.14
4/17/2022 10:45:00 AM 6.34 43.412 0.031 6.75 1.98 12.12
4/17/2022 11:00:00 AM 6.43 43.574 0.031 6.75 1.93 12.1
4/17/2022 11:15:00 AM 6.53 43.754 0.031 6.75 1.91 12.08
4/17/2022 11:30:00 AM 6.66 43.988 0.031 6.74 1.97 12.04
4/17/2022 11:45:00 AM 6.68 44.024 0.031 6.75 1.97 12.01
4/17/2022 12:00:00 PM 6.81 44.258 0.031 6.75 1.97 12.01
4/17/2022 12:15:00 PM 6.9 44.42 0.031 6.75 1.92 11.99
4/17/2022 12:30:00 PM 6.89 44.402 0.031 6.75 1.94 11.97
4/17/2022 12:45:00 PM 6.88 44.384 0.031 6.75 1.86 11.97
4/17/2022 1:00:00 PM 6.93 44.474 0.031 6.75 1.93 11.95
4/17/2022 1:15:00 PM 6.96 44.528 0.031 6.76 1.9 11.95
4/17/2022 1:30:00 PM 6.98 44.564 0.031 6.76 1.91 11.94
4/17/2022 1:45:00 PM 7.1 44.78 0.031 6.76 1.93 11.93
4/17/2022 2:00:00 PM 7.29 45.122 0.031 6.76 1.9 11.9
4/17/2022 2:15:00 PM 7.43 45.374 0.031 6.76 1.91 11.85
4/17/2022 2:30:00 PM 7.59 45.662 0.031 6.77 1.95 11.8
4/17/2022 2:45:00 PM 7.74 45.932 0.031 6.77 1.9 11.75
4/17/2022 3:00:00 PM 7.76 45.968 0.031 6.77 1.93 11.72
4/17/2022 3:15:00 PM 7.85 46.13 0.031 6.76 1.86 11.69
4/17/2022 3:30:00 PM 7.91 46.238 0.031 6.76 1.9 11.66
4/17/2022 3:45:00 PM 7.88 46.184 0.031 6.77 1.98 11.64
4/17/2022 4:00:00 PM 7.9 46.22 0.031 6.77 1.89 11.65
4/17/2022 4:15:00 PM 7.91 46.238 0.031 6.76 1.92 11.64
4/17/2022 4:30:00 PM 7.88 46.184 0.031 6.76 1.94 11.64
4/17/2022 4:45:00 PM 7.81 46.058 0.031 6.76 1.89 11.64
4/17/2022 5:00:00 PM 7.76 45.968 0.031 6.75 1.88 11.66
4/17/2022 5:15:00 PM 7.69 45.842 0.031 6.76 1.98 11.68
4/17/2022 5:30:00 PM 7.62 45.716 0.031 6.76 1.96 11.7
4/17/2022 5:45:00 PM 7.56 45.608 0.031 6.76 1.93 11.71
4/17/2022 6:00:00 PM 7.46 45.428 0.031 6.75 1.96 11.71
4/17/2022 6:15:00 PM 7.37 45.266 0.031 6.74 1.98 11.72
4/17/2022 6:30:00 PM 7.29 45.122 0.031 6.73 1.97 11.73
4/17/2022 6:45:00 PM 7.22 44.996 0.031 6.72 1.95 11.73
4/17/2022 7:00:00 PM 7.17 44.906 0.031 6.72 1.91 11.74
4/17/2022 7:15:00 PM 7.13 44.834 0.031 6.71 1.97 11.74
4/17/2022 7:30:00 PM 7.06 44.708 0.031 6.71 1.95 11.75
4/17/2022 7:45:00 PM 7 44.6 0.031 6.7 1.94 11.75
4/17/2022 8:00:00 PM 6.94 44.492 0.031 6.7 1.95 11.75
4/17/2022 8:15:00 PM 6.88 44.384 0.031 6.7 1.98 11.75
4/17/2022 8:30:00 PM 6.82 44.276 0.031 6.68 2.04 11.77
4/17/2022 8:45:00 PM 6.76 44.168 0.031 6.68 1.92 11.78
4/17/2022 9:00:00 PM 6.7 44.06 0.031 6.69 2 11.81
4/17/2022 9:15:00 PM 6.63 43.934 0.031 6.68 1.99 11.83
4/17/2022 9:30:00 PM 6.56 43.808 0.031 6.68 1.98 11.85
4/17/2022 9:45:00 PM 6.5 43.7 0.031 6.67 2.01 11.86
4/17/2022 10:00:00 PM 6.43 43.574 0.031 6.67 2.03 11.88
4/17/2022 10:15:00 PM 6.37 43.466 0.031 6.68 2.01 11.9
4/17/2022 10:30:00 PM 6.3 43.34 0.031 6.68 2.02 11.93
4/17/2022 10:45:00 PM 6.24 43.232 0.031 6.66 2.03 11.95
4/17/2022 11:00:00 PM 6.18 43.124 0.031 6.67 2.03 11.97
4/17/2022 11:15:00 PM 6.11 42.998 0.031 6.67 2.05 11.99
4/17/2022 11:30:00 PM 6.05 42.89 0.031 6.67 1.98 12.01
4/17/2022 11:45:00 PM 6 42.8 0.031 6.66 2 12.03
4/18/2022 12:00:00 AM 5.94 42.692 0.031 6.67 2.01 12.05
4/18/2022 12:15:00 AM 5.88 42.584 0.031 6.65 2.04 12.06
4/18/2022 12:30:00 AM 5.83 42.494 0.031 6.67 2.02 12.08
4/18/2022 12:45:00 AM 5.77 42.386 0.031 6.66 1.98 12.1
4/18/2022 1:00:00 AM 5.72 42.296 0.031 6.66 2.05 12.11
4/18/2022 1:15:00 AM 5.67 42.206 0.031 6.67 2.02 12.13
4/18/2022 1:30:00 AM 5.62 42.116 0.031 6.66 2.01 12.15
4/18/2022 1:45:00 AM 5.57 42.026 0.031 6.64 2.03 12.17
4/18/2022 2:00:00 AM 5.52 41.936 0.031 6.66 2.02 12.2
4/18/2022 2:15:00 AM 5.47 41.846 0.031 6.66 2.03 12.19
4/18/2022 2:30:00 AM 5.42 41.756 0.031 6.67 1.99 12.21
4/18/2022 2:45:00 AM 5.37 41.666 0.031 6.66 1.99 12.23
4/18/2022 3:00:00 AM 5.32 41.576 0.031 6.66 2 12.26
4/18/2022 3:15:00 AM 5.27 41.486 0.031 6.66 1.99 12.26
4/18/2022 3:30:00 AM 5.23 41.414 0.031 6.65 2 12.29
4/18/2022 3:45:00 AM 5.18 41.324 0.031 6.66 2 12.3
4/18/2022 4:00:00 AM 5.14 41.252 0.031 6.66 2.03 12.31
4/18/2022 4:15:00 AM 5.09 41.162 0.031 6.66 2.01 12.33
4/18/2022 4:30:00 AM 5.04 41.072 0.031 6.66 1.96 12.34
4/18/2022 4:45:00 AM 4.99 40.982 0.031 6.65 2.07 12.36
4/18/2022 5:00:00 AM 4.95 40.91 0.031 6.65 2.02 12.38
4/18/2022 5:15:00 AM 4.9 40.82 0.031 6.66 2.01 12.39
4/18/2022 5:30:00 AM 4.85 40.73 0.031 6.66 2.01 12.4
4/18/2022 5:45:00 AM 4.8 40.64 0.031 6.65 1.99 12.42
4/18/2022 6:00:00 AM 4.76 40.568 0.031 6.65 2.04 12.43
4/18/2022 6:15:00 AM 4.72 40.496 0.031 6.66 2 12.45
4/18/2022 6:30:00 AM 4.67 40.406 0.031 6.66 2.08 12.46
4/18/2022 6:45:00 AM 4.63 40.334 0.031 6.66 2.04 12.49
4/18/2022 7:00:00 AM 4.6 40.28 0.031 6.66 2 12.51
4/18/2022 7:15:00 AM 4.57 40.226 0.031 6.68 1.98 12.56
4/18/2022 7:30:00 AM 4.56 40.208 0.031 6.68 1.97 12.59
4/18/2022 7:45:00 AM 4.55 40.19 0.031 6.68 1.98 12.61
4/18/2022 8:00:00 AM 4.55 40.19 0.031 6.69 1.97 12.63
4/18/2022 8:15:00 AM 4.56 40.208 0.031 6.71 1.98 12.65
4/18/2022 8:30:00 AM 4.6 40.28 0.031 6.71 1.95 12.65
4/18/2022 8:45:00 AM 4.64 40.352 0.031 6.71 1.9 12.66
4/18/2022 9:00:00 AM 4.69 40.442 0.031 6.71 1.97 12.65
4/18/2022 9:15:00 AM 4.74 40.532 0.031 6.72 1.94 12.64
4/18/2022 9:30:00 AM 4.83 40.694 0.031 6.72 2 12.63
4/18/2022 9:45:00 AM 4.94 40.892 0.031 6.73 1.92 12.6
4/18/2022 10:00:00 AM 5.06 41.108 0.031 6.73 1.95 12.56
4/18/2022 10:15:00 AM 5.16 41.288 0.031 6.74 1.92 12.53
4/18/2022 10:30:00 AM 5.26 41.468 0.031 6.73 1.94 12.49
4/18/2022 10:45:00 AM 5.37 41.666 0.031 6.74 1.96 12.47
4/18/2022 11:00:00 AM 5.46 41.828 0.031 6.73 1.92 12.41
4/18/2022 11:15:00 AM 5.52 41.936 0.031 6.74 2.16 12.38
4/18/2022 11:30:00 AM 5.57 42.026 0.031 6.75 1.89 12.37
4/18/2022 11:45:00 AM 5.62 42.116 0.031 6.75 1.89 12.33
4/18/2022 12:00:00 PM 5.67 42.206 0.031 6.76 1.93 12.33
4/18/2022 12:15:00 PM 5.72 42.296 0.031 6.75 1.92 12.31
4/18/2022 12:30:00 PM 5.76 42.368 0.031 6.76 1.9 12.28
4/18/2022 12:45:00 PM 5.78 42.404 0.031 6.76 1.91 12.29
4/18/2022 1:00:00 PM 5.83 42.494 0.031 6.76 1.94 12.28
4/18/2022 1:15:00 PM 5.87 42.566 0.031 6.76 1.9 12.26
4/18/2022 1:30:00 PM 5.89 42.602 0.031 6.75 1.91 12.25
4/18/2022 1:45:00 PM 5.92 42.656 0.031 6.76 1.94 12.24
4/18/2022 2:00:00 PM 5.93 42.674 0.031 6.76 1.91 12.22
4/18/2022 2:15:00 PM 5.94 42.692 0.031 6.76 1.89 12.21
4/18/2022 2:30:00 PM 5.94 42.692 0.031 6.76 1.93 12.2
4/18/2022 2:45:00 PM 5.93 42.674 0.031 6.75 1.9 12.18
4/18/2022 3:00:00 PM 5.91 42.638 0.031 6.74 7.01 12.17
4/18/2022 3:15:00 PM 5.86 42.548 0.031 6.74 2.64 12.16
4/18/2022 3:30:00 PM 5.81 42.458 0.031 6.73 2.28 12.16
4/18/2022 3:45:00 PM 5.76 42.368 0.031 6.73 2.13 12.15
4/18/2022 4:00:00 PM 5.68 42.224 0.031 6.72 2.07 12.15
4/18/2022 4:15:00 PM 5.59 42.062 0.031 6.72 2.11 12.15
4/18/2022 4:30:00 PM 5.46 41.828 0.031 6.7 2.09 12.16
4/18/2022 4:45:00 PM 5.36 41.648 0.031 6.72 2.14 12.21
4/18/2022 5:00:00 PM 5.25 41.45 0.031 6.71 2.05 12.23
4/18/2022 5:15:00 PM 5.17 41.306 0.031 6.71 2.09 12.26
4/18/2022 5:30:00 PM 5.04 41.072 0.031 6.7 2.09 12.29
4/18/2022 5:45:00 PM 4.91 40.838 0.031 6.7 2.1 12.31
4/18/2022 6:00:00 PM 4.86 40.748 0.031 6.69 2.11 12.34
4/18/2022 6:15:00 PM 4.82 40.676 0.031 6.7 2.17 12.35
4/18/2022 6:30:00 PM 4.78 40.604 0.031 6.7 2.16 12.37
4/18/2022 6:45:00 PM 4.76 40.568 0.031 6.7 2.28 12.36
4/18/2022 7:00:00 PM 4.75 40.55 0.031 6.7 2.25 12.36
4/18/2022 7:15:00 PM 4.75 40.55 0.031 6.69 2.41 12.35
4/18/2022 7:30:00 PM 4.75 40.55 0.031 6.7 2.43 12.34
4/18/2022 7:45:00 PM 4.75 40.55 0.031 6.7 2.48 12.33
4/18/2022 8:00:00 PM 4.76 40.568 0.031 6.7 2.54 12.32
4/18/2022 8:15:00 PM 4.75 40.55 0.031 6.7 2.5 12.32
4/18/2022 8:30:00 PM 4.74 40.532 0.031 6.7 2.55 12.32
4/18/2022 8:45:00 PM 4.71 40.478 0.031 6.7 2.53 12.33
4/18/2022 9:00:00 PM 4.69 40.442 0.031 6.69 2.59 12.33
4/18/2022 9:15:00 PM 4.66 40.388 0.031 6.7 2.51 12.34
4/18/2022 9:30:00 PM 4.61 40.298 0.031 6.7 2.57 12.35
4/18/2022 9:45:00 PM 4.55 40.19 0.031 6.69 2.54 12.36
4/18/2022 10:00:00 PM 4.57 40.226 0.031 6.69 2.53 12.37
4/18/2022 10:15:00 PM 4.6 40.28 0.031 6.69 2.47 12.36
4/18/2022 10:30:00 PM 4.61 40.298 0.031 6.7 2.54 12.36
4/18/2022 10:45:00 PM 4.61 40.298 0.031 6.7 2.49 12.36
4/18/2022 11:00:00 PM 4.57 40.226 0.031 6.69 2.55 12.35
4/18/2022 11:15:00 PM 4.5 40.1 0.031 6.7 2.5 12.36
4/18/2022 11:30:00 PM 4.44 39.992 0.031 6.69 2.49 12.38
4/18/2022 11:45:00 PM 4.42 39.956 0.031 6.69 2.48 12.38
4/19/2022 12:00:00 AM 4.38 39.884 0.031 6.69 2.36 12.39
4/19/2022 12:15:00 AM 4.34 39.812 0.031 6.68 2.35 12.41
4/19/2022 12:30:00 AM 4.3 39.74 0.031 6.69 2.43 12.42
4/19/2022 12:45:00 AM 4.24 39.632 0.031 6.69 2.36 12.43
4/19/2022 1:00:00 AM 4.23 39.614 0.031 6.7 2.24 12.45
4/19/2022 1:15:00 AM 4.23 39.614 0.031 6.69 2.34 12.45
4/19/2022 1:30:00 AM 4.22 39.596 0.031 6.69 2.28 12.45
4/19/2022 1:45:00 AM 4.19 39.542 0.031 6.69 2.25 12.45
4/19/2022 2:00:00 AM 4.15 39.47 0.031 6.69 2.18 12.47
4/19/2022 2:15:00 AM 4.14 39.452 0.031 6.68 2.25 12.47
4/19/2022 2:30:00 AM 4.15 39.47 0.031 6.69 2.21 12.47
4/19/2022 2:45:00 AM 4.16 39.488 0.031 6.69 2.18 12.47
4/19/2022 3:00:00 AM 4.15 39.47 0.031 6.69 2.16 12.46
4/19/2022 3:15:00 AM 4.15 39.47 0.031 6.67 2.17 12.46
4/19/2022 3:30:00 AM 4.14 39.452 0.031 6.69 2.19 12.46
4/19/2022 3:45:00 AM 4.13 39.434 0.031 6.69 2.16 12.46
4/19/2022 4:00:00 AM 4.12 39.416 0.031 6.69 2.15 12.45
4/19/2022 4:15:00 AM 4.13 39.434 0.031 6.68 2.17 12.45
4/19/2022 4:30:00 AM 4.11 39.398 0.031 6.68 2.16 12.45
4/19/2022 4:45:00 AM 4.1 39.38 0.031 6.68 2.08 12.46
4/19/2022 5:00:00 AM 4.11 39.398 0.031 6.7 2.14 12.46
4/19/2022 5:15:00 AM 4.11 39.398 0.031 6.69 2.13 12.46
4/19/2022 5:30:00 AM 4.11 39.398 0.031 6.69 2.13 12.46
4/19/2022 5:45:00 AM 4.12 39.416 0.031 6.68 2.09 12.46
4/19/2022 6:00:00 AM 4.12 39.416 0.031 6.69 2.15 12.46
4/19/2022 6:15:00 AM 4.12 39.416 0.031 6.69 2.11 12.46
4/19/2022 6:30:00 AM 4.12 39.416 0.031 6.69 2.12 12.46
4/19/2022 6:45:00 AM 4.13 39.434 0.031 6.69 2.13 12.46
4/19/2022 7:00:00 AM 4.13 39.434 0.031 6.68 2.1 12.46
4/19/2022 7:15:00 AM 4.14 39.452 0.031 6.7 2.08 12.48
4/19/2022 7:30:00 AM 4.16 39.488 0.031 6.71 2.1 12.5
4/19/2022 7:45:00 AM 4.17 39.506 0.031 6.71 2.08 12.51
4/19/2022 8:00:00 AM 4.18 39.524 0.031 6.71 2.06 12.52
4/19/2022 8:15:00 AM 4.18 39.524 0.031 6.72 2.06 12.54
4/19/2022 8:30:00 AM 4.17 39.506 0.031 6.73 2.11 12.55
4/19/2022 8:45:00 AM 4.17 39.506 0.031 6.74 2.11 12.57
4/19/2022 9:00:00 AM 4.19 39.542 0.031 6.74 2.12 12.57
4/19/2022 9:15:00 AM 4.22 39.596 0.031 6.75 2.2 12.59
4/19/2022 9:30:00 AM 4.23 39.614 0.031 6.75 2.2 12.59
4/19/2022 9:45:00 AM 4.25 39.65 0.031 6.75 2.23 12.58
4/19/2022 10:00:00 AM 4.28 39.704 0.031 6.75 2.33 12.6
4/19/2022 10:15:00 AM 4.32 39.776 0.031 6.75 2.29 12.59
4/19/2022 10:30:00 AM 4.4 39.92 0.031 6.77 2.31 12.59
4/19/2022 10:45:00 AM 4.47 40.046 0.031 6.77 2.44 12.56
4/19/2022 11:00:00 AM 4.54 40.172 0.031 6.77 2.49 12.53
4/19/2022 11:15:00 AM 4.6 40.28 0.031 6.77 2.66 12.51
4/19/2022 11:30:00 AM 4.66 40.388 0.031 6.78 2.61 12.49
4/19/2022 11:45:00 AM 4.8 40.64 0.031 6.78 2.62 12.46
4/19/2022 12:00:00 PM 4.97 40.946 0.031 6.79 2.6 12.41
4/19/2022 12:15:00 PM 5.1 41.18 0.031 6.79 2.64 12.35
4/19/2022 12:30:00 PM 5.14 41.252 0.031 6.79 2.61 12.33
4/19/2022 12:45:00 PM 5.17 41.306 0.031 6.79 2.67 12.31
4/19/2022 1:00:00 PM 5.3 41.54 0.031 6.8 2.64 12.29
4/19/2022 1:15:00 PM 5.45 41.81 0.031 6.8 2.61 12.26
4/19/2022 1:30:00 PM 5.52 41.936 0.031 6.8 2.58 12.23
4/19/2022 1:45:00 PM 5.62 42.116 0.031 6.8 2.56 12.2
4/19/2022 2:00:00 PM 5.72 42.296 0.031 6.81 2.62 12.17
4/19/2022 2:15:00 PM 5.93 42.674 0.031 6.81 2.63 12.14
4/19/2022 2:30:00 PM 5.98 42.764 0.031 6.81 2.51 12.09
4/19/2022 2:45:00 PM 6.04 42.872 0.031 6.81 2.5 12.08
4/19/2022 3:00:00 PM 6.05 42.89 0.031 6.81 2.45 12.04
4/19/2022 3:15:00 PM 6.02 42.836 0.031 6.8 2.48 12.04
4/19/2022 3:30:00 PM 6.12 43.016 0.031 6.82 2.42 12.03
4/19/2022 3:45:00 PM 6.22 43.196 0.031 6.8 2.39 12.01
4/19/2022 4:00:00 PM 6.3 43.34 0.031 6.82 2.38 11.99
4/19/2022 4:15:00 PM 6.28 43.304 0.031 6.81 2.3 11.96
4/19/2022 4:30:00 PM 6.29 43.322 0.031 6.81 2.31 11.96
4/19/2022 4:45:00 PM 6.3 43.34 0.031 6.81 2.35 11.96
4/19/2022 5:00:00 PM 6.28 43.304 0.031 6.81 2.34 11.96
4/19/2022 5:15:00 PM 6.24 43.232 0.031 6.81 2.33 11.95
4/19/2022 5:30:00 PM 6.19 43.142 0.031 6.81 2.26 11.96
4/19/2022 5:45:00 PM 6.13 43.034 0.031 6.81 2.23 11.97
4/19/2022 6:00:00 PM 6.09 42.962 0.031 6.8 2.31 11.98
4/19/2022 6:15:00 PM 6.03 42.854 0.031 6.81 2.33 11.99
4/19/2022 6:30:00 PM 5.98 42.764 0.031 6.79 2.33 12
4/19/2022 6:45:00 PM 5.93 42.674 0.031 6.81 2.34 12.01
4/19/2022 7:00:00 PM 5.87 42.566 0.031 6.79 2.28 12.01
4/19/2022 7:15:00 PM 5.84 42.512 0.031 6.78 2.24 12.01
4/19/2022 7:30:00 PM 5.79 42.422 0.032 6.77 2.22 12.01
4/19/2022 7:45:00 PM 5.77 42.386 0.032 6.77 2.23 12
4/19/2022 8:00:00 PM 5.73 42.314 0.032 6.76 2.18 12.01
4/19/2022 8:15:00 PM 5.68 42.224 0.032 6.76 2.25 12.01
4/19/2022 8:30:00 PM 5.64 42.152 0.032 6.76 2.19 12.03
4/19/2022 8:45:00 PM 5.61 42.098 0.032 6.75 2.22 12.04
4/19/2022 9:00:00 PM 5.58 42.044 0.032 6.76 2.24 12.03
4/19/2022 9:15:00 PM 5.56 42.008 0.032 6.75 2.22 12.04
4/19/2022 9:30:00 PM 5.54 41.972 0.032 6.75 2.23 12.05
4/19/2022 9:45:00 PM 5.5 41.9 0.032 6.75 2.18 12.08
4/19/2022 10:00:00 PM 5.46 41.828 0.032 6.75 2.21 12.1
4/19/2022 10:15:00 PM 5.43 41.774 0.032 6.75 2.13 12.12
4/19/2022 10:30:00 PM 5.41 41.738 0.032 6.75 2.15 12.11
4/19/2022 10:45:00 PM 5.38 41.684 0.032 6.75 2.16 12.14
4/19/2022 11:00:00 PM 5.36 41.648 0.032 6.75 2.18 12.14
4/19/2022 11:15:00 PM 5.34 41.612 0.032 6.74 2.16 12.14
4/19/2022 11:30:00 PM 5.31 41.558 0.032 6.74 2.12 12.15
4/19/2022 11:45:00 PM 5.29 41.522 0.032 6.74 2.17 12.16
4/20/2022 12:00:00 AM 5.28 41.504 0.032 6.73 2.17 12.18
4/20/2022 12:15:00 AM 5.28 41.504 0.032 6.74 2.31 12.18
4/20/2022 12:30:00 AM 5.26 41.468 0.032 6.74 2.45 12.18
4/20/2022 12:45:00 AM 5.24 41.432 0.032 6.73 2.31 12.21
4/20/2022 1:00:00 AM 5.22 41.396 0.032 6.73 2.18 12.2
4/20/2022 1:15:00 AM 5.21 41.378 0.032 6.73 2.11 12.21
4/20/2022 1:30:00 AM 5.2 41.36 0.032 6.73 2.11 12.22
4/20/2022 1:45:00 AM 5.18 41.324 0.032 6.73 2.08 12.23
4/20/2022 2:00:00 AM 5.15 41.27 0.032 6.72 2.06 12.23
4/20/2022 2:15:00 AM 5.12 41.216 0.032 6.73 2.12 12.25
4/20/2022 2:30:00 AM 5.09 41.162 0.032 6.72 2.11 12.26
4/20/2022 2:45:00 AM 5.07 41.126 0.032 6.72 2.09 12.27
4/20/2022 3:00:00 AM 5.03 41.054 0.032 6.73 2.09 12.29
4/20/2022 3:15:00 AM 5 41 0.032 6.73 2.09 12.3
4/20/2022 3:30:00 AM 4.97 40.946 0.032 6.72 2.1 12.32
4/20/2022 3:45:00 AM 4.95 40.91 0.032 6.72 2.11 12.33
4/20/2022 4:00:00 AM 4.93 40.874 0.032 6.71 2.12 12.34
4/20/2022 4:15:00 AM 4.9 40.82 0.032 6.72 2.09 12.35
4/20/2022 4:30:00 AM 4.87 40.766 0.032 6.71 2.1 12.36
4/20/2022 4:45:00 AM 4.83 40.694 0.032 6.72 2.06 12.38
4/20/2022 5:00:00 AM 4.78 40.604 0.032 6.72 2.12 12.39
4/20/2022 5:15:00 AM 4.74 40.532 0.032 6.71 2.05 12.41
4/20/2022 5:30:00 AM 4.7 40.46 0.032 6.71 2.13 12.43
4/20/2022 5:45:00 AM 4.66 40.388 0.032 6.71 2.14 12.44
4/20/2022 6:00:00 AM 4.62 40.316 0.032 6.7 2.01 12.46
4/20/2022 6:15:00 AM 4.58 40.244 0.032 6.71 2.07 12.48
4/20/2022 6:30:00 AM 4.54 40.172 0.032 6.71 2.07 12.5
4/20/2022 6:45:00 AM 4.51 40.118 0.032 6.71 2.11 12.53
4/20/2022 7:00:00 AM 4.49 40.082 0.032 6.72 2.09 12.55
4/20/2022 7:15:00 AM 4.47 40.046 0.032 6.72 2.01 12.58
4/20/2022 7:30:00 AM 4.45 40.01 0.032 6.73 2.02 12.6
4/20/2022 7:45:00 AM 4.43 39.974 0.032 6.73 1.98 12.62
4/20/2022 8:00:00 AM 4.41 39.938 0.032 6.72 2.01 12.64
4/20/2022 8:15:00 AM 4.42 39.956 0.032 6.74 1.97 12.66
4/20/2022 8:30:00 AM 4.47 40.046 0.032 6.74 1.99 12.67
4/20/2022 8:45:00 AM 4.51 40.118 0.032 6.74 2.03 12.68
4/20/2022 9:00:00 AM 4.57 40.226 0.032 6.75 1.94 12.67
4/20/2022 9:15:00 AM 4.64 40.352 0.032 6.76 1.97 12.68
4/20/2022 9:30:00 AM 4.72 40.496 0.032 6.76 2 12.66
4/20/2022 9:45:00 AM 4.81 40.658 0.032 6.76 1.97 12.64
4/20/2022 10:00:00 AM 4.93 40.874 0.032 6.76 1.96 12.61
4/20/2022 10:15:00 AM 5.08 41.144 0.032 6.77 1.96 12.58
4/20/2022 10:30:00 AM 5.23 41.414 0.032 6.77 1.98 12.53
4/20/2022 10:45:00 AM 5.42 41.756 0.031 6.78 1.94 12.48
4/20/2022 11:00:00 AM 5.63 42.134 0.031 6.78 1.93 12.43
4/20/2022 11:15:00 AM 5.85 42.53 0.031 6.78 1.92 12.36
4/20/2022 11:30:00 AM 6.08 42.944 0.031 6.77 1.96 12.29
4/20/2022 11:45:00 AM 6.34 43.412 0.031 6.78 1.93 12.22
4/20/2022 12:00:00 PM 6.61 43.898 0.031 6.78 1.89 12.14
4/20/2022 12:15:00 PM 6.9 44.42 0.031 6.79 1.96 12.06
4/20/2022 12:30:00 PM 7.19 44.942 0.031 6.79 1.94 11.99
4/20/2022 12:45:00 PM 7.47 45.446 0.031 6.8 1.86 11.91
4/20/2022 1:00:00 PM 7.74 45.932 0.031 6.8 1.92 11.82
4/20/2022 1:15:00 PM 8.02 46.436 0.031 6.8 1.89 11.75
4/20/2022 1:30:00 PM 8.29 46.922 0.031 6.8 1.91 11.67
4/20/2022 1:45:00 PM 8.52 47.336 0.031 6.8 1.86 11.59
4/20/2022 2:00:00 PM 8.73 47.714 0.031 6.8 1.86 11.53
4/20/2022 2:15:00 PM 8.89 48.002 0.031 6.81 2.02 11.47
4/20/2022 2:30:00 PM 9.01 48.218 0.031 6.8 1.91 11.43
4/20/2022 2:45:00 PM 9.09 48.362 0.031 6.8 1.97 11.39
4/20/2022 3:00:00 PM 9.12 48.416 0.031 6.81 2.25 11.37
4/20/2022 3:15:00 PM 9.12 48.416 0.031 6.81 2.1 11.36
4/20/2022 3:30:00 PM 9.1 48.38 0.031 6.81 2.13 11.36
4/20/2022 3:45:00 PM 9.05 48.29 0.031 6.81 2.22 11.36
4/20/2022 4:00:00 PM 8.99 48.182 0.031 6.8 2.19 11.37
4/20/2022 4:15:00 PM 8.93 48.074 0.031 6.8 2.21 11.38
4/20/2022 4:30:00 PM 8.87 47.966 0.031 6.81 2.18 11.39
4/20/2022 4:45:00 PM 8.79 47.822 0.031 6.8 2.25 11.4
4/20/2022 5:00:00 PM 8.72 47.696 0.031 6.8 2.23 11.41
4/20/2022 5:15:00 PM 8.64 47.552 0.031 6.8 2.29 11.42
4/20/2022 5:30:00 PM 8.56 47.408 0.031 6.8 2.27 11.44
4/20/2022 5:45:00 PM 8.5 47.3 0.031 6.78 2.26 11.44
4/20/2022 6:00:00 PM 8.43 47.174 0.031 6.79 2.36 11.44
4/20/2022 6:15:00 PM 8.36 47.048 0.031 6.78 2.28 11.46
4/20/2022 6:30:00 PM 8.3 46.94 0.031 6.77 2.26 11.46
4/20/2022 6:45:00 PM 8.23 46.814 0.031 6.77 2.29 11.47
4/20/2022 7:00:00 PM 8.18 46.724 0.031 6.75 2.29 11.48
4/20/2022 7:15:00 PM 8.12 46.616 0.031 6.75 2.23 11.48
4/20/2022 7:30:00 PM 8.07 46.526 0.031 6.75 2.3 11.48
4/20/2022 7:45:00 PM 8 46.4 0.031 6.74 2.35 11.5
4/20/2022 8:00:00 PM 7.94 46.292 0.031 6.74 2.26 11.5
4/20/2022 8:15:00 PM 7.88 46.184 0.031 6.72 2.28 11.51
4/20/2022 8:30:00 PM 7.83 46.094 0.031 6.72 2.28 11.52
4/20/2022 8:45:00 PM 7.77 45.986 0.031 6.72 2.34 11.52
4/20/2022 9:00:00 PM 7.71 45.878 0.031 6.71 2.36 11.55
4/20/2022 9:15:00 PM 7.64 45.752 0.031 6.72 2.36 11.56
4/20/2022 9:30:00 PM 7.58 45.644 0.031 6.72 2.31 11.58
4/20/2022 9:45:00 PM 7.51 45.518 0.031 6.71 2.43 11.61
4/20/2022 10:00:00 PM 7.44 45.392 0.031 6.71 2.36 11.62
4/20/2022 10:15:00 PM 7.37 45.266 0.031 6.71 2.32 11.64
4/20/2022 10:30:00 PM 7.3 45.14 0.031 6.7 2.34 11.67
4/20/2022 10:45:00 PM 7.22 44.996 0.031 6.71 2.31 11.69
4/20/2022 11:00:00 PM 7.16 44.888 0.031 6.71 2.31 11.71
4/20/2022 11:15:00 PM 7.09 44.762 0.031 6.71 2.32 11.72
4/20/2022 11:30:00 PM 7.02 44.636 0.031 6.71 2.31 11.74
4/20/2022 11:45:00 PM 6.95 44.51 0.031 6.71 2.29 11.76
4/21/2022 12:00:00 AM 6.89 44.402 0.031 6.7 2.34 11.78
4/21/2022 12:15:00 AM 6.84 44.312 0.031 6.7 2.32 11.8
4/21/2022 12:30:00 AM 6.79 44.222 0.031 6.7 2.28 11.82
4/21/2022 12:45:00 AM 6.75 44.15 0.031 6.7 2.34 11.83
4/21/2022 1:00:00 AM 6.71 44.078 0.031 6.7 2.32 11.84
4/21/2022 1:15:00 AM 6.66 43.988 0.031 6.7 2.28 11.86
4/21/2022 1:30:00 AM 6.62 43.916 0.031 6.71 2.3 11.87
4/21/2022 1:45:00 AM 6.57 43.826 0.031 6.7 2.27 11.88
4/21/2022 2:00:00 AM 6.53 43.754 0.031 6.7 2.31 11.9
4/21/2022 2:15:00 AM 6.48 43.664 0.031 6.7 2.22 11.91
4/21/2022 2:30:00 AM 6.43 43.574 0.031 6.69 2.29 11.92
4/21/2022 2:45:00 AM 6.39 43.502 0.031 6.69 2.24 11.94
4/21/2022 3:00:00 AM 6.34 43.412 0.031 6.7 2.32 11.95
4/21/2022 3:15:00 AM 6.3 43.34 0.031 6.7 2.25 11.96
4/21/2022 3:30:00 AM 6.25 43.25 0.031 6.69 2.25 11.98
4/21/2022 3:45:00 AM 6.21 43.178 0.031 6.7 2.26 11.99
4/21/2022 4:00:00 AM 6.17 43.106 0.031 6.7 2.32 12
4/21/2022 4:15:00 AM 6.14 43.052 0.032 6.69 2.24 12.02
4/21/2022 4:30:00 AM 6.11 42.998 0.032 6.69 2.31 12.03
4/21/2022 4:45:00 AM 6.09 42.962 0.032 6.68 2.27 12.03
4/21/2022 5:00:00 AM 6.07 42.926 0.032 6.69 2.25 12.04
4/21/2022 5:15:00 AM 6.06 42.908 0.032 6.69 2.28 12.05
4/21/2022 5:30:00 AM 6.05 42.89 0.032 6.69 2.33 12.05
4/21/2022 5:45:00 AM 6.04 42.872 0.032 6.69 2.28 12.05
4/21/2022 6:00:00 AM 6.04 42.872 0.032 6.69 2.25 12.05
4/21/2022 6:15:00 AM 6.03 42.854 0.032 6.69 2.38 12.05
4/21/2022 6:30:00 AM 6.02 42.836 0.032 6.7 2.41 12.06
4/21/2022 6:45:00 AM 6.01 42.818 0.032 6.69 2.33 12.08
4/21/2022 7:00:00 AM 6.02 42.836 0.032 6.71 2.28 12.1
4/21/2022 7:15:00 AM 6.03 42.854 0.032 6.72 2.23 12.12
4/21/2022 7:30:00 AM 6.03 42.854 0.031 6.73 2.19 12.13
4/21/2022 7:45:00 AM 6.03 42.854 0.031 6.73 2.27 12.15
4/21/2022 8:00:00 AM 6.04 42.872 0.031 6.73 2.25 12.15
4/21/2022 8:15:00 AM 6.09 42.962 0.031 6.73 2.17 12.19
4/21/2022 8:30:00 AM 6.14 43.052 0.031 6.74 2.17 12.18
4/21/2022 8:45:00 AM 6.18 43.124 0.031 6.75 2.2 12.19
4/21/2022 9:00:00 AM 6.24 43.232 0.031 6.76 2.18 12.18
4/21/2022 9:15:00 AM 6.31 43.358 0.031 6.76 2.15 12.17
4/21/2022 9:30:00 AM 6.35 43.43 0.031 6.76 2.21 12.14
4/21/2022 9:45:00 AM 6.4 43.52 0.031 6.76 2.2 12.13
4/21/2022 10:00:00 AM 6.47 43.646 0.031 6.77 2.35 12.12
4/21/2022 10:15:00 AM 6.53 43.754 0.031 6.77 2.17 12.11
4/21/2022 10:30:00 AM 6.61 43.898 0.031 6.78 2.12 12.09
4/21/2022 10:45:00 AM 6.71 44.078 0.031 6.79 2.17 12.08
4/21/2022 11:00:00 AM 6.81 44.258 0.031 6.78 2.17 12.05
4/21/2022 11:15:00 AM 6.91 44.438 0.031 6.78 2.17 12.02
4/21/2022 11:30:00 AM 6.98 44.564 0.031 6.78 2.17 11.98
4/21/2022 11:45:00 AM 7.03 44.654 0.031 6.78 2.12 11.96
4/21/2022 12:00:00 PM 7.05 44.69 0.031 6.77 2.18 11.93
4/21/2022 12:15:00 PM 7.08 44.744 0.031 6.78 2.11 11.91
4/21/2022 12:30:00 PM 7.09 44.762 0.031 6.78 2.14 11.9
4/21/2022 12:45:00 PM 7.1 44.78 0.031 6.77 2.12 11.88
4/21/2022 1:00:00 PM 7.1 44.78 0.031 6.76 2.14 11.87
4/21/2022 1:15:00 PM 7.11 44.798 0.031 6.76 2.14 11.87
4/21/2022 1:30:00 PM 7.11 44.798 0.031 6.77 2.11 11.87
4/21/2022 1:45:00 PM 7.11 44.798 0.031 6.77 2.16 11.86
4/21/2022 2:00:00 PM 7.09 44.762 0.031 6.76 2.12 11.86
4/21/2022 2:15:00 PM 7.07 44.726 0.031 6.77 2.13 11.86
4/21/2022 2:30:00 PM 7.06 44.708 0.031 6.77 2.17 11.87
4/21/2022 2:45:00 PM 7.06 44.708 0.031 6.76 2.14 11.87
4/21/2022 3:00:00 PM 7.05 44.69 0.031 6.76 2.16 11.87
4/21/2022 3:15:00 PM 7.05 44.69 0.031 6.76 2.14 11.86
4/21/2022 3:30:00 PM 7.04 44.672 0.031 6.76 2.16 11.85
4/21/2022 3:45:00 PM 7.04 44.672 0.031 6.76 2.21 11.84
4/21/2022 4:00:00 PM 7.04 44.672 0.031 6.75 2.16 11.84
4/21/2022 4:15:00 PM 7.04 44.672 0.031 6.75 2.18 11.83
4/21/2022 4:30:00 PM 7.04 44.672 0.031 6.75 2.15 11.82
4/21/2022 4:45:00 PM 7.05 44.69 0.031 6.73 2.14 11.82
4/21/2022 5:00:00 PM 7.06 44.708 0.031 6.74 2.13 11.8
4/21/2022 5:15:00 PM 7.07 44.726 0.031 6.74 2.16 11.79
4/21/2022 5:30:00 PM 7.08 44.744 0.031 6.73 2.16 11.78
4/21/2022 5:45:00 PM 7.09 44.762 0.031 6.73 2.18 11.78
4/21/2022 6:00:00 PM 7.09 44.762 0.031 6.72 2.14 11.77
4/21/2022 6:15:00 PM 7.1 44.78 0.031 6.72 2.19 11.77
4/21/2022 6:30:00 PM 7.1 44.78 0.031 6.72 2.14 11.77
4/21/2022 6:45:00 PM 7.11 44.798 0.031 6.7 2.17 11.76
4/21/2022 7:00:00 PM 7.11 44.798 0.031 6.71 2.21 11.76
4/21/2022 7:15:00 PM 7.11 44.798 0.031 6.69 2.26 11.75
4/21/2022 7:30:00 PM 7.11 44.798 0.031 6.71 2.2 11.74
4/21/2022 7:45:00 PM 7.12 44.816 0.031 6.7 2.17 11.73
4/21/2022 8:00:00 PM 7.12 44.816 0.031 6.69 2.13 11.72
4/21/2022 8:15:00 PM 7.12 44.816 0.031 6.68 2.15 11.71
4/21/2022 8:30:00 PM 7.11 44.798 0.031 6.68 2.17 11.71
4/21/2022 8:45:00 PM 7.11 44.798 0.031 6.68 2.19 11.71
4/21/2022 9:00:00 PM 7.11 44.798 0.031 6.66 2.17 11.71
4/21/2022 9:15:00 PM 7.1 44.78 0.031 6.67 2.23 11.71
4/21/2022 9:30:00 PM 7.08 44.744 0.031 6.66 2.18 11.72
4/21/2022 9:45:00 PM 7.05 44.69 0.031 6.65 2.17 11.73
4/21/2022 10:00:00 PM 7.03 44.654 0.031 6.65 2.21 11.73
4/21/2022 10:15:00 PM 7.01 44.618 0.031 6.65 2.18 11.74
4/21/2022 10:30:00 PM 6.98 44.564 0.031 6.65 2.19 11.74
4/21/2022 10:45:00 PM 6.96 44.528 0.031 6.66 2.21 11.76
4/21/2022 11:00:00 PM 6.93 44.474 0.031 6.66 2.27 11.76
4/21/2022 11:15:00 PM 6.9 44.42 0.031 6.66 2.17 11.77
4/21/2022 11:30:00 PM 6.87 44.366 0.031 6.66 2.2 11.78
4/21/2022 11:45:00 PM 6.84 44.312 0.031 6.67 2.21 11.79
4/22/2022 12:00:00 AM 6.81 44.258 0.031 6.65 2.21 11.8
4/22/2022 12:15:00 AM 6.77 44.186 0.031 6.66 2.2 11.82
4/22/2022 12:30:00 AM 6.73 44.114 0.031 6.66 2.19 11.82
4/22/2022 12:45:00 AM 6.69 44.042 0.031 6.67 2.18 11.84
4/22/2022 1:00:00 AM 6.66 43.988 0.031 6.67 2.24 11.86
4/22/2022 1:15:00 AM 6.63 43.934 0.031 6.67 2.16 11.86
4/22/2022 1:30:00 AM 6.59 43.862 0.031 6.67 2.24 11.88
4/22/2022 1:45:00 AM 6.55 43.79 0.031 6.68 2.18 11.89
4/22/2022 2:00:00 AM 6.52 43.736 0.032 6.67 2.24 11.9
4/22/2022 2:15:00 AM 6.48 43.664 0.032 6.68 2.25 11.9
4/22/2022 2:30:00 AM 6.45 43.61 0.032 6.67 2.18 11.92
4/22/2022 2:45:00 AM 6.42 43.556 0.032 6.66 2.02 11.93
4/22/2022 3:00:00 AM 6.4 43.52 0.032 6.67 2.03 11.93
4/22/2022 3:15:00 AM 6.38 43.484 0.032 6.67 2.05 11.94
4/22/2022 3:30:00 AM 6.36 43.448 0.032 6.66 2.04 11.95
4/22/2022 3:45:00 AM 6.35 43.43 0.032 6.66 1.99 11.95
4/22/2022 4:00:00 AM 6.35 43.43 0.032 6.67 2.02 11.95
4/22/2022 4:15:00 AM 6.35 43.43 0.032 6.67 2.02 11.95
4/22/2022 4:30:00 AM 6.35 43.43 0.032 6.67 2.01 11.96
4/22/2022 4:45:00 AM 6.35 43.43 0.032 6.67 2.04 11.96
4/22/2022 5:00:00 AM 6.36 43.448 0.032 6.67 2.05 11.96
4/22/2022 5:15:00 AM 6.37 43.466 0.032 6.66 1.99 11.96
4/22/2022 5:30:00 AM 6.37 43.466 0.032 6.67 2.05 11.96
4/22/2022 5:45:00 AM 6.38 43.484 0.032 6.66 2.01 11.96
4/22/2022 6:00:00 AM 6.38 43.484 0.032 6.67 2.02 11.96
4/22/2022 6:15:00 AM 6.36 43.448 0.032 6.67 2.01 11.97
4/22/2022 6:30:00 AM 6.35 43.43 0.032 6.66 2.01 11.98
4/22/2022 6:45:00 AM 6.33 43.394 0.032 6.65 1.95 12
4/22/2022 7:00:00 AM 6.31 43.358 0.032 6.67 1.96 12.02
4/22/2022 7:15:00 AM 6.3 43.34 0.032 6.67 1.97 12.04
4/22/2022 7:30:00 AM 6.28 43.304 0.031 6.68 1.97 12.07
4/22/2022 7:45:00 AM 6.25 43.25 0.031 6.68 1.94 12.09
4/22/2022 8:00:00 AM 6.23 43.214 0.031 6.7 1.93 12.11
4/22/2022 8:15:00 AM 6.24 43.232 0.031 6.7 1.98 12.13
4/22/2022 8:30:00 AM 6.26 43.268 0.031 6.71 1.93 12.15
4/22/2022 8:45:00 AM 6.29 43.322 0.031 6.72 1.9 12.16
4/22/2022 9:00:00 AM 6.34 43.412 0.031 6.72 1.93 12.17
4/22/2022 9:15:00 AM 6.4 43.52 0.031 6.74 1.9 12.17
4/22/2022 9:30:00 AM 6.48 43.664 0.031 6.74 1.93 12.15
4/22/2022 9:45:00 AM 6.57 43.826 0.031 6.75 1.92 12.14
4/22/2022 10:00:00 AM 6.69 44.042 0.031 6.76 1.92 12.12
4/22/2022 10:15:00 AM 6.84 44.312 0.031 6.76 1.93 12.09
4/22/2022 10:30:00 AM 7 44.6 0.031 6.76 1.91 12.05
4/22/2022 10:45:00 AM 7.18 44.924 0.031 6.77 1.91 12
4/22/2022 11:00:00 AM 7.39 45.302 0.031 6.77 1.88 11.94
4/22/2022 11:15:00 AM 7.6 45.68 0.031 6.77 1.84 11.88
4/22/2022 11:30:00 AM 7.83 46.094 0.031 6.77 1.92 11.82
4/22/2022 11:45:00 AM 8.08 46.544 0.031 6.78 1.9 11.75
4/22/2022 12:00:00 PM 8.35 47.03 0.031 6.78 1.88 11.68
4/22/2022 12:15:00 PM 8.61 47.498 0.031 6.79 1.83 11.61
4/22/2022 12:30:00 PM 8.89 48.002 0.031 6.8 1.83 11.54
4/22/2022 12:45:00 PM 9.16 48.488 0.031 6.79 1.89 11.46
4/22/2022 1:00:00 PM 9.43 48.974 0.031 6.79 1.84 11.38
4/22/2022 1:15:00 PM 9.69 49.442 0.031 6.78 1.81 11.32
4/22/2022 1:30:00 PM 9.93 49.874 0.031 6.79 1.82 11.25
4/22/2022 1:45:00 PM 10.15 50.27 0.031 6.79 1.84 11.18
4/22/2022 2:00:00 PM 10.34 50.612 0.031 6.79 1.86 11.13
4/22/2022 2:15:00 PM 10.49 50.882 0.031 6.8 1.79 11.08
4/22/2022 2:30:00 PM 10.59 51.062 0.031 6.8 1.79 11.04
4/22/2022 2:45:00 PM 10.68 51.224 0.031 6.8 1.77 11
4/22/2022 3:00:00 PM 10.71 51.278 0.031 6.79 1.81 10.98
4/22/2022 3:15:00 PM 10.69 51.242 0.031 6.79 1.82 10.97
4/22/2022 3:30:00 PM 10.65 51.17 0.031 6.8 1.91 10.97
4/22/2022 3:45:00 PM 10.6 51.08 0.031 6.79 1.82 10.98
4/22/2022 4:00:00 PM 10.54 50.972 0.031 6.8 1.86 10.99
4/22/2022 4:15:00 PM 10.48 50.864 0.031 6.8 1.83 11.01
4/22/2022 4:30:00 PM 10.4 50.72 0.031 6.8 1.84 11.01
4/22/2022 4:45:00 PM 10.33 50.594 0.031 6.81 1.82 11.03
4/22/2022 5:00:00 PM 10.26 50.468 0.031 6.8 1.87 11.04
4/22/2022 5:15:00 PM 10.19 50.342 0.031 6.8 1.87 11.06
4/22/2022 5:30:00 PM 10.12 50.216 0.031 6.79 1.83 11.06
4/22/2022 5:45:00 PM 10.05 50.09 0.031 6.79 1.86 11.08
4/22/2022 6:00:00 PM 9.98 49.964 0.031 6.79 1.88 11.09
4/22/2022 6:15:00 PM 9.92 49.856 0.031 6.78 1.88 11.09
4/22/2022 6:30:00 PM 9.87 49.766 0.031 6.78 1.89 11.1
4/22/2022 6:45:00 PM 9.82 49.676 0.031 6.76 1.85 11.09
4/22/2022 7:00:00 PM 9.76 49.568 0.031 6.77 1.86 11.09
4/22/2022 7:15:00 PM 9.7 49.46 0.031 6.75 1.86 11.08
4/22/2022 7:30:00 PM 9.64 49.352 0.031 6.74 1.95 11.07
4/22/2022 7:45:00 PM 9.58 49.244 0.031 6.73 1.89 11.06
4/22/2022 8:00:00 PM 9.52 49.136 0.031 6.72 1.91 11.06
4/22/2022 8:15:00 PM 9.45 49.01 0.031 6.72 1.86 11.05
4/22/2022 8:30:00 PM 9.38 48.884 0.031 6.71 1.87 11.06
4/22/2022 8:45:00 PM 9.3 48.74 0.032 6.7 1.97 11.09
4/22/2022 9:00:00 PM 9.22 48.596 0.032 6.7 1.93 11.11
4/22/2022 9:15:00 PM 9.14 48.452 0.032 6.7 1.96 11.13
4/22/2022 9:30:00 PM 9.06 48.308 0.032 6.69 1.99 11.15
4/22/2022 9:45:00 PM 8.99 48.182 0.032 6.69 1.97 11.17
4/22/2022 10:00:00 PM 8.92 48.056 0.032 6.71 1.99 11.19
4/22/2022 10:15:00 PM 8.85 47.93 0.032 6.7 2.01 11.21
4/22/2022 10:30:00 PM 8.78 47.804 0.032 6.7 1.93 11.22
4/22/2022 10:45:00 PM 8.72 47.696 0.032 6.7 2.02 11.25
4/22/2022 11:00:00 PM 8.65 47.57 0.032 6.7 2 11.27
4/22/2022 11:15:00 PM 8.6 47.48 0.032 6.69 2.05 11.29
4/22/2022 11:30:00 PM 8.55 47.39 0.032 6.69 1.98 11.3
4/22/2022 11:45:00 PM 8.5 47.3 0.032 6.69 2 11.31
4/23/2022 12:00:00 AM 8.46 47.228 0.032 6.7 2.05 11.32
4/23/2022 12:15:00 AM 8.43 47.174 0.032 6.69 2.04 11.34
4/23/2022 12:30:00 AM 8.39 47.102 0.032 6.7 2.03 11.35
4/23/2022 12:45:00 AM 8.36 47.048 0.032 6.7 2.04 11.36
4/23/2022 1:00:00 AM 8.32 46.976 0.032 6.69 1.97 11.37
4/23/2022 1:15:00 AM 8.29 46.922 0.032 6.7 2 11.38
4/23/2022 1:30:00 AM 8.26 46.868 0.032 6.7 2.03 11.39
4/23/2022 1:45:00 AM 8.23 46.814 0.032 6.7 1.97 11.4
4/23/2022 2:00:00 AM 8.21 46.778 0.032 6.69 1.98 11.4
4/23/2022 2:15:00 AM 8.19 46.742 0.032 6.68 2.02 11.4
4/23/2022 2:30:00 AM 8.16 46.688 0.032 6.69 1.96 11.41
4/23/2022 2:45:00 AM 8.14 46.652 0.032 6.69 1.96 11.41
4/23/2022 3:00:00 AM 8.11 46.598 0.032 6.69 1.99 11.42
4/23/2022 3:15:00 AM 8.09 46.562 0.032 6.69 2 11.43
4/23/2022 3:30:00 AM 8.07 46.526 0.032 6.69 2.03 11.44
4/23/2022 3:45:00 AM 8.05 46.49 0.032 6.69 1.97 11.44
4/23/2022 4:00:00 AM 8.03 46.454 0.032 6.68 1.97 11.44
4/23/2022 4:15:00 AM 8.01 46.418 0.032 6.69 2.02 11.45
4/23/2022 4:30:00 AM 7.99 46.382 0.032 6.68 2.02 11.46
4/23/2022 4:45:00 AM 7.96 46.328 0.032 6.69 2.01 11.46
4/23/2022 5:00:00 AM 7.93 46.274 0.032 6.69 2 11.48
4/23/2022 5:15:00 AM 7.9 46.22 0.032 6.69 2.06 11.49
4/23/2022 5:30:00 AM 7.87 46.166 0.032 6.69 2.03 11.5
4/23/2022 5:45:00 AM 7.84 46.112 0.032 6.69 2.08 11.51
4/23/2022 6:00:00 AM 7.82 46.076 0.032 6.69 2.01 11.51
4/23/2022 6:15:00 AM 7.79 46.022 0.032 6.7 1.97 11.51
4/23/2022 6:30:00 AM 7.76 45.968 0.032 6.69 1.98 11.54
4/23/2022 6:45:00 AM 7.74 45.932 0.032 6.69 1.99 11.55
4/23/2022 7:00:00 AM 7.72 45.896 0.032 6.69 1.95 11.56
4/23/2022 7:15:00 AM 7.7 45.86 0.032 6.69 1.93 11.58
4/23/2022 7:30:00 AM 7.69 45.842 0.032 6.71 2.03 11.62
4/23/2022 7:45:00 AM 7.69 45.842 0.032 6.72 1.97 11.65
4/23/2022 8:00:00 AM 7.7 45.86 0.032 6.74 1.96 11.68
4/23/2022 8:15:00 AM 7.7 45.86 0.031 6.74 1.95 11.69
4/23/2022 8:30:00 AM 7.72 45.896 0.031 6.75 1.89 11.71
4/23/2022 8:45:00 AM 7.74 45.932 0.031 6.77 1.88 11.73
4/23/2022 9:00:00 AM 7.77 45.986 0.031 6.78 1.93 11.74
4/23/2022 9:15:00 AM 7.82 46.076 0.031 6.78 1.9 11.74
4/23/2022 9:30:00 AM 7.87 46.166 0.031 6.79 1.91 11.74
4/23/2022 9:45:00 AM 7.93 46.274 0.031 6.79 1.92 11.72
4/23/2022 10:00:00 AM 7.97 46.346 0.031 6.79 1.88 11.71
4/23/2022 10:15:00 AM 8.02 46.436 0.031 6.8 1.87 11.7
4/23/2022 10:30:00 AM 8.12 46.616 0.031 6.8 1.95 11.69
4/23/2022 10:45:00 AM 8.22 46.796 0.031 6.8 1.94 11.68
4/23/2022 11:00:00 AM 8.31 46.958 0.031 6.81 1.9 11.64
4/23/2022 11:15:00 AM 8.41 47.138 0.031 6.81 1.87 11.62
4/23/2022 11:30:00 AM 8.51 47.318 0.031 6.82 1.92 11.59
4/23/2022 11:45:00 AM 8.6 47.48 0.031 6.81 1.92 11.56
4/23/2022 12:00:00 PM 8.72 47.696 0.031 6.82 1.87 11.53
4/23/2022 12:15:00 PM 8.87 47.966 0.031 6.81 1.91 11.49
4/23/2022 12:30:00 PM 8.95 48.11 0.031 6.82 1.88 11.45
4/23/2022 12:45:00 PM 9.01 48.218 0.031 6.81 1.88 11.43
4/23/2022 1:00:00 PM 9.13 48.434 0.031 6.82 1.92 11.4
4/23/2022 1:15:00 PM 9.33 48.794 0.031 6.81 1.86 11.36
4/23/2022 1:30:00 PM 9.4 48.92 0.031 6.81 1.87 11.32
4/23/2022 1:45:00 PM 9.44 48.992 0.031 6.81 1.89 11.29
4/23/2022 2:00:00 PM 9.46 49.028 0.031 6.81 1.82 11.28
4/23/2022 2:15:00 PM 9.45 49.01 0.031 6.81 1.9 11.26
4/23/2022 2:30:00 PM 9.47 49.046 0.031 6.82 1.92 11.25
4/23/2022 2:45:00 PM 9.49 49.082 0.031 6.83 1.88 11.25
4/23/2022 3:00:00 PM 9.51 49.118 0.031 6.81 1.92 11.24
4/23/2022 3:15:00 PM 9.52 49.136 0.031 6.83 1.86 11.24
4/23/2022 3:30:00 PM 9.56 49.208 0.031 6.82 1.89 11.24
4/23/2022 3:45:00 PM 9.62 49.316 0.031 6.82 1.93 11.23
4/23/2022 4:00:00 PM 9.68 49.424 0.031 6.82 1.87 11.21
4/23/2022 4:15:00 PM 9.74 49.532 0.031 6.82 1.88 11.19
4/23/2022 4:30:00 PM 9.77 49.586 0.031 6.82 1.86 11.16
4/23/2022 4:45:00 PM 9.79 49.622 0.031 6.83 1.85 11.16
4/23/2022 5:00:00 PM 9.78 49.604 0.031 6.82 1.89 11.13
4/23/2022 5:15:00 PM 9.76 49.568 0.031 6.82 1.85 11.11
4/23/2022 5:30:00 PM 9.74 49.532 0.031 6.81 1.91 11.09
4/23/2022 5:45:00 PM 9.73 49.514 0.031 6.79 1.93 11.09
4/23/2022 6:00:00 PM 9.7 49.46 0.031 6.79 1.96 11.08
4/23/2022 6:15:00 PM 9.66 49.388 0.031 6.79 1.94 11.07
4/23/2022 6:30:00 PM 9.63 49.334 0.031 6.79 1.9 11.06
4/23/2022 6:45:00 PM 9.59 49.262 0.031 6.78 1.86 11.06
4/23/2022 7:00:00 PM 9.56 49.208 0.031 6.77 1.92 11.06
4/23/2022 7:15:00 PM 9.52 49.136 0.031 6.77 1.97 11.06
4/23/2022 7:30:00 PM 9.48 49.064 0.031 6.76 1.9 11.05
4/23/2022 7:45:00 PM 9.43 48.974 0.031 6.75 1.91 11.04
4/23/2022 8:00:00 PM 9.38 48.884 0.031 6.74 1.9 11.03
4/23/2022 8:15:00 PM 9.33 48.794 0.032 6.73 1.93 11.02
4/23/2022 8:30:00 PM 9.28 48.704 0.032 6.72 1.94 11.03
4/23/2022 8:45:00 PM 9.25 48.65 0.032 6.72 2.03 11.04
4/23/2022 9:00:00 PM 9.22 48.596 0.032 6.71 1.97 11.05
4/23/2022 9:15:00 PM 9.18 48.524 0.032 6.7 1.95 11.05
4/23/2022 9:30:00 PM 9.15 48.47 0.032 6.7 2.01 11.05
4/23/2022 9:45:00 PM 9.12 48.416 0.032 6.7 1.92 11.07
4/23/2022 10:00:00 PM 9.08 48.344 0.032 6.7 1.97 11.08
4/23/2022 10:15:00 PM 9.04 48.272 0.032 6.7 1.93 11.09
4/23/2022 10:30:00 PM 9 48.2 0.032 6.7 1.99 11.1
4/23/2022 10:45:00 PM 8.96 48.128 0.032 6.68 2.01 11.11
4/23/2022 11:00:00 PM 8.91 48.038 0.032 6.7 2 11.12
4/23/2022 11:15:00 PM 8.88 47.984 0.032 6.68 1.96 11.13
4/23/2022 11:30:00 PM 8.83 47.894 0.032 6.69 1.98 11.14
4/23/2022 11:45:00 PM 8.79 47.822 0.032 6.69 2 11.15
4/24/2022 12:00:00 AM 8.75 47.75 0.032 6.69 2.02 11.17
4/24/2022 12:15:00 AM 8.7 47.66 0.032 6.68 1.98 11.18
4/24/2022 12:30:00 AM 8.66 47.588 0.032 6.69 2.02 11.19
4/24/2022 12:45:00 AM 8.61 47.498 0.032 6.68 2.01 11.2
4/24/2022 1:00:00 AM 8.57 47.426 0.032 6.69 1.98 11.21
4/24/2022 1:15:00 AM 8.52 47.336 0.032 6.69 1.99 11.22
4/24/2022 1:30:00 AM 8.47 47.246 0.032 6.69 1.98 11.24
4/24/2022 1:45:00 AM 8.43 47.174 0.032 6.69 1.99 11.25
4/24/2022 2:00:00 AM 8.38 47.084 0.032 6.69 2.01 11.26
4/24/2022 2:15:00 AM 8.33 46.994 0.032 6.69 2.04 11.27
4/24/2022 2:30:00 AM 8.29 46.922 0.032 6.68 1.99 11.29
4/24/2022 2:45:00 AM 8.25 46.85 0.032 6.68 1.98 11.29
4/24/2022 3:00:00 AM 8.21 46.778 0.032 6.7 1.98 11.31
4/24/2022 3:15:00 AM 8.18 46.724 0.032 6.68 2.05 11.32
4/24/2022 3:30:00 AM 8.14 46.652 0.032 6.68 2.05 11.32
4/24/2022 3:45:00 AM 8.1 46.58 0.032 6.68 2.05 11.34
4/24/2022 4:00:00 AM 8.07 46.526 0.032 6.69 2.02 11.35
4/24/2022 4:15:00 AM 8.03 46.454 0.032 6.68 2.09 11.35
4/24/2022 4:30:00 AM 7.99 46.382 0.032 6.68 2.06 11.37
4/24/2022 4:45:00 AM 7.95 46.31 0.032 6.68 2.06 11.38
4/24/2022 5:00:00 AM 7.92 46.256 0.032 6.66 2.05 11.39
4/24/2022 5:15:00 AM 7.88 46.184 0.032 6.67 2.08 11.4
4/24/2022 5:30:00 AM 7.85 46.13 0.032 6.68 2.04 11.42
4/24/2022 5:45:00 AM 7.82 46.076 0.032 6.66 2 11.41
4/24/2022 6:00:00 AM 7.8 46.04 0.032 6.67 2.04 11.43
4/24/2022 6:15:00 AM 7.78 46.004 0.032 6.68 2.01 11.44
4/24/2022 6:30:00 AM 7.76 45.968 0.032 6.69 2.02 11.46
4/24/2022 6:45:00 AM 7.74 45.932 0.032 6.69 2.01 11.47
4/24/2022 7:00:00 AM 7.73 45.914 0.032 6.7 1.95 11.5
4/24/2022 7:15:00 AM 7.72 45.896 0.032 6.7 1.96 11.53
4/24/2022 7:30:00 AM 7.72 45.896 0.032 6.7 1.92 11.55
4/24/2022 7:45:00 AM 7.71 45.878 0.032 6.71 1.93 11.56
4/24/2022 8:00:00 AM 7.7 45.86 0.032 6.7 1.91 11.58
4/24/2022 8:15:00 AM 7.72 45.896 0.032 6.71 1.92 11.6
4/24/2022 8:30:00 AM 7.75 45.95 0.031 6.72 1.93 11.62
4/24/2022 8:45:00 AM 7.79 46.022 0.031 6.72 1.91 11.62
4/24/2022 9:00:00 AM 7.85 46.13 0.031 6.74 1.9 11.61
4/24/2022 9:15:00 AM 7.92 46.256 0.031 6.75 1.92 11.61
4/24/2022 9:30:00 AM 8.02 46.436 0.031 6.77 1.92 11.61
4/24/2022 9:45:00 AM 8.13 46.634 0.031 6.78 1.92 11.58
4/24/2022 10:00:00 AM 8.27 46.886 0.031 6.78 1.86 11.56
4/24/2022 10:15:00 AM 8.42 47.156 0.031 6.79 1.85 11.52
4/24/2022 10:30:00 AM 8.59 47.462 0.031 6.79 1.89 11.48
4/24/2022 10:45:00 AM 8.79 47.822 0.031 6.79 1.89 11.43
4/24/2022 11:00:00 AM 9 48.2 0.031 6.8 1.84 11.38
4/24/2022 11:15:00 AM 9.23 48.614 0.031 6.8 1.82 11.32
4/24/2022 11:30:00 AM 9.48 49.064 0.031 6.8 1.85 11.26
4/24/2022 11:45:00 AM 9.75 49.55 0.031 6.8 1.91 11.2
4/24/2022 12:00:00 PM 10.03 50.054 0.031 6.81 1.85 11.13
4/24/2022 12:15:00 PM 10.32 50.576 0.031 6.8 1.85 11.05
4/24/2022 12:30:00 PM 10.62 51.116 0.031 6.81 1.82 10.99
4/24/2022 12:45:00 PM 10.91 51.638 0.031 6.82 1.8 10.91
4/24/2022 1:00:00 PM 11.18 52.124 0.031 6.82 1.82 10.85
4/24/2022 1:15:00 PM 11.44 52.592 0.031 6.82 1.8 10.77
4/24/2022 1:30:00 PM 11.68 53.024 0.031 6.83 1.76 10.71
4/24/2022 1:45:00 PM 11.91 53.438 0.031 6.81 1.82 10.64
4/24/2022 2:00:00 PM 12.12 53.816 0.031 6.82 1.76 10.6
4/24/2022 2:15:00 PM 12.29 54.122 0.031 6.82 1.76 10.54
4/24/2022 2:30:00 PM 12.42 54.356 0.031 6.82 1.74 10.5
4/24/2022 2:45:00 PM 12.51 54.518 0.031 6.82 1.75 10.47
4/24/2022 3:00:00 PM 12.56 54.608 0.031 6.83 1.78 10.45
4/24/2022 3:15:00 PM 12.58 54.644 0.031 6.82 1.78 10.43
4/24/2022 3:30:00 PM 12.58 54.644 0.031 6.82 1.8 10.42
4/24/2022 3:45:00 PM 12.56 54.608 0.031 6.82 1.76 10.41
4/24/2022 4:00:00 PM 12.53 54.554 0.031 6.82 1.79 10.41
4/24/2022 4:15:00 PM 12.5 54.5 0.031 6.82 1.83 10.41
4/24/2022 4:30:00 PM 12.46 54.428 0.031 6.82 1.81 10.41
4/24/2022 4:45:00 PM 12.42 54.356 0.031 6.82 1.78 10.4
4/24/2022 5:00:00 PM 12.39 54.302 0.031 6.81 1.83 10.4
4/24/2022 5:15:00 PM 12.34 54.212 0.031 6.81 1.77 10.4
4/24/2022 5:30:00 PM 12.28 54.104 0.031 6.81 1.85 10.4
4/24/2022 5:45:00 PM 12.22 53.996 0.031 6.81 1.79 10.39
4/24/2022 6:00:00 PM 12.19 53.942 0.031 6.8 1.76 10.39
4/24/2022 6:15:00 PM 12.14 53.852 0.031 6.8 1.83 10.38
4/24/2022 6:30:00 PM 12.12 53.816 0.031 6.79 1.81 10.37
4/24/2022 6:45:00 PM 12.08 53.744 0.031 6.79 1.81 10.36
4/24/2022 7:00:00 PM 12.04 53.672 0.031 6.77 1.89 10.35
4/24/2022 7:15:00 PM 12.01 53.618 0.031 6.76 1.85 10.34
4/24/2022 7:30:00 PM 11.98 53.564 0.031 6.76 1.82 10.33
4/24/2022 7:45:00 PM 11.95 53.51 0.031 6.74 1.79 10.33
4/24/2022 8:00:00 PM 11.9 53.42 0.032 6.75 1.8 10.32
4/24/2022 8:15:00 PM 11.86 53.348 0.032 6.75 1.92 10.32
4/24/2022 8:30:00 PM 11.81 53.258 0.032 6.74 1.89 10.32
4/24/2022 8:45:00 PM 11.78 53.204 0.032 6.74 1.88 10.33
4/24/2022 9:00:00 PM 11.74 53.132 0.032 6.73 1.92 10.33
4/24/2022 9:15:00 PM 11.7 53.06 0.032 6.73 1.92 10.35
4/24/2022 9:30:00 PM 11.67 53.006 0.032 6.72 1.88 10.35
4/24/2022 9:45:00 PM 11.63 52.934 0.032 6.72 1.97 10.36
4/24/2022 10:00:00 PM 11.58 52.844 0.032 6.71 1.96 10.37
4/24/2022 10:15:00 PM 11.53 52.754 0.032 6.71 1.98 10.38
4/24/2022 10:30:00 PM 11.49 52.682 0.032 6.71 1.92 10.4
4/24/2022 10:45:00 PM 11.45 52.61 0.032 6.73 1.91 10.41
4/24/2022 11:00:00 PM 11.42 52.556 0.032 6.72 1.93 10.42
4/24/2022 11:15:00 PM 11.39 52.502 0.032 6.72 2.01 10.43
4/24/2022 11:30:00 PM 11.35 52.43 0.032 6.73 1.94 10.44
4/24/2022 11:45:00 PM 11.3 52.34 0.032 6.72 1.99 10.45
4/25/2022 12:00:00 AM 11.25 52.25 0.032 6.72 1.95 10.46
4/25/2022 12:15:00 AM 11.21 52.178 0.032 6.73 2.01 10.47
4/25/2022 12:30:00 AM 11.16 52.088 0.032 6.72 2.07 10.48
4/25/2022 12:45:00 AM 11.12 52.016 0.032 6.72 1.95 10.49
4/25/2022 1:00:00 AM 11.08 51.944 0.032 6.72 2.14 10.5
4/25/2022 1:15:00 AM 11.03 51.854 0.032 6.71 1.99 10.51
4/25/2022 1:30:00 AM 10.98 51.764 0.032 6.71 2.02 10.53
4/25/2022 1:45:00 AM 10.92 51.656 0.032 6.71 2.06 10.54
4/25/2022 2:00:00 AM 10.87 51.566 0.032 6.71 2.03 10.56
4/25/2022 2:15:00 AM 10.81 51.458 0.032 6.71 1.95 10.57
4/25/2022 2:30:00 AM 10.75 51.35 0.032 6.72 2.06 10.59
4/25/2022 2:45:00 AM 10.69 51.242 0.032 6.71 1.95 10.61
4/25/2022 3:00:00 AM 10.63 51.134 0.032 6.72 2.03 10.62
4/25/2022 3:15:00 AM 10.57 51.026 0.032 6.72 1.95 10.63
4/25/2022 3:30:00 AM 10.52 50.936 0.032 6.72 2.07 10.65
4/25/2022 3:45:00 AM 10.46 50.828 0.032 6.72 2 10.66
4/25/2022 4:00:00 AM 10.41 50.738 0.032 6.72 2.02 10.68
4/25/2022 4:15:00 AM 10.36 50.648 0.032 6.72 2 10.69
4/25/2022 4:30:00 AM 10.31 50.558 0.032 6.71 2.11 10.7
4/25/2022 4:45:00 AM 10.26 50.468 0.032 6.71 2 10.72
4/25/2022 5:00:00 AM 10.22 50.396 0.032 6.72 2.04 10.73
4/25/2022 5:15:00 AM 10.16 50.288 0.032 6.72 2 10.74
4/25/2022 5:30:00 AM 10.11 50.198 0.032 6.71 1.99 10.75
4/25/2022 5:45:00 AM 10.06 50.108 0.032 6.7 2.05 10.77
4/25/2022 6:00:00 AM 10.01 50.018 0.032 6.72 2.06 10.79
4/25/2022 6:15:00 AM 9.95 49.91 0.032 6.71 2.07 10.81
4/25/2022 6:30:00 AM 9.9 49.82 0.032 6.7 1.95 10.83
4/25/2022 6:45:00 AM 9.85 49.73 0.032 6.72 1.97 10.86
4/25/2022 7:00:00 AM 9.81 49.658 0.032 6.73 2.01 10.9
4/25/2022 7:15:00 AM 9.78 49.604 0.032 6.73 1.94 10.93
4/25/2022 7:30:00 AM 9.75 49.55 0.032 6.74 1.98 10.97
4/25/2022 7:45:00 AM 9.73 49.514 0.032 6.75 1.91 11
4/25/2022 8:00:00 AM 9.71 49.478 0.032 6.76 1.97 11.01
4/25/2022 8:15:00 AM 9.7 49.46 0.031 6.77 1.92 11.03
4/25/2022 8:30:00 AM 9.71 49.478 0.031 6.78 1.91 11.06
4/25/2022 8:45:00 AM 9.73 49.514 0.031 6.78 1.92 11.07
4/25/2022 9:00:00 AM 9.76 49.568 0.031 6.78 1.98 11.08
4/25/2022 9:15:00 AM 9.79 49.622 0.031 6.79 1.87 11.08
4/25/2022 9:30:00 AM 9.84 49.712 0.031 6.8 1.89 11.09
4/25/2022 9:45:00 AM 9.9 49.82 0.031 6.8 1.92 11.08
4/25/2022 10:00:00 AM 9.98 49.964 0.031 6.8 1.9 11.07
4/25/2022 10:15:00 AM 10.09 50.162 0.031 6.81 1.84 11.05
4/25/2022 10:30:00 AM 10.22 50.396 0.031 6.81 1.87 11.03
4/25/2022 10:45:00 AM 10.35 50.63 0.031 6.82 1.88 11
4/25/2022 11:00:00 AM 10.5 50.9 0.031 6.82 1.87 10.97
4/25/2022 11:15:00 AM 10.69 51.242 0.031 6.82 1.81 10.93
4/25/2022 11:30:00 AM 10.89 51.602 0.031 6.82 1.85 10.89
4/25/2022 11:45:00 AM 11.11 51.998 0.031 6.82 1.83 10.84
4/25/2022 12:00:00 PM 11.33 52.394 0.031 6.83 1.92 10.79
4/25/2022 12:15:00 PM 11.57 52.826 0.031 6.83 1.84 10.73
4/25/2022 12:30:00 PM 11.82 53.276 0.031 6.83 1.82 10.68
4/25/2022 12:45:00 PM 12.07 53.726 0.031 6.83 1.84 10.62
4/25/2022 1:00:00 PM 12.32 54.176 0.031 6.84 1.81 10.56
4/25/2022 1:15:00 PM 12.56 54.608 0.031 6.84 1.8 10.5
4/25/2022 1:30:00 PM 12.78 55.004 0.031 6.84 1.84 10.45
4/25/2022 1:45:00 PM 12.99 55.382 0.031 6.84 1.76 10.4
4/25/2022 2:00:00 PM 13.17 55.706 0.031 6.84 1.8 10.35
4/25/2022 2:15:00 PM 13.31 55.958 0.031 6.85 1.76 10.31
4/25/2022 2:30:00 PM 13.4 56.12 0.031 6.85 1.81 10.28
4/25/2022 2:45:00 PM 13.47 56.246 0.031 6.84 1.81 10.25
4/25/2022 3:00:00 PM 13.5 56.3 0.031 6.84 1.85 10.23
4/25/2022 3:15:00 PM 13.51 56.318 0.031 6.84 1.86 10.22
4/25/2022 3:30:00 PM 13.48 56.264 0.031 6.85 1.8 10.21
4/25/2022 3:45:00 PM 13.44 56.192 0.031 6.84 1.77 10.21
4/25/2022 4:00:00 PM 13.38 56.084 0.031 6.84 1.8 10.21
4/25/2022 4:15:00 PM 13.32 55.976 0.031 6.85 1.77 10.22
4/25/2022 4:30:00 PM 13.26 55.868 0.031 6.83 1.8 10.22
4/25/2022 4:45:00 PM 13.19 55.742 0.031 6.82 1.71 10.23
4/25/2022 5:00:00 PM 13.12 55.616 0.031 6.83 1.84 10.22
4/25/2022 5:15:00 PM 13.04 55.472 0.031 6.82 1.86 10.24
4/25/2022 5:30:00 PM 12.95 55.31 0.031 6.82 1.83 10.24
4/25/2022 5:45:00 PM 12.85 55.13 0.031 6.82 1.85 10.23
4/25/2022 6:00:00 PM 12.77 54.986 0.031 6.81 1.86 10.27
4/25/2022 6:15:00 PM 12.72 54.896 0.031 6.82 1.85 10.29
4/25/2022 6:30:00 PM 12.65 54.77 0.031 6.82 1.82 10.27
4/25/2022 6:45:00 PM 12.58 54.644 0.031 6.81 1.85 10.29
4/25/2022 7:00:00 PM 12.51 54.518 0.031 6.8 1.82 10.29
4/25/2022 7:15:00 PM 12.45 54.41 0.031 6.8 1.83 10.3
4/25/2022 7:30:00 PM 12.37 54.266 0.031 6.79 1.84 10.29
4/25/2022 7:45:00 PM 12.3 54.14 0.031 6.78 1.84 10.29
4/25/2022 8:00:00 PM 12.22 53.996 0.031 6.77 1.93 10.27
4/25/2022 8:15:00 PM 12.14 53.852 0.032 6.76 1.8 10.27
4/25/2022 8:30:00 PM 12.07 53.726 0.032 6.75 1.9 10.26
4/25/2022 8:45:00 PM 12.01 53.618 0.032 6.74 1.87 10.28
4/25/2022 9:00:00 PM 11.97 53.546 0.032 6.75 1.97 10.28
4/25/2022 9:15:00 PM 11.92 53.456 0.032 6.75 1.95 10.29
4/25/2022 9:30:00 PM 11.87 53.366 0.032 6.75 1.98 10.3
4/25/2022 9:45:00 PM 11.82 53.276 0.032 6.74 2.02 10.31
4/25/2022 10:00:00 PM 11.78 53.204 0.032 6.74 1.9 10.33
4/25/2022 10:15:00 PM 11.73 53.114 0.032 6.74 1.94 10.34
4/25/2022 10:30:00 PM 11.69 53.042 0.032 6.74 2.02 10.35
4/25/2022 10:45:00 PM 11.65 52.97 0.032 6.75 1.89 10.35
4/25/2022 11:00:00 PM 11.61 52.898 0.032 6.74 1.95 10.36
4/25/2022 11:15:00 PM 11.57 52.826 0.032 6.74 2.02 10.37
4/25/2022 11:30:00 PM 11.53 52.754 0.032 6.73 2.05 10.38
4/25/2022 11:45:00 PM 11.5 52.7 0.032 6.73 2.01 10.39
4/26/2022 12:00:00 AM 11.47 52.646 0.032 6.73 1.98 10.39
4/26/2022 12:15:00 AM 11.44 52.592 0.032 6.74 2.05 10.41
4/26/2022 12:30:00 AM 11.41 52.538 0.032 6.74 2.06 10.42
4/26/2022 12:45:00 AM 11.37 52.466 0.032 6.74 2.02 10.42
4/26/2022 1:00:00 AM 11.34 52.412 0.032 6.73 2 10.43
4/26/2022 1:15:00 AM 11.31 52.358 0.032 6.73 2.01 10.44
4/26/2022 1:30:00 AM 11.28 52.304 0.032 6.72 1.98 10.45
4/26/2022 1:45:00 AM 11.24 52.232 0.032 6.72 1.98 10.46
4/26/2022 2:00:00 AM 11.21 52.178 0.032 6.73 1.94 10.46
4/26/2022 2:15:00 AM 11.17 52.106 0.032 6.73 1.98 10.47
4/26/2022 2:30:00 AM 11.14 52.052 0.032 6.73 1.96 10.47
4/26/2022 2:45:00 AM 11.1 51.98 0.032 6.73 2.05 10.48
4/26/2022 3:00:00 AM 11.07 51.926 0.032 6.73 2 10.49
4/26/2022 3:15:00 AM 11.04 51.872 0.032 6.73 2.01 10.5
4/26/2022 3:30:00 AM 11 51.8 0.032 6.73 2 10.51
4/26/2022 3:45:00 AM 10.97 51.746 0.032 6.72 2.09 10.52
4/26/2022 4:00:00 AM 10.93 51.674 0.032 6.73 2.02 10.53
4/26/2022 4:15:00 AM 10.9 51.62 0.032 6.71 2.02 10.53
4/26/2022 4:30:00 AM 10.87 51.566 0.032 6.72 1.97 10.54
4/26/2022 4:45:00 AM 10.84 51.512 0.032 6.72 1.98 10.55
4/26/2022 5:00:00 AM 10.8 51.44 0.032 6.72 2.01 10.56
4/26/2022 5:15:00 AM 10.77 51.386 0.032 6.72 1.98 10.57
4/26/2022 5:30:00 AM 10.73 51.314 0.032 6.72 2.04 10.58
4/26/2022 5:45:00 AM 10.7 51.26 0.032 6.72 2.03 10.58
4/26/2022 6:00:00 AM 10.66 51.188 0.032 6.72 2.02 10.59
4/26/2022 6:15:00 AM 10.63 51.134 0.032 6.72 2.02 10.61
4/26/2022 6:30:00 AM 10.59 51.062 0.032 6.71 1.97 10.62
4/26/2022 6:45:00 AM 10.56 51.008 0.032 6.72 1.99 10.63
4/26/2022 7:00:00 AM 10.53 50.954 0.032 6.72 1.95 10.65
4/26/2022 7:15:00 AM 10.5 50.9 0.032 6.72 2 10.67
4/26/2022 7:30:00 AM 10.48 50.864 0.032 6.72 1.92 10.7
4/26/2022 7:45:00 AM 10.46 50.828 0.032 6.74 2.01 10.72
4/26/2022 8:00:00 AM 10.44 50.792 0.032 6.75 1.9 10.75
4/26/2022 8:15:00 AM 10.43 50.774 0.032 6.76 1.92 10.77
4/26/2022 8:30:00 AM 10.41 50.738 0.032 6.76 1.93 10.78
4/26/2022 8:45:00 AM 10.39 50.702 0.032 6.75 1.93 10.8
4/26/2022 9:00:00 AM 10.39 50.702 0.031 6.76 1.87 10.83
4/26/2022 9:15:00 AM 10.39 50.702 0.031 6.77 1.94 10.85
4/26/2022 9:30:00 AM 10.39 50.702 0.031 6.78 1.93 10.85
4/26/2022 9:45:00 AM 10.38 50.684 0.031 6.78 1.9 10.84
4/26/2022 10:00:00 AM 10.37 50.666 0.031 6.77 1.87 10.84
4/26/2022 10:15:00 AM 10.37 50.666 0.031 6.78 1.94 10.86
4/26/2022 10:30:00 AM 10.38 50.684 0.031 6.79 1.91 10.88
4/26/2022 10:45:00 AM 10.4 50.72 0.031 6.8 1.9 10.9
4/26/2022 11:00:00 AM 10.41 50.738 0.031 6.8 1.89 10.89
4/26/2022 11:15:00 AM 10.41 50.738 0.031 6.79 1.88 10.89
4/26/2022 11:30:00 AM 10.41 50.738 0.031 6.8 1.89 10.89
4/26/2022 11:45:00 AM 10.43 50.774 0.031 6.8 1.98 10.9
4/26/2022 12:00:00 PM 10.44 50.792 0.031 6.81 1.92 10.9
4/26/2022 12:15:00 PM 10.45 50.81 0.031 6.81 1.94 10.9
4/26/2022 12:30:00 PM 10.48 50.864 0.031 6.81 1.88 10.91
4/26/2022 12:45:00 PM 10.51 50.918 0.031 6.82 1.97 10.91
4/26/2022 1:00:00 PM 10.52 50.936 0.031 6.82 1.87 10.89
4/26/2022 1:15:00 PM 10.52 50.936 0.031 6.81 1.92 10.88
4/26/2022 1:30:00 PM 10.53 50.954 0.031 6.82 1.89 10.89
4/26/2022 1:45:00 PM 10.54 50.972 0.031 6.82 1.89 10.88
4/26/2022 2:00:00 PM 10.54 50.972 0.031 6.81 1.9 10.87
4/26/2022 2:15:00 PM 10.55 50.99 0.031 6.82 1.85 10.86
4/26/2022 2:30:00 PM 10.54 50.972 0.031 6.81 1.86 10.85
4/26/2022 2:45:00 PM 10.54 50.972 0.031 6.81 1.92 10.86
4/26/2022 3:00:00 PM 10.56 51.008 0.031 6.81 1.92 10.85
4/26/2022 3:15:00 PM 10.57 51.026 0.031 6.82 1.94 10.84
4/26/2022 3:30:00 PM 10.58 51.044 0.031 6.81 1.91 10.84
4/26/2022 3:45:00 PM 10.58 51.044 0.031 6.81 1.86 10.83
4/26/2022 4:00:00 PM 10.57 51.026 0.031 6.81 1.88 10.82
4/26/2022 4:15:00 PM 10.56 51.008 0.031 6.8 1.87 10.81
4/26/2022 4:30:00 PM 10.54 50.972 0.031 6.79 1.89 10.79
4/26/2022 4:45:00 PM 10.52 50.936 0.031 6.78 1.86 10.76
4/26/2022 5:00:00 PM 10.5 50.9 0.031 6.76 1.96 10.74
4/26/2022 5:15:00 PM 10.48 50.864 0.031 6.76 1.97 10.74
4/26/2022 5:30:00 PM 10.45 50.81 0.031 6.75 1.85 10.73
4/26/2022 5:45:00 PM 10.42 50.756 0.031 6.75 1.93 10.75
4/26/2022 6:00:00 PM 10.4 50.72 0.031 6.76 1.96 10.76
4/26/2022 6:15:00 PM 10.39 50.702 0.031 6.76 1.94 10.78
4/26/2022 6:30:00 PM 10.37 50.666 0.031 6.77 1.94 10.8
4/26/2022 6:45:00 PM 10.36 50.648 0.031 6.77 1.88 10.8
4/26/2022 7:00:00 PM 10.33 50.594 0.031 6.76 1.93 10.78
4/26/2022 7:15:00 PM 10.29 50.522 0.032 6.75 1.93 10.75
4/26/2022 7:30:00 PM 10.26 50.468 0.032 6.74 1.92 10.74
4/26/2022 7:45:00 PM 10.24 50.432 0.032 6.72 1.88 10.73
4/26/2022 8:00:00 PM 10.21 50.378 0.032 6.73 1.92 10.72
4/26/2022 8:15:00 PM 10.17 50.306 0.032 6.73 1.91 10.72
4/26/2022 8:30:00 PM 10.14 50.252 0.032 6.74 1.96 10.73
4/26/2022 8:45:00 PM 10.1 50.18 0.032 6.74 1.96 10.73
4/26/2022 9:00:00 PM 10.07 50.126 0.032 6.74 1.96 10.73
4/26/2022 9:15:00 PM 10.03 50.054 0.032 6.74 1.99 10.75
4/26/2022 9:30:00 PM 9.98 49.964 0.032 6.73 2.02 10.76
4/26/2022 9:45:00 PM 9.94 49.892 0.032 6.74 1.96 10.78
4/26/2022 10:00:00 PM 9.89 49.802 0.032 6.73 2.04 10.79
4/26/2022 10:15:00 PM 9.83 49.694 0.032 6.74 1.98 10.81
4/26/2022 10:30:00 PM 9.78 49.604 0.032 6.73 1.97 10.82
4/26/2022 10:45:00 PM 9.72 49.496 0.032 6.72 1.99 10.83
4/26/2022 11:00:00 PM 9.67 49.406 0.032 6.72 2.06 10.85
4/26/2022 11:15:00 PM 9.61 49.298 0.032 6.7 1.97 10.86
4/26/2022 11:30:00 PM 9.55 49.19 0.032 6.72 2.03 10.89
4/26/2022 11:45:00 PM 9.49 49.082 0.032 6.72 2.03 10.9
4/27/2022 12:00:00 AM 9.4 48.92 0.032 6.72 1.99 10.92
4/27/2022 12:15:00 AM 9.32 48.776 0.032 6.72 2.01 10.94
4/27/2022 12:30:00 AM 9.27 48.686 0.032 6.73 2.01 10.96
4/27/2022 12:45:00 AM 9.22 48.596 0.032 6.72 2.08 10.97
4/27/2022 1:00:00 AM 9.16 48.488 0.032 6.73 2.01 10.99
4/27/2022 1:15:00 AM 9.1 48.38 0.032 6.71 2.01 11.01
4/27/2022 1:30:00 AM 9.05 48.29 0.032 6.72 2.03 11.02
4/27/2022 1:45:00 AM 8.98 48.164 0.032 6.72 2.16 11.03
4/27/2022 2:00:00 AM 8.92 48.056 0.032 6.72 2.12 11.06
4/27/2022 2:15:00 AM 8.85 47.93 0.032 6.72 2.04 11.07
4/27/2022 2:30:00 AM 8.82 47.876 0.032 6.72 2.09 11.08
4/27/2022 2:45:00 AM 8.79 47.822 0.032 6.71 2.06 11.09
4/27/2022 3:00:00 AM 8.75 47.75 0.032 6.71 2.09 11.1
4/27/2022 3:15:00 AM 8.71 47.678 0.032 6.72 2.1 11.1
4/27/2022 3:30:00 AM 8.68 47.624 0.032 6.71 1.98 11.12
4/27/2022 3:45:00 AM 8.65 47.57 0.032 6.7 1.99 11.12
4/27/2022 4:00:00 AM 8.61 47.498 0.032 6.71 2.01 11.13
4/27/2022 4:15:00 AM 8.58 47.444 0.032 6.71 2.05 11.14
4/27/2022 4:30:00 AM 8.54 47.372 0.032 6.7 2.04 11.16
4/27/2022 4:45:00 AM 8.5 47.3 0.032 6.7 2.1 11.16
4/27/2022 5:00:00 AM 8.44 47.192 0.032 6.7 2.07 11.17
4/27/2022 5:15:00 AM 8.37 47.066 0.032 6.7 2.04 11.19
4/27/2022 5:30:00 AM 8.32 46.976 0.032 6.71 2.06 11.2
4/27/2022 5:45:00 AM 8.27 46.886 0.032 6.7 2.03 11.23
4/27/2022 6:00:00 AM 8.22 46.796 0.032 6.7 2.06 11.24
4/27/2022 6:15:00 AM 8.16 46.688 0.032 6.71 2.11 11.25
4/27/2022 6:30:00 AM 8.11 46.598 0.032 6.7 2.03 11.28
4/27/2022 6:45:00 AM 8.06 46.508 0.032 6.71 1.98 11.31
4/27/2022 7:00:00 AM 8 46.4 0.032 6.72 1.93 11.35
4/27/2022 7:15:00 AM 7.95 46.31 0.032 6.71 2.01 11.38
4/27/2022 7:30:00 AM 7.9 46.22 0.032 6.73 1.99 11.41
4/27/2022 7:45:00 AM 7.88 46.184 0.032 6.74 1.92 11.46
4/27/2022 8:00:00 AM 7.86 46.148 0.032 6.73 1.92 11.46
4/27/2022 8:15:00 AM 7.85 46.13 0.032 6.74 1.97 11.47
4/27/2022 8:30:00 AM 7.84 46.112 0.032 6.74 1.97 11.47
4/27/2022 8:45:00 AM 7.82 46.076 0.031 6.74 1.95 11.49
4/27/2022 9:00:00 AM 7.83 46.094 0.031 6.76 1.9 11.54
4/27/2022 9:15:00 AM 7.79 46.022 0.031 6.75 1.91 11.52
4/27/2022 9:30:00 AM 7.77 45.986 0.031 6.76 1.88 11.53
4/27/2022 9:45:00 AM 7.79 46.022 0.031 6.77 1.9 11.57
4/27/2022 10:00:00 AM 7.84 46.112 0.031 6.78 1.91 11.6
4/27/2022 10:15:00 AM 7.88 46.184 0.031 6.79 1.89 11.6
4/27/2022 10:30:00 AM 7.92 46.256 0.031 6.79 1.91 11.6
4/27/2022 10:45:00 AM 7.98 46.364 0.031 6.8 1.9 11.59
4/27/2022 11:00:00 AM 7.98 46.364 0.031 6.8 1.89 11.58
4/27/2022 11:15:00 AM 8.04 46.472 0.031 6.8 1.88 11.58
4/27/2022 11:30:00 AM 8.05 46.49 0.031 6.8 1.91 11.54
4/27/2022 11:45:00 AM 8.05 46.49 0.031 6.8 1.89 11.54
4/27/2022 12:00:00 PM 8.05 46.49 0.031 6.78 1.88 11.53
4/27/2022 12:15:00 PM 8.02 46.436 0.031 6.78 1.9 11.52
4/27/2022 12:30:00 PM 7.98 46.364 0.031 6.78 1.94 11.51
4/27/2022 12:45:00 PM 7.96 46.328 0.031 6.78 1.88 11.52
4/27/2022 1:00:00 PM 7.97 46.346 0.031 6.79 1.9 11.55
4/27/2022 1:15:00 PM 8 46.4 0.031 6.8 1.86 11.56
4/27/2022 1:30:00 PM 8.02 46.436 0.031 6.79 1.9 11.55
4/27/2022 1:45:00 PM 8.03 46.454 0.031 6.79 1.9 11.54
4/27/2022 2:00:00 PM 8.02 46.436 0.031 6.8 1.87 11.53
4/27/2022 2:15:00 PM 7.98 46.364 0.031 6.79 1.88 11.53
4/27/2022 2:30:00 PM 7.99 46.382 0.031 6.79 1.91 11.57
4/27/2022 2:45:00 PM 8.01 46.418 0.031 6.79 1.82 11.56
4/27/2022 3:00:00 PM 8 46.4 0.031 6.81 1.84 11.57
4/27/2022 3:15:00 PM 7.98 46.364 0.031 6.79 1.86 11.54
4/27/2022 3:30:00 PM 7.96 46.328 0.031 6.79 1.86 11.56
4/27/2022 3:45:00 PM 7.93 46.274 0.031 6.79 1.89 11.53
4/27/2022 4:00:00 PM 7.9 46.22 0.031 6.78 1.91 11.53
4/27/2022 4:15:00 PM 7.85 46.13 0.031 6.78 1.82 11.54
4/27/2022 4:30:00 PM 7.84 46.112 0.031 6.78 1.86 11.58
4/27/2022 4:45:00 PM 7.82 46.076 0.031 6.78 1.89 11.56
4/27/2022 5:00:00 PM 7.8 46.04 0.031 6.78 1.85 11.58
4/27/2022 5:15:00 PM 7.75 45.95 0.031 6.77 1.9 11.57
4/27/2022 5:30:00 PM 7.7 45.86 0.031 6.77 1.85 11.57
4/27/2022 5:45:00 PM 7.66 45.788 0.031 6.78 1.88 11.59
4/27/2022 6:00:00 PM 7.63 45.734 0.031 6.76 1.91 11.57
4/27/2022 6:15:00 PM 7.56 45.608 0.031 6.76 1.94 11.58
4/27/2022 6:30:00 PM 7.49 45.482 0.031 6.75 1.95 11.57
4/27/2022 6:45:00 PM 7.43 45.374 0.031 6.74 1.88 11.58
4/27/2022 7:00:00 PM 7.37 45.266 0.031 6.74 1.9 11.59
4/27/2022 7:15:00 PM 7.33 45.194 0.031 6.73 1.87 11.58
4/27/2022 7:30:00 PM 7.27 45.086 0.032 6.73 1.89 11.59
4/27/2022 7:45:00 PM 7.21 44.978 0.032 6.72 1.95 11.6
4/27/2022 8:00:00 PM 7.15 44.87 0.032 6.72 1.94 11.6
4/27/2022 8:15:00 PM 7.11 44.798 0.032 6.72 1.89 11.61
4/27/2022 8:30:00 PM 7.07 44.726 0.032 6.72 1.97 11.62
4/27/2022 8:45:00 PM 7 44.6 0.032 6.72 1.94 11.64
4/27/2022 9:00:00 PM 6.93 44.474 0.032 6.72 1.95 11.66
4/27/2022 9:15:00 PM 6.87 44.366 0.032 6.72 2.04 11.68
4/27/2022 9:30:00 PM 6.82 44.276 0.032 6.71 1.9 11.7
4/27/2022 9:45:00 PM 6.78 44.204 0.032 6.7 1.95 11.7
4/27/2022 10:00:00 PM 6.74 44.132 0.032 6.7 1.97 11.72
4/27/2022 10:15:00 PM 6.71 44.078 0.032 6.71 1.99 11.73
4/27/2022 10:30:00 PM 6.68 44.024 0.032 6.7 1.97 11.74
4/27/2022 10:45:00 PM 6.65 43.97 0.032 6.7 1.99 11.75
4/27/2022 11:00:00 PM 6.61 43.898 0.032 6.71 2.01 11.76
4/27/2022 11:15:00 PM 6.58 43.844 0.032 6.69 1.99 11.77
4/27/2022 11:30:00 PM 6.55 43.79 0.032 6.71 2.02 11.78
4/27/2022 11:45:00 PM 6.52 43.736 0.032 6.7 1.97 11.79
4/28/2022 12:00:00 AM 6.5 43.7 0.032 6.7 1.95 11.8
4/28/2022 12:15:00 AM 6.47 43.646 0.032 6.7 2.16 11.81
4/28/2022 12:30:00 AM 6.45 43.61 0.032 6.69 2.01 11.82
4/28/2022 12:45:00 AM 6.44 43.592 0.032 6.69 2.02 11.82
4/28/2022 1:00:00 AM 6.42 43.556 0.032 6.69 2.07 11.82
4/28/2022 1:15:00 AM 6.41 43.538 0.032 6.69 5.84 11.83
4/28/2022 1:30:00 AM 6.38 43.484 0.032 6.69 1.99 11.84
4/28/2022 1:45:00 AM 6.35 43.43 0.032 6.69 2.2 11.84
4/28/2022 2:00:00 AM 6.33 43.394 0.032 6.7 1.96 11.85
4/28/2022 2:15:00 AM 6.3 43.34 0.032 6.7 1.97 11.86
4/28/2022 2:30:00 AM 6.27 43.286 0.032 6.69 3.94 11.87
4/28/2022 2:45:00 AM 6.23 43.214 0.032 6.7 2 11.88
4/28/2022 3:00:00 AM 6.21 43.178 0.032 6.69 5.02 11.89
4/28/2022 3:15:00 AM 6.19 43.142 0.032 6.69 2.01 11.9
4/28/2022 3:30:00 AM 6.17 43.106 0.032 6.7 2.03 11.91
4/28/2022 3:45:00 AM 6.14 43.052 0.032 6.7 2.17 11.92
4/28/2022 4:00:00 AM 6.11 42.998 0.032 6.7 2.06 11.92
4/28/2022 4:15:00 AM 6.06 42.908 0.032 6.7 2.03 11.94
4/28/2022 4:30:00 AM 6.02 42.836 0.032 6.69 1.97 11.96
4/28/2022 4:45:00 AM 5.99 42.782 0.032 6.69 1.96 11.96
4/28/2022 5:00:00 AM 5.95 42.71 0.032 6.7 1.96 11.98
4/28/2022 5:15:00 AM 5.92 42.656 0.032 6.7 1.95 11.98
4/28/2022 5:30:00 AM 5.9 42.62 0.032 6.69 2.05 12
4/28/2022 5:45:00 AM 5.87 42.566 0.032 6.69 1.96 12
4/28/2022 6:00:00 AM 5.85 42.53 0.032 6.69 1.97 12.01
4/28/2022 6:15:00 AM 5.82 42.476 0.032 6.7 1.94 12.03
4/28/2022 6:30:00 AM 5.79 42.422 0.032 6.69 1.98 12.05
4/28/2022 6:45:00 AM 5.76 42.368 0.032 6.69 1.91 12.08
4/28/2022 7:00:00 AM 5.74 42.332 0.032 6.71 1.97 12.12
4/28/2022 7:15:00 AM 5.71 42.278 0.032 6.71 1.93 12.14
4/28/2022 7:30:00 AM 5.7 42.26 0.032 6.73 1.94 12.17
4/28/2022 7:45:00 AM 5.68 42.224 0.032 6.72 1.93 12.21
4/28/2022 8:00:00 AM 5.68 42.224 0.031 6.75 1.93 12.24
4/28/2022 8:15:00 AM 5.68 42.224 0.031 6.74 1.9 12.26
4/28/2022 8:30:00 AM 5.69 42.242 0.031 6.76 1.93 12.27
4/28/2022 8:45:00 AM 5.73 42.314 0.031 6.76 1.9 12.28
4/28/2022 9:00:00 AM 5.79 42.422 0.031 6.76 1.9 12.27
4/28/2022 9:15:00 AM 5.82 42.476 0.031 6.76 1.94 12.27
4/28/2022 9:30:00 AM 5.85 42.53 0.031 6.76 1.87 12.26
4/28/2022 9:45:00 AM 5.92 42.656 0.031 6.76 1.87 12.25
4/28/2022 10:00:00 AM 6.01 42.818 0.031 6.76 1.89 12.23
4/28/2022 10:15:00 AM 6.09 42.962 0.031 6.77 1.88 12.21
4/28/2022 10:30:00 AM 6.23 43.214 0.031 6.77 1.9 12.17
4/28/2022 10:45:00 AM 6.38 43.484 0.031 6.77 1.87 12.13
4/28/2022 11:00:00 AM 6.55 43.79 0.031 6.77 1.87 12.09
4/28/2022 11:15:00 AM 6.73 44.114 0.031 6.78 1.9 12.04
4/28/2022 11:30:00 AM 6.95 44.51 0.031 6.77 1.85 11.98
4/28/2022 11:45:00 AM 7.19 44.942 0.031 6.78 1.81 11.92
4/28/2022 12:00:00 PM 7.44 45.392 0.031 6.79 1.85 11.85
4/28/2022 12:15:00 PM 7.7 45.86 0.031 6.79 1.82 11.78
4/28/2022 12:30:00 PM 7.97 46.346 0.031 6.79 1.85 11.71
4/28/2022 12:45:00 PM 8.24 46.832 0.031 6.79 1.8 11.63
4/28/2022 1:00:00 PM 8.51 47.318 0.031 6.8 1.84 11.56
4/28/2022 1:15:00 PM 8.76 47.768 0.031 6.8 1.76 11.48
4/28/2022 1:30:00 PM 8.99 48.182 0.031 6.8 1.75 11.41
4/28/2022 1:45:00 PM 9.22 48.596 0.031 6.79 1.84 11.34
4/28/2022 2:00:00 PM 9.4 48.92 0.031 6.8 1.81 11.28
4/28/2022 2:15:00 PM 9.55 49.19 0.031 6.81 1.8 11.23
4/28/2022 2:30:00 PM 9.65 49.37 0.031 6.8 1.83 11.19
4/28/2022 2:45:00 PM 9.72 49.496 0.031 6.8 1.78 11.16
4/28/2022 3:00:00 PM 9.77 49.586 0.031 6.81 1.75 11.13
4/28/2022 3:15:00 PM 9.75 49.55 0.031 6.8 1.83 11.12
4/28/2022 3:30:00 PM 9.71 49.478 0.031 6.8 1.78 11.12
4/28/2022 3:45:00 PM 9.66 49.388 0.031 6.8 1.81 11.12
4/28/2022 4:00:00 PM 9.6 49.28 0.031 6.79 1.86 11.13
4/28/2022 4:15:00 PM 9.52 49.136 0.031 6.77 1.79 11.14
4/28/2022 4:30:00 PM 9.43 48.974 0.031 6.77 1.83 11.15
4/28/2022 4:45:00 PM 9.32 48.776 0.031 6.76 1.8 11.17
4/28/2022 5:00:00 PM 9.24 48.632 0.031 6.76 1.82 11.19
4/28/2022 5:15:00 PM 9.13 48.434 0.031 6.76 1.86 11.2
4/28/2022 5:30:00 PM 9.01 48.218 0.031 6.77 1.85 11.22
4/28/2022 5:45:00 PM 8.9 48.02 0.031 6.76 1.85 11.24
4/28/2022 6:00:00 PM 8.79 47.822 0.031 6.76 1.91 11.26
4/28/2022 6:15:00 PM 8.69 47.642 0.031 6.75 1.86 11.27
4/28/2022 6:30:00 PM 8.6 47.48 0.031 6.75 1.82 11.29
4/28/2022 6:45:00 PM 8.51 47.318 0.031 6.74 1.89 11.3
4/28/2022 7:00:00 PM 8.42 47.156 0.031 6.74 1.9 11.31
4/28/2022 7:15:00 PM 8.33 46.994 0.031 6.72 1.86 11.32
4/28/2022 7:30:00 PM 8.25 46.85 0.031 6.72 1.91 11.33
4/28/2022 7:45:00 PM 8.18 46.724 0.031 6.72 1.84 11.34
4/28/2022 8:00:00 PM 8.1 46.58 0.031 6.72 1.87 11.34
4/28/2022 8:15:00 PM 8.02 46.436 0.032 6.71 1.88 11.35
4/28/2022 8:30:00 PM 7.94 46.292 0.032 6.69 1.92 11.37
4/28/2022 8:45:00 PM 7.86 46.148 0.032 6.7 1.93 11.38
4/28/2022 9:00:00 PM 7.79 46.022 0.032 6.7 1.93 11.4
4/28/2022 9:15:00 PM 7.73 45.914 0.032 6.69 1.93 11.42
4/28/2022 9:30:00 PM 7.67 45.806 0.032 6.7 1.9 11.44
4/28/2022 9:45:00 PM 7.6 45.68 0.032 6.69 1.93 11.45
4/28/2022 10:00:00 PM 7.54 45.572 0.032 6.7 1.94 11.47
4/28/2022 10:15:00 PM 7.48 45.464 0.032 6.69 1.93 11.49
4/28/2022 10:30:00 PM 7.41 45.338 0.032 6.69 1.94 11.51
4/28/2022 10:45:00 PM 7.33 45.194 0.032 6.69 1.95 11.54
4/28/2022 11:00:00 PM 7.26 45.068 0.032 6.68 1.99 11.56
4/28/2022 11:15:00 PM 7.18 44.924 0.032 6.69 2 11.58
4/28/2022 11:30:00 PM 7.1 44.78 0.032 6.68 1.97 11.61
4/28/2022 11:45:00 PM 7.03 44.654 0.032 6.68 1.96 11.63
4/29/2022 12:00:00 AM 6.95 44.51 0.032 6.68 2 11.65
4/29/2022 12:15:00 AM 6.88 44.384 0.032 6.68 1.97 11.67
4/29/2022 12:30:00 AM 6.81 44.258 0.032 6.68 1.96 11.7
4/29/2022 12:45:00 AM 6.74 44.132 0.032 6.67 1.97 11.72
4/29/2022 1:00:00 AM 6.67 44.006 0.032 6.68 1.95 11.74
4/29/2022 1:15:00 AM 6.6 43.88 0.032 6.68 2.03 11.76
4/29/2022 1:30:00 AM 6.54 43.772 0.032 6.68 1.99 11.78
4/29/2022 1:45:00 AM 6.48 43.664 0.032 6.67 1.96 11.8
4/29/2022 2:00:00 AM 6.42 43.556 0.032 6.68 1.97 11.82
4/29/2022 2:15:00 AM 6.36 43.448 0.032 6.68 2 11.84
4/29/2022 2:30:00 AM 6.3 43.34 0.032 6.67 1.93 11.86
4/29/2022 2:45:00 AM 6.25 43.25 0.032 6.67 1.98 11.88
4/29/2022 3:00:00 AM 6.19 43.142 0.032 6.67 2.01 11.89
4/29/2022 3:15:00 AM 6.14 43.052 0.032 6.66 2.08 11.91
4/29/2022 3:30:00 AM 6.08 42.944 0.032 6.66 2 11.93
4/29/2022 3:45:00 AM 6.03 42.854 0.032 6.66 1.95 11.95
4/29/2022 4:00:00 AM 5.98 42.764 0.032 6.67 1.98 11.97
4/29/2022 4:15:00 AM 5.93 42.674 0.032 6.67 1.92 11.98
4/29/2022 4:30:00 AM 5.88 42.584 0.032 6.66 1.99 12
4/29/2022 4:45:00 AM 5.82 42.476 0.032 6.67 1.97 12.02
4/29/2022 5:00:00 AM 5.78 42.404 0.032 6.66 1.97 12.04
4/29/2022 5:15:00 AM 5.73 42.314 0.032 6.66 1.97 12.04
4/29/2022 5:30:00 AM 5.68 42.224 0.032 6.67 1.94 12.06
4/29/2022 5:45:00 AM 5.63 42.134 0.032 6.66 1.92 12.07
4/29/2022 6:00:00 AM 5.58 42.044 0.032 6.66 1.96 12.09
4/29/2022 6:15:00 AM 5.54 41.972 0.032 6.67 1.95 12.11
4/29/2022 6:30:00 AM 5.49 41.882 0.032 6.67 1.95 12.15
4/29/2022 6:45:00 AM 5.45 41.81 0.032 6.67 1.92 12.18
4/29/2022 7:00:00 AM 5.42 41.756 0.032 6.67 1.91 12.2
4/29/2022 7:15:00 AM 5.39 41.702 0.032 6.68 1.99 12.23
4/29/2022 7:30:00 AM 5.36 41.648 0.032 6.68 1.9 12.28
4/29/2022 7:45:00 AM 5.34 41.612 0.032 6.69 1.92 12.29
4/29/2022 8:00:00 AM 5.33 41.594 0.032 6.7 1.91 12.31
4/29/2022 8:15:00 AM 5.36 41.648 0.031 6.7 1.89 12.34
4/29/2022 8:30:00 AM 5.41 41.738 0.031 6.72 1.93 12.34
4/29/2022 8:45:00 AM 5.47 41.846 0.031 6.72 1.89 12.35
4/29/2022 9:00:00 AM 5.53 41.954 0.031 6.73 1.87 12.34
4/29/2022 9:15:00 AM 5.6 42.08 0.031 6.73 1.92 12.34
4/29/2022 9:30:00 AM 5.67 42.206 0.031 6.73 1.89 12.33
4/29/2022 9:45:00 AM 5.78 42.404 0.031 6.73 1.87 12.31
4/29/2022 10:00:00 AM 5.91 42.638 0.031 6.74 1.85 12.27
4/29/2022 10:15:00 AM 6.04 42.872 0.031 6.74 1.88 12.24
4/29/2022 10:30:00 AM 6.19 43.142 0.031 6.75 1.84 12.2
4/29/2022 10:45:00 AM 6.38 43.484 0.031 6.75 1.83 12.15
4/29/2022 11:00:00 AM 6.6 43.88 0.031 6.76 1.84 12.09
4/29/2022 11:15:00 AM 6.82 44.276 0.031 6.75 1.83 12.03
4/29/2022 11:30:00 AM 7.06 44.708 0.031 6.76 1.87 11.97
4/29/2022 11:45:00 AM 7.32 45.176 0.031 6.75 1.89 11.9
4/29/2022 12:00:00 PM 7.6 45.68 0.031 6.76 1.85 11.83
4/29/2022 12:15:00 PM 7.89 46.202 0.031 6.77 1.84 11.75
4/29/2022 12:30:00 PM 8.17 46.706 0.031 6.77 1.86 11.67
4/29/2022 12:45:00 PM 8.46 47.228 0.031 6.78 1.85 11.59
4/29/2022 1:00:00 PM 8.75 47.75 0.031 6.77 1.82 11.51
4/29/2022 1:15:00 PM 9.03 48.254 0.031 6.78 1.8 11.43
4/29/2022 1:30:00 PM 9.31 48.758 0.031 6.78 1.81 11.34
4/29/2022 1:45:00 PM 9.55 49.19 0.031 6.78 1.79 11.27
4/29/2022 2:00:00 PM 9.77 49.586 0.031 6.79 1.77 11.2
4/29/2022 2:15:00 PM 9.93 49.874 0.031 6.78 1.76 11.15
4/29/2022 2:30:00 PM 10.06 50.108 0.031 6.78 1.79 11.1
4/29/2022 2:45:00 PM 10.16 50.288 0.031 6.79 1.79 11.05
4/29/2022 3:00:00 PM 10.21 50.378 0.031 6.79 1.82 11.03
4/29/2022 3:15:00 PM 10.23 50.414 0.031 6.79 1.81 11.01
4/29/2022 3:30:00 PM 10.22 50.396 0.031 6.78 1.77 11
4/29/2022 3:45:00 PM 10.17 50.306 0.031 6.79 1.75 11
4/29/2022 4:00:00 PM 10.11 50.198 0.031 6.79 1.83 11
4/29/2022 4:15:00 PM 10.04 50.072 0.031 6.78 1.85 11.02
4/29/2022 4:30:00 PM 9.95 49.91 0.031 6.79 1.83 11.03
4/29/2022 4:45:00 PM 9.87 49.766 0.031 6.78 1.82 11.04
4/29/2022 5:00:00 PM 9.77 49.586 0.031 6.78 1.79 11.06
4/29/2022 5:15:00 PM 9.68 49.424 0.031 6.78 1.8 11.07
4/29/2022 5:30:00 PM 9.59 49.262 0.031 6.77 1.84 11.08
4/29/2022 5:45:00 PM 9.49 49.082 0.031 6.77 1.84 11.09
4/29/2022 6:00:00 PM 9.4 48.92 0.031 6.77 1.89 11.1
4/29/2022 6:15:00 PM 9.31 48.758 0.031 6.75 1.83 11.11
4/29/2022 6:30:00 PM 9.22 48.596 0.031 6.76 1.85 11.12
4/29/2022 6:45:00 PM 9.13 48.434 0.031 6.75 1.84 11.13
4/29/2022 7:00:00 PM 9.05 48.29 0.031 6.75 1.83 11.14
4/29/2022 7:15:00 PM 8.97 48.146 0.031 6.75 1.82 11.15
4/29/2022 7:30:00 PM 8.89 48.002 0.031 6.73 1.91 11.16
4/29/2022 7:45:00 PM 8.82 47.876 0.031 6.74 1.84 11.16
4/29/2022 8:00:00 PM 8.75 47.75 0.031 6.73 1.85 11.16
4/29/2022 8:15:00 PM 8.67 47.606 0.032 6.7 1.87 11.17
4/29/2022 8:30:00 PM 8.6 47.48 0.032 6.71 1.88 11.17
4/29/2022 8:45:00 PM 8.54 47.372 0.032 6.71 1.92 11.18
4/29/2022 9:00:00 PM 8.47 47.246 0.032 6.71 1.99 11.2
4/29/2022 9:15:00 PM 8.41 47.138 0.032 6.71 1.94 11.22
4/29/2022 9:30:00 PM 8.35 47.03 0.032 6.7 1.93 11.24
4/29/2022 9:45:00 PM 8.29 46.922 0.032 6.7 1.84 11.25
4/29/2022 10:00:00 PM 8.23 46.814 0.032 6.69 1.92 11.28
4/29/2022 10:15:00 PM 8.17 46.706 0.032 6.69 1.92 11.29
4/29/2022 10:30:00 PM 8.09 46.562 0.032 6.69 1.9 11.32
4/29/2022 10:45:00 PM 8.02 46.436 0.032 6.69 1.92 11.34
4/29/2022 11:00:00 PM 7.93 46.274 0.032 6.69 1.92 11.35
4/29/2022 11:15:00 PM 7.85 46.13 0.032 6.69 1.88 11.38
4/29/2022 11:30:00 PM 7.77 45.986 0.032 6.7 1.98 11.41
4/29/2022 11:45:00 PM 7.69 45.842 0.032 6.69 1.94 11.43
4/30/2022 12:00:00 AM 7.61 45.698 0.032 6.69 1.92 11.45
4/30/2022 12:15:00 AM 7.53 45.554 0.032 6.69 1.94 11.48
4/30/2022 12:30:00 AM 7.46 45.428 0.032 6.67 1.92 11.5
4/30/2022 12:45:00 AM 7.38 45.284 0.032 6.68 1.9 11.52
4/30/2022 1:00:00 AM 7.31 45.158 0.032 6.68 1.94 11.54
4/30/2022 1:15:00 AM 7.24 45.032 0.032 6.69 1.94 11.57
4/30/2022 1:30:00 AM 7.17 44.906 0.032 6.67 1.98 11.58
4/30/2022 1:45:00 AM 7.1 44.78 0.032 6.68 2 11.6
4/30/2022 2:00:00 AM 7.03 44.654 0.032 6.67 1.95 11.62
4/30/2022 2:15:00 AM 6.97 44.546 0.032 6.67 1.88 11.64
4/30/2022 2:30:00 AM 6.9 44.42 0.032 6.68 1286.35 11.66
4/30/2022 2:45:00 AM 6.84 44.312 0.032 6.68 1.96 11.68
4/30/2022 3:00:00 AM 6.78 44.204 0.032 6.67 1.97 11.7
4/30/2022 3:15:00 AM 6.71 44.078 0.032 6.68 1.92 11.72
4/30/2022 3:30:00 AM 6.65 43.97 0.032 6.68 1.95 11.73
4/30/2022 3:45:00 AM 6.6 43.88 0.032 6.67 1.9 11.75
4/30/2022 4:00:00 AM 6.54 43.772 0.032 6.67 1.91 11.78
4/30/2022 4:15:00 AM 6.48 43.664 0.032 6.67 1.94 11.79
4/30/2022 4:30:00 AM 6.43 43.574 0.032 6.67 1.96 11.8
4/30/2022 4:45:00 AM 6.38 43.484 0.032 6.67 1.96 11.82
4/30/2022 5:00:00 AM 6.33 43.394 0.032 6.67 1.95 11.84
4/30/2022 5:15:00 AM 6.28 43.304 0.032 6.67 1.92 11.86
4/30/2022 5:30:00 AM 6.22 43.196 0.032 6.67 2.01 11.87
4/30/2022 5:45:00 AM 6.17 43.106 0.032 6.67 1.94 11.89
4/30/2022 6:00:00 AM 6.12 43.016 0.032 6.67 1.94 11.91
4/30/2022 6:15:00 AM 6.07 42.926 0.032 6.66 1.93 11.94
4/30/2022 6:30:00 AM 6.02 42.836 0.032 6.67 1.97 11.97
4/30/2022 6:45:00 AM 5.97 42.746 0.032 6.68 1.94 12
4/30/2022 7:00:00 AM 5.93 42.674 0.032 6.68 1.89 12.03
4/30/2022 7:15:00 AM 5.89 42.602 0.032 6.69 1.86 12.06
4/30/2022 7:30:00 AM 5.86 42.548 0.032 6.69 1.95 12.09
4/30/2022 7:45:00 AM 5.83 42.494 0.032 6.68 1.9 12.12
4/30/2022 8:00:00 AM 5.82 42.476 0.032 6.7 1.89 12.14
4/30/2022 8:15:00 AM 5.83 42.494 0.032 6.71 1.94 12.17
4/30/2022 8:30:00 AM 5.87 42.566 0.031 6.71 1.88 12.18
4/30/2022 8:45:00 AM 5.91 42.638 0.031 6.72 1.84 12.19
4/30/2022 9:00:00 AM 5.98 42.764 0.031 6.73 1.87 12.18
4/30/2022 9:15:00 AM 6.06 42.908 0.031 6.74 1.89 12.17
4/30/2022 9:30:00 AM 6.17 43.106 0.031 6.74 1.83 12.15
4/30/2022 9:45:00 AM 6.31 43.358 0.031 6.74 1.83 12.13
4/30/2022 10:00:00 AM 6.47 43.646 0.031 6.75 1.84 12.09
4/30/2022 10:15:00 AM 6.64 43.952 0.031 6.76 1.86 12.05
4/30/2022 10:30:00 AM 6.83 44.294 0.031 6.76 1.84 12
4/30/2022 10:45:00 AM 7.04 44.672 0.031 6.77 1.86 11.95
4/30/2022 11:00:00 AM 7.27 45.086 0.031 6.76 1.8 11.88
4/30/2022 11:15:00 AM 7.51 45.518 0.031 6.77 1.86 11.82
4/30/2022 11:30:00 AM 7.77 45.986 0.031 6.78 1.83 11.75
4/30/2022 11:45:00 AM 8.05 46.49 0.031 6.77 1.79 11.68
4/30/2022 12:00:00 PM 8.34 47.012 0.031 6.78 1.81 11.61
4/30/2022 12:15:00 PM 8.64 47.552 0.031 6.79 1.8 11.53
4/30/2022 12:30:00 PM 8.94 48.092 0.031 6.79 1.8 11.45
4/30/2022 12:45:00 PM 9.25 48.65 0.031 6.8 1.8 11.36
4/30/2022 1:00:00 PM 9.55 49.19 0.031 6.8 1.79 11.28
4/30/2022 1:15:00 PM 9.84 49.712 0.031 6.8 1.73 11.21
4/30/2022 1:30:00 PM 10.12 50.216 0.031 6.8 1.71 11.13
4/30/2022 1:45:00 PM 10.38 50.684 0.031 6.79 1.75 11.04
4/30/2022 2:00:00 PM 10.62 51.116 0.031 6.79 1.76 10.98
4/30/2022 2:15:00 PM 10.8 51.44 0.031 6.79 1.78 10.92
4/30/2022 2:30:00 PM 10.94 51.692 0.031 6.79 1.76 10.87
4/30/2022 2:45:00 PM 11.02 51.836 0.031 6.8 1.74 10.83
4/30/2022 3:00:00 PM 11.07 51.926 0.031 6.79 1.73 10.8
4/30/2022 3:15:00 PM 11.08 51.944 0.031 6.8 1.74 10.79
4/30/2022 3:30:00 PM 11.07 51.926 0.031 6.8 1.77 10.78
4/30/2022 3:45:00 PM 11.04 51.872 0.031 6.8 1.76 10.77
4/30/2022 4:00:00 PM 10.99 51.782 0.031 6.8 1.76 10.78
4/30/2022 4:15:00 PM 10.89 51.602 0.031 6.8 1.77 10.78
4/30/2022 4:30:00 PM 10.81 51.458 0.031 6.79 1.79 10.81
4/30/2022 4:45:00 PM 10.75 51.35 0.031 6.8 1.83 10.83
4/30/2022 5:00:00 PM 10.66 51.188 0.031 6.79 1.8 10.83
4/30/2022 5:15:00 PM 10.57 51.026 0.031 6.79 1.75 10.84
4/30/2022 5:30:00 PM 10.47 50.846 0.031 6.79 1.77 10.85
4/30/2022 5:45:00 PM 10.36 50.648 0.031 6.79 1.79 10.85
4/30/2022 6:00:00 PM 10.26 50.468 0.031 6.78 1.74 10.87
4/30/2022 6:15:00 PM 10.17 50.306 0.031 6.77 1.81 10.89
4/30/2022 6:30:00 PM 10.1 50.18 0.031 6.78 1.8 10.9
4/30/2022 6:45:00 PM 10.03 50.054 0.031 6.77 1.79 10.9
4/30/2022 7:00:00 PM 9.96 49.928 0.031 6.76 1.81 10.91
4/30/2022 7:15:00 PM 9.89 49.802 0.031 6.75 1.84 10.91
4/30/2022 7:30:00 PM 9.82 49.676 0.031 6.75 1.82 10.91
4/30/2022 7:45:00 PM 9.74 49.532 0.031 6.73 1.8 10.9
4/30/2022 8:00:00 PM 9.67 49.406 0.031 6.73 1.87 10.89
4/30/2022 8:15:00 PM 9.6 49.28 0.032 6.73 1.81 10.88
4/30/2022 8:30:00 PM 9.54 49.172 0.032 6.72 1.84 10.89
4/30/2022 8:45:00 PM 9.48 49.064 0.032 6.72 1.93 10.9
4/30/2022 9:00:00 PM 9.42 48.956 0.032 6.7 1.86 10.91
4/30/2022 9:15:00 PM 9.36 48.848 0.032 6.7 1.89 10.93
4/30/2022 9:30:00 PM 9.29 48.722 0.032 6.68 1.91 10.94
4/30/2022 9:45:00 PM 9.22 48.596 0.032 6.7 1.93 10.97
4/30/2022 10:00:00 PM 9.15 48.47 0.032 6.7 1.87 10.98
4/30/2022 10:15:00 PM 9.09 48.362 0.032 6.69 1.91 10.99
4/30/2022 10:30:00 PM 9.02 48.236 0.032 6.69 1.88 11.01
4/30/2022 10:45:00 PM 8.95 48.11 0.032 6.69 1.89 11.03
4/30/2022 11:00:00 PM 8.88 47.984 0.032 6.69 1.92 11.05
4/30/2022 11:15:00 PM 8.81 47.858 0.032 6.69 1.89 11.07
4/30/2022 11:30:00 PM 8.74 47.732 0.032 6.7 1.95 11.09
4/30/2022 11:45:00 PM 8.67 47.606 0.032 6.68 1.9 11.11
5/1/2022 12:00:00 AM 8.6 47.48 0.032 6.7 1.85 11.13
5/1/2022 12:15:00 AM 8.53 47.354 0.032 6.69 1.89 11.15
5/1/2022 12:30:00 AM 8.46 47.228 0.032 6.68 1.91 11.17
5/1/2022 12:45:00 AM 8.39 47.102 0.032 6.69 1.88 11.19
5/1/2022 1:00:00 AM 8.33 46.994 0.032 6.69 1.94 11.21
5/1/2022 1:15:00 AM 8.26 46.868 0.032 6.68 1.87 11.23
5/1/2022 1:30:00 AM 8.2 46.76 0.032 6.69 1.97 11.26
5/1/2022 1:45:00 AM 8.14 46.652 0.032 6.68 1.94 11.26
5/1/2022 2:00:00 AM 8.07 46.526 0.032 6.69 1.9 11.28
5/1/2022 2:15:00 AM 8 46.4 0.032 6.68 1.89 11.31
5/1/2022 2:30:00 AM 7.93 46.274 0.032 6.68 1.92 11.32
5/1/2022 2:45:00 AM 7.86 46.148 0.032 6.69 1.94 11.35
5/1/2022 3:00:00 AM 7.8 46.04 0.032 6.69 1.91 11.36
5/1/2022 3:15:00 AM 7.73 45.914 0.032 6.68 1.91 11.38
5/1/2022 3:30:00 AM 7.67 45.806 0.032 6.67 1.9 11.4
5/1/2022 3:45:00 AM 7.6 45.68 0.032 6.68 1.92 11.41
5/1/2022 4:00:00 AM 7.54 45.572 0.032 6.68 1.95 11.44
5/1/2022 4:15:00 AM 7.48 45.464 0.032 6.68 1.91 11.46
5/1/2022 4:30:00 AM 7.41 45.338 0.032 6.67 1.95 11.47
5/1/2022 4:45:00 AM 7.34 45.212 0.032 6.68 1.91 11.5
5/1/2022 5:00:00 AM 7.28 45.104 0.032 6.67 1.96 11.51
5/1/2022 5:15:00 AM 7.21 44.978 0.032 6.67 1.9 11.53
5/1/2022 5:30:00 AM 7.15 44.87 0.032 6.67 1.96 11.55
5/1/2022 5:45:00 AM 7.09 44.762 0.032 6.67 1.94 11.57
5/1/2022 6:00:00 AM 7.04 44.672 0.032 6.67 1.93 11.58
5/1/2022 6:15:00 AM 6.98 44.564 0.032 6.67 1.91 11.61
5/1/2022 6:30:00 AM 6.93 44.474 0.032 6.68 1.91 11.64
5/1/2022 6:45:00 AM 6.89 44.402 0.032 6.69 1.92 11.69
5/1/2022 7:00:00 AM 6.85 44.33 0.032 6.7 1.94 11.72
5/1/2022 7:15:00 AM 6.82 44.276 0.032 6.7 1.86 11.75
5/1/2022 7:30:00 AM 6.8 44.24 0.032 6.72 1.89 11.78
5/1/2022 7:45:00 AM 6.78 44.204 0.032 6.72 1.89 11.8
5/1/2022 8:00:00 AM 6.77 44.186 0.032 6.72 1.93 11.82
5/1/2022 8:15:00 AM 6.8 44.24 0.032 6.72 1.85 11.85
5/1/2022 8:30:00 AM 6.85 44.33 0.031 6.73 1.87 11.86
5/1/2022 8:45:00 AM 6.93 44.474 0.031 6.74 1.88 11.87
5/1/2022 9:00:00 AM 7 44.6 0.031 6.74 1.87 11.85
5/1/2022 9:15:00 AM 7.09 44.762 0.031 6.76 1.84 11.84
5/1/2022 9:30:00 AM 7.2 44.96 0.031 6.76 1.9 11.83
5/1/2022 9:45:00 AM 7.36 45.248 0.031 6.76 1.86 11.79
5/1/2022 10:00:00 AM 7.53 45.554 0.031 6.78 1.8 11.77
5/1/2022 10:15:00 AM 7.68 45.824 0.031 6.78 1.79 11.72
5/1/2022 10:30:00 AM 7.85 46.13 0.031 6.78 1.85 11.68
5/1/2022 10:45:00 AM 8.02 46.436 0.031 6.78 1.83 11.64
5/1/2022 11:00:00 AM 8.26 46.868 0.031 6.8 1.79 11.58
5/1/2022 11:15:00 AM 8.48 47.264 0.031 6.79 1.81 11.52
5/1/2022 11:30:00 AM 8.73 47.714 0.031 6.79 1.79 11.47
5/1/2022 11:45:00 AM 9.05 48.29 0.031 6.79 1.79 11.4
5/1/2022 12:00:00 PM 9.21 48.578 0.031 6.8 1.83 11.33
5/1/2022 12:15:00 PM 9.26 48.668 0.031 6.8 1.73 11.26
5/1/2022 12:30:00 PM 9.29 48.722 0.031 6.8 1.78 11.26
5/1/2022 12:45:00 PM 9.4 48.92 0.031 6.81 1.81 11.24
5/1/2022 1:00:00 PM 9.46 49.028 0.031 6.8 1.76 11.2
5/1/2022 1:15:00 PM 9.48 49.064 0.031 6.8 1.8 11.16
5/1/2022 1:30:00 PM 9.49 49.082 0.031 6.79 1.83 11.16
5/1/2022 1:45:00 PM 9.47 49.046 0.031 6.79 1.82 11.12
5/1/2022 2:00:00 PM 9.43 48.974 0.031 6.78 1.79 11.11
5/1/2022 2:15:00 PM 9.4 48.92 0.031 6.79 1.82 11.14
5/1/2022 2:30:00 PM 9.37 48.866 0.031 6.77 1.84 11.14
5/1/2022 2:45:00 PM 9.34 48.812 0.031 6.79 1.86 11.16
5/1/2022 3:00:00 PM 9.3 48.74 0.031 6.79 1.8 11.15
5/1/2022 3:15:00 PM 9.25 48.65 0.031 6.79 1.83 11.16
5/1/2022 3:30:00 PM 9.2 48.56 0.031 6.78 1.86 11.16
5/1/2022 3:45:00 PM 9.14 48.452 0.031 6.78 1.84 11.17
5/1/2022 4:00:00 PM 9.09 48.362 0.031 6.78 1.85 11.18
5/1/2022 4:15:00 PM 9.05 48.29 0.031 6.77 1.82 11.21
5/1/2022 4:30:00 PM 9.01 48.218 0.031 6.77 1.81 11.21
5/1/2022 4:45:00 PM 8.97 48.146 0.031 6.77 1.85 11.21
5/1/2022 5:00:00 PM 8.96 48.128 0.031 6.76 1.86 11.22
5/1/2022 5:15:00 PM 8.94 48.092 0.031 6.78 1.81 11.22
5/1/2022 5:30:00 PM 8.93 48.074 0.031 6.77 1.92 11.23
5/1/2022 5:45:00 PM 8.91 48.038 0.031 6.77 1.91 11.22
5/1/2022 6:00:00 PM 8.89 48.002 0.031 6.75 1.9 11.21
5/1/2022 6:15:00 PM 8.88 47.984 0.031 6.76 1.87 11.19
5/1/2022 6:30:00 PM 8.87 47.966 0.031 6.75 1.87 11.16
5/1/2022 6:45:00 PM 8.85 47.93 0.031 6.74 1.91 11.15
5/1/2022 7:00:00 PM 8.84 47.912 0.031 6.74 1.85 11.13
5/1/2022 7:15:00 PM 8.82 47.876 0.032 6.73 1.84 11.12
5/1/2022 7:30:00 PM 8.81 47.858 0.032 6.73 1.86 11.11
5/1/2022 7:45:00 PM 8.81 47.858 0.032 6.72 1.88 11.1
5/1/2022 8:00:00 PM 8.8 47.84 0.032 6.72 1.87 11.09
5/1/2022 8:15:00 PM 8.8 47.84 0.032 6.72 2.08 11.08
5/1/2022 8:30:00 PM 8.79 47.822 0.032 6.72 1.85 11.07
5/1/2022 8:45:00 PM 8.79 47.822 0.032 6.72 1.95 11.07
5/1/2022 9:00:00 PM 8.78 47.804 0.032 6.72 1.86 11.07
5/1/2022 9:15:00 PM 8.78 47.804 0.032 6.71 1.89 11.07
5/1/2022 9:30:00 PM 8.78 47.804 0.032 6.72 1.88 11.07
5/1/2022 9:45:00 PM 8.77 47.786 0.032 6.71 1.91 11.07
5/1/2022 10:00:00 PM 8.76 47.768 0.032 6.71 1.87 11.08
5/1/2022 10:15:00 PM 8.76 47.768 0.032 6.72 1.85 11.08
5/1/2022 10:30:00 PM 8.75 47.75 0.032 6.71 1.89 11.08
5/1/2022 10:45:00 PM 8.75 47.75 0.032 6.71 1.89 11.08
5/1/2022 11:00:00 PM 8.75 47.75 0.032 6.71 1.89 11.08
5/1/2022 11:15:00 PM 8.76 47.768 0.032 6.72 1.91 11.07
5/1/2022 11:30:00 PM 8.75 47.75 0.032 6.7 1.92 11.08
5/1/2022 11:45:00 PM 8.75 47.75 0.032 6.7 1.92 11.07
5/2/2022 12:00:00 AM 8.75 47.75 0.032 6.7 1.89 11.07
5/2/2022 12:15:00 AM 8.75 47.75 0.032 6.7 1.92 11.08
5/2/2022 12:30:00 AM 8.74 47.732 0.032 6.7 1.89 11.08
5/2/2022 12:45:00 AM 8.74 47.732 0.032 6.7 1.91 11.08
5/2/2022 1:00:00 AM 8.75 47.75 0.032 6.69 2.12 11.07
5/2/2022 1:15:00 AM 8.75 47.75 0.032 6.7 2.03 11.07
5/2/2022 1:30:00 AM 8.75 47.75 0.032 6.69 2 11.06
5/2/2022 1:45:00 AM 8.75 47.75 0.032 6.69 1.95 11.06
5/2/2022 2:00:00 AM 8.74 47.732 0.032 6.7 2.03 11.06
5/2/2022 2:15:00 AM 8.73 47.714 0.032 6.7 2.01 11.07
5/2/2022 2:30:00 AM 8.72 47.696 0.032 6.69 2 11.07
5/2/2022 2:45:00 AM 8.72 47.696 0.032 6.69 1.97 11.07
5/2/2022 3:00:00 AM 8.71 47.678 0.032 6.7 1.99 11.07
5/2/2022 3:15:00 AM 8.71 47.678 0.032 6.69 2.02 11.07
5/2/2022 3:30:00 AM 8.7 47.66 0.032 6.69 1.99 11.08
5/2/2022 3:45:00 AM 8.7 47.66 0.032 6.7 2.05 11.08
5/2/2022 4:00:00 AM 8.69 47.642 0.032 6.7 2.02 11.07
5/2/2022 4:15:00 AM 8.68 47.624 0.032 6.7 2.04 11.08
5/2/2022 4:30:00 AM 8.67 47.606 0.032 6.68 2.03 11.08
5/2/2022 4:45:00 AM 8.67 47.606 0.032 6.69 2.04 11.08
5/2/2022 5:00:00 AM 8.66 47.588 0.032 6.67 1.97 11.09
5/2/2022 5:15:00 AM 8.65 47.57 0.032 6.68 2.03 11.09
5/2/2022 5:30:00 AM 8.64 47.552 0.032 6.67 1.99 11.09
5/2/2022 5:45:00 AM 8.64 47.552 0.032 6.67 2.02 11.09
5/2/2022 6:00:00 AM 8.63 47.534 0.032 6.66 1.95 11.09
5/2/2022 6:15:00 AM 8.63 47.534 0.032 6.66 2 11.1
5/2/2022 6:30:00 AM 8.62 47.516 0.032 6.66 1.98 11.1
5/2/2022 6:45:00 AM 8.62 47.516 0.032 6.66 1.96 11.12
5/2/2022 7:00:00 AM 8.61 47.498 0.032 6.67 1.94 11.13
5/2/2022 7:15:00 AM 8.61 47.498 0.032 6.66 1.89 11.14
5/2/2022 7:30:00 AM 8.61 47.498 0.032 6.67 1.93 11.16
5/2/2022 7:45:00 AM 8.62 47.516 0.032 6.67 1.85 11.19
5/2/2022 8:00:00 AM 8.63 47.534 0.032 6.69 1.85 11.22
5/2/2022 8:15:00 AM 8.64 47.552 0.032 6.7 1.87 11.24
5/2/2022 8:30:00 AM 8.66 47.588 0.032 6.72 1.87 11.26
5/2/2022 8:45:00 AM 8.68 47.624 0.032 6.73 1.92 11.27
5/2/2022 9:00:00 AM 8.71 47.678 0.032 6.75 1.88 11.28
5/2/2022 9:15:00 AM 8.75 47.75 0.031 6.75 1.85 11.3
5/2/2022 9:30:00 AM 8.79 47.822 0.031 6.78 1.87 11.31
5/2/2022 9:45:00 AM 8.83 47.894 0.031 6.79 1.84 11.3
5/2/2022 10:00:00 AM 8.86 47.948 0.031 6.78 1.87 11.29
5/2/2022 10:15:00 AM 8.89 48.002 0.031 6.78 1.86 11.28
5/2/2022 10:30:00 AM 8.93 48.074 0.031 6.78 1.85 11.28
5/2/2022 10:45:00 AM 8.98 48.164 0.031 6.79 1.81 11.28
5/2/2022 11:00:00 AM 9.06 48.308 0.031 6.8 1.79 11.28
5/2/2022 11:15:00 AM 9.16 48.488 0.031 6.81 1.84 11.28
5/2/2022 11:30:00 AM 9.26 48.668 0.031 6.81 1.85 11.26
5/2/2022 11:45:00 AM 9.3 48.74 0.031 6.8 1.79 11.23
5/2/2022 12:00:00 PM 9.38 48.884 0.031 6.81 1.84 11.23
5/2/2022 12:15:00 PM 9.53 49.154 0.031 6.82 1.81 11.21
5/2/2022 12:30:00 PM 9.61 49.298 0.031 6.82 1.8 11.18
5/2/2022 12:45:00 PM 9.71 49.478 0.031 6.81 1.86 11.15
5/2/2022 1:00:00 PM 9.72 49.496 0.031 6.81 1.82 11.1
5/2/2022 1:15:00 PM 9.7 49.46 0.031 6.79 1.83 11.07
5/2/2022 1:30:00 PM 9.71 49.478 0.031 6.8 1.82 11.07
5/2/2022 1:45:00 PM 9.77 49.586 0.031 6.81 1.84 11.09
5/2/2022 2:00:00 PM 10.05 50.09 0.031 6.81 1.79 11.07
5/2/2022 2:15:00 PM 10.17 50.306 0.031 6.82 1.77 11.04
5/2/2022 2:30:00 PM 10.21 50.378 0.031 6.82 1.78 11.01
5/2/2022 2:45:00 PM 10.36 50.648 0.031 6.83 1.81 10.97
5/2/2022 3:00:00 PM 10.42 50.756 0.031 6.82 1.75 10.94
5/2/2022 3:15:00 PM 10.44 50.792 0.031 6.83 1.76 10.94
5/2/2022 3:30:00 PM 10.53 50.954 0.031 6.82 1.78 10.93
5/2/2022 3:45:00 PM 10.68 51.224 0.031 6.83 1.8 10.9
5/2/2022 4:00:00 PM 10.76 51.368 0.031 6.83 1.7 10.86
5/2/2022 4:15:00 PM 10.84 51.512 0.031 6.84 1.74 10.83
5/2/2022 4:30:00 PM 10.88 51.584 0.031 6.83 1.76 10.81
5/2/2022 4:45:00 PM 10.88 51.584 0.031 6.82 1.77 10.78
5/2/2022 5:00:00 PM 10.92 51.656 0.031 6.83 1.76 10.78
5/2/2022 5:15:00 PM 10.96 51.728 0.031 6.82 1.77 10.76
5/2/2022 5:30:00 PM 10.93 51.674 0.031 6.81 1.72 10.73
5/2/2022 5:45:00 PM 10.9 51.62 0.031 6.8 1.78 10.7
5/2/2022 6:00:00 PM 10.86 51.548 0.031 6.8 1.75 10.68
5/2/2022 6:15:00 PM 10.81 51.458 0.031 6.79 2.1 10.67
5/2/2022 6:30:00 PM 10.75 51.35 0.031 6.76 1.79 10.67
5/2/2022 6:45:00 PM 10.68 51.224 0.031 6.77 1.82 10.67
5/2/2022 7:00:00 PM 10.6 51.08 0.031 6.77 1.8 10.68
5/2/2022 7:15:00 PM 10.52 50.936 0.032 6.77 1.81 10.69
5/2/2022 7:30:00 PM 10.45 50.81 0.032 6.76 1.77 10.7
5/2/2022 7:45:00 PM 10.38 50.684 0.032 6.75 1.8 10.7
5/2/2022 8:00:00 PM 10.3 50.54 0.032 6.73 1.8 10.7
5/2/2022 8:15:00 PM 10.23 50.414 0.032 6.72 1.77 10.7
5/2/2022 8:30:00 PM 10.16 50.288 0.032 6.71 1.79 10.71
5/2/2022 8:45:00 PM 10.09 50.162 0.032 6.71 1.84 10.72
5/2/2022 9:00:00 PM 10.03 50.054 0.032 6.71 1.9 10.73
5/2/2022 9:15:00 PM 9.97 49.946 0.032 6.7 1.88 10.74
5/2/2022 9:30:00 PM 9.92 49.856 0.032 6.7 1.84 10.75
5/2/2022 9:45:00 PM 9.87 49.766 0.032 6.7 1.85 10.77
5/2/2022 10:00:00 PM 9.81 49.658 0.032 6.69 1.86 10.79
5/2/2022 10:15:00 PM 9.75 49.55 0.032 6.69 1.84 10.8
5/2/2022 10:30:00 PM 9.7 49.46 0.032 6.69 1.93 10.82
5/2/2022 10:45:00 PM 9.64 49.352 0.032 6.7 1.92 10.83
5/2/2022 11:00:00 PM 9.58 49.244 0.032 6.7 1.96 10.85
5/2/2022 11:15:00 PM 9.52 49.136 0.032 6.69 1.93 10.87
5/2/2022 11:30:00 PM 9.47 49.046 0.032 6.69 1.93 10.88
5/2/2022 11:45:00 PM 9.4 48.92 0.032 6.69 1.89 10.9
5/3/2022 12:00:00 AM 9.34 48.812 0.032 6.68 1.91 10.92
5/3/2022 12:15:00 AM 9.28 48.704 0.032 6.68 1.91 10.94
5/3/2022 12:30:00 AM 9.22 48.596 0.032 6.69 1.93 10.95
5/3/2022 12:45:00 AM 9.17 48.506 0.032 6.68 1.89 10.96
5/3/2022 1:00:00 AM 9.11 48.398 0.032 6.68 1.89 10.98
5/3/2022 1:15:00 AM 9.06 48.308 0.032 6.68 1.85 10.99
5/3/2022 1:30:00 AM 9.01 48.218 0.032 6.68 1.89 11.01
5/3/2022 1:45:00 AM 8.96 48.128 0.032 6.68 1.87 11.02
5/3/2022 2:00:00 AM 8.91 48.038 0.032 6.67 1.91 11.04
5/3/2022 2:15:00 AM 8.86 47.948 0.032 6.68 1.92 11.05
5/3/2022 2:30:00 AM 8.81 47.858 0.032 6.67 1.86 11.06
5/3/2022 2:45:00 AM 8.77 47.786 0.032 6.68 1.86 11.07
5/3/2022 3:00:00 AM 8.72 47.696 0.032 6.67 1.87 11.09
5/3/2022 3:15:00 AM 8.68 47.624 0.032 6.67 1.93 11.1
5/3/2022 3:30:00 AM 8.63 47.534 0.032 6.67 1.89 11.11
5/3/2022 3:45:00 AM 8.59 47.462 0.032 6.7 1.88 11.12
5/3/2022 4:00:00 AM 8.55 47.39 0.032 6.68 1.89 11.14
5/3/2022 4:15:00 AM 8.5 47.3 0.032 6.68 1.85 11.15
5/3/2022 4:30:00 AM 8.46 47.228 0.032 6.67 1.86 11.16
5/3/2022 4:45:00 AM 8.42 47.156 0.032 6.68 1.83 11.17
5/3/2022 5:00:00 AM 8.37 47.066 0.032 6.67 1.88 11.19
5/3/2022 5:15:00 AM 8.33 46.994 0.032 6.67 1.89 11.19
5/3/2022 5:30:00 AM 8.29 46.922 0.032 6.66 1.87 11.21
5/3/2022 5:45:00 AM 8.26 46.868 0.032 6.68 1.83 11.22
5/3/2022 6:00:00 AM 8.22 46.796 0.032 6.67 1.83 11.23
5/3/2022 6:15:00 AM 8.19 46.742 0.032 6.68 1.94 11.25
5/3/2022 6:30:00 AM 8.17 46.706 0.032 6.68 1.89 11.28
5/3/2022 6:45:00 AM 8.16 46.688 0.032 6.69 1.85 11.31
5/3/2022 7:00:00 AM 8.16 46.688 0.032 6.7 1.86 11.35
5/3/2022 7:15:00 AM 8.15 46.67 0.032 6.71 1.87 11.39
5/3/2022 7:30:00 AM 8.15 46.67 0.032 6.72 1.85 11.42
5/3/2022 7:45:00 AM 8.18 46.724 0.032 6.74 1.88 11.46
5/3/2022 8:00:00 AM 8.22 46.796 0.032 6.75 1.86 11.47
5/3/2022 8:15:00 AM 8.26 46.868 0.032 6.74 1.8 11.47
5/3/2022 8:30:00 AM 8.31 46.958 0.031 6.75 1.81 11.47
5/3/2022 8:45:00 AM 8.38 47.084 0.031 6.77 1.87 11.48
5/3/2022 9:00:00 AM 8.45 47.21 0.031 6.78 1.78 11.46
5/3/2022 9:15:00 AM 8.54 47.372 0.031 6.79 1.85 11.46
5/3/2022 9:30:00 AM 8.67 47.606 0.031 6.8 1.74 11.46
5/3/2022 9:45:00 AM 8.81 47.858 0.031 6.8 1.83 11.43
5/3/2022 10:00:00 AM 8.94 48.092 0.031 6.81 2.07 11.4
5/3/2022 10:15:00 AM 9.05 48.29 0.031 6.82 1.81 11.36
5/3/2022 10:30:00 AM 9.2 48.56 0.031 6.83 1.78 11.34
5/3/2022 10:45:00 AM 9.36 48.848 0.031 6.83 1.78 11.29
5/3/2022 11:00:00 AM 9.55 49.19 0.031 6.84 1.77 11.26
5/3/2022 11:15:00 AM 9.73 49.514 0.031 6.84 1.76 11.21
5/3/2022 11:30:00 AM 9.88 49.784 0.031 6.83 1.74 11.17
5/3/2022 11:45:00 AM 10.1 50.18 0.031 6.85 1.78 11.13
5/3/2022 12:00:00 PM 10.26 50.468 0.031 6.85 1.72 11.08
5/3/2022 12:15:00 PM 10.38 50.684 0.031 6.84 1.73 11.03
5/3/2022 12:30:00 PM 10.56 51.008 0.031 6.85 1.73 10.99
5/3/2022 12:45:00 PM 10.75 51.35 0.031 6.85 1.82 10.95
5/3/2022 1:00:00 PM 10.87 51.566 0.031 6.86 1.7 10.91
5/3/2022 1:15:00 PM 10.97 51.746 0.031 6.85 1.77 10.87
5/3/2022 1:30:00 PM 11.04 51.872 0.031 6.85 1.71 10.85
5/3/2022 1:45:00 PM 11.15 52.07 0.031 6.86 1.74 10.82
5/3/2022 2:00:00 PM 11.27 52.286 0.031 6.86 1.7 10.8
5/3/2022 2:15:00 PM 11.39 52.502 0.031 6.86 1.71 10.78
5/3/2022 2:30:00 PM 11.49 52.682 0.031 6.86 1.68 10.74
5/3/2022 2:45:00 PM 11.53 52.754 0.031 6.86 1.69 10.71
5/3/2022 3:00:00 PM 11.52 52.736 0.031 6.86 1.71 10.69
5/3/2022 3:15:00 PM 11.49 52.682 0.031 6.84 1.71 10.67
5/3/2022 3:30:00 PM 11.45 52.61 0.031 6.85 1.73 10.67
5/3/2022 3:45:00 PM 11.41 52.538 0.031 6.84 1.74 10.67
5/3/2022 4:00:00 PM 11.37 52.466 0.031 6.84 1.72 10.67
5/3/2022 4:15:00 PM 11.34 52.412 0.031 6.85 1.74 10.68
5/3/2022 4:30:00 PM 11.31 52.358 0.031 6.84 1.8 10.67
5/3/2022 4:45:00 PM 11.27 52.286 0.031 6.83 1.76 10.65
5/3/2022 5:00:00 PM 11.24 52.232 0.031 6.83 1.75 10.66
5/3/2022 5:15:00 PM 11.24 52.232 0.031 6.85 1.74 10.69
5/3/2022 5:30:00 PM 11.23 52.214 0.031 6.85 1.76 10.68
5/3/2022 5:45:00 PM 11.2 52.16 0.031 6.83 1.76 10.67
5/3/2022 6:00:00 PM 11.2 52.16 0.031 6.84 1.78 10.67
5/3/2022 6:15:00 PM 11.17 52.106 0.031 6.84 1.74 10.64
5/3/2022 6:30:00 PM 11.15 52.07 0.031 6.83 1.77 10.62
5/3/2022 6:45:00 PM 11.12 52.016 0.031 6.82 1.77 10.61
5/3/2022 7:00:00 PM 11.1 51.98 0.031 6.81 1.79 10.59
5/3/2022 7:15:00 PM 11.07 51.926 0.031 6.8 1.79 10.56
5/3/2022 7:30:00 PM 11.04 51.872 0.032 6.79 1.75 10.55
5/3/2022 7:45:00 PM 11.02 51.836 0.032 6.79 1.8 10.53
5/3/2022 8:00:00 PM 11 51.8 0.032 6.77 1.76 10.5
5/3/2022 8:15:00 PM 10.96 51.728 0.032 6.77 1.77 10.48
5/3/2022 8:30:00 PM 10.95 51.71 0.032 6.77 1.86 10.47
5/3/2022 8:45:00 PM 10.94 51.692 0.032 6.76 1.8 10.46
5/3/2022 9:00:00 PM 10.94 51.692 0.032 6.76 1.84 10.46
5/3/2022 9:15:00 PM 10.93 51.674 0.032 6.76 1.83 10.46
5/3/2022 9:30:00 PM 10.92 51.656 0.032 6.76 1.88 10.47
5/3/2022 9:45:00 PM 10.9 51.62 0.032 6.76 2.04 10.47
5/3/2022 10:00:00 PM 10.86 51.548 0.032 6.74 1.92 10.48
5/3/2022 10:15:00 PM 10.82 51.476 0.032 6.73 1.96 10.48
5/3/2022 10:30:00 PM 10.78 51.404 0.032 6.72 1.92 10.49
5/3/2022 10:45:00 PM 10.76 51.368 0.032 6.71 1.98 10.49
5/3/2022 11:00:00 PM 10.74 51.332 0.032 6.72 1.99 10.49
5/3/2022 11:15:00 PM 10.72 51.296 0.032 6.71 2.03 10.5
5/3/2022 11:30:00 PM 10.7 51.26 0.032 6.71 2 10.5
5/3/2022 11:45:00 PM 10.69 51.242 0.032 6.71 1.97 10.51
5/4/2022 12:00:00 AM 10.69 51.242 0.032 6.73 1.96 10.51
5/4/2022 12:15:00 AM 10.67 51.206 0.032 6.74 1.94 10.52
5/4/2022 12:30:00 AM 10.66 51.188 0.032 6.73 1.96 10.52
5/4/2022 12:45:00 AM 10.65 51.17 0.032 6.75 1.9 10.52
5/4/2022 1:00:00 AM 10.65 51.17 0.032 6.74 2.03 10.52
5/4/2022 1:15:00 AM 10.63 51.134 0.032 6.75 2 10.53
5/4/2022 1:30:00 AM 10.62 51.116 0.032 6.76 1.96 10.53
5/4/2022 1:45:00 AM 10.61 51.098 0.032 6.76 1.97 10.53
5/4/2022 2:00:00 AM 10.61 51.098 0.032 6.75 1.83 10.53
5/4/2022 2:15:00 AM 10.59 51.062 0.032 6.75 1.99 10.53
5/4/2022 2:30:00 AM 10.58 51.044 0.032 6.74 1.99 10.53
5/4/2022 2:45:00 AM 10.57 51.026 0.032 6.74 1.98 10.53
5/4/2022 3:00:00 AM 10.55 50.99 0.032 6.74 1.93 10.53
5/4/2022 3:15:00 AM 10.53 50.954 0.032 6.74 1.95 10.54
5/4/2022 3:30:00 AM 10.51 50.918 0.032 6.74 1.92 10.55
5/4/2022 3:45:00 AM 10.48 50.864 0.032 6.73 1.95 10.55
5/4/2022 4:00:00 AM 10.45 50.81 0.032 6.74 1.98 10.56
5/4/2022 4:15:00 AM 10.42 50.756 0.032 6.74 1.94 10.57
5/4/2022 4:30:00 AM 10.39 50.702 0.032 6.74 1.98 10.58
5/4/2022 4:45:00 AM 10.37 50.666 0.032 6.74 1.94 10.58
5/4/2022 5:00:00 AM 10.34 50.612 0.032 6.73 1.95 10.59
5/4/2022 5:15:00 AM 10.32 50.576 0.032 6.74 1.97 10.59
5/4/2022 5:30:00 AM 10.29 50.522 0.032 6.74 1.98 10.6
5/4/2022 5:45:00 AM 10.26 50.468 0.032 6.73 1.9 10.61
5/4/2022 6:00:00 AM 10.24 50.432 0.032 6.74 1.91 10.62
5/4/2022 6:15:00 AM 10.21 50.378 0.032 6.74 1.95 10.63
5/4/2022 6:30:00 AM 10.19 50.342 0.032 6.74 1.91 10.64
5/4/2022 6:45:00 AM 10.16 50.288 0.032 6.74 1.9 10.65
5/4/2022 7:00:00 AM 10.14 50.252 0.032 6.74 1.9 10.67
5/4/2022 7:15:00 AM 10.12 50.216 0.032 6.75 1.85 10.69
5/4/2022 7:30:00 AM 10.1 50.18 0.032 6.75 1.86 10.71
5/4/2022 7:45:00 AM 10.08 50.144 0.032 6.75 1.8 10.73
5/4/2022 8:00:00 AM 10.07 50.126 0.032 6.76 1.81 10.74
5/4/2022 8:15:00 AM 10.06 50.108 0.032 6.76 1.85 10.77
5/4/2022 8:30:00 AM 10.05 50.09 0.032 6.77 1.88 10.79
5/4/2022 8:45:00 AM 10.04 50.072 0.032 6.78 1.88 10.8
5/4/2022 9:00:00 AM 10.04 50.072 0.032 6.79 1.83 10.82
5/4/2022 9:15:00 AM 10.04 50.072 0.032 6.79 1.81 10.82
5/4/2022 9:30:00 AM 10.04 50.072 0.032 6.8 1.91 10.84
5/4/2022 9:45:00 AM 10.04 50.072 0.032 6.8 1.85 10.86
5/4/2022 10:00:00 AM 10.04 50.072 0.032 6.8 1.78 10.88
5/4/2022 10:15:00 AM 10.06 50.108 0.032 6.81 1.85 10.9
5/4/2022 10:30:00 AM 10.08 50.144 0.032 6.82 1.84 10.91
5/4/2022 10:45:00 AM 10.11 50.198 0.031 6.83 1.81 10.93
5/4/2022 11:00:00 AM 10.17 50.306 0.031 6.84 1.78 10.95
5/4/2022 11:15:00 AM 10.22 50.396 0.031 6.84 1.86 10.94
5/4/2022 11:30:00 AM 10.28 50.504 0.031 6.85 1.85 10.94
5/4/2022 11:45:00 AM 10.31 50.558 0.031 6.85 1.79 10.93
5/4/2022 12:00:00 PM 10.35 50.63 0.031 6.85 1.73 10.93
5/4/2022 12:15:00 PM 10.41 50.738 0.031 6.86 1.76 10.92
5/4/2022 12:30:00 PM 10.46 50.828 0.031 6.85 1.75 10.91
5/4/2022 12:45:00 PM 10.55 50.99 0.031 6.86 1.77 10.91
5/4/2022 1:00:00 PM 10.6 51.08 0.031 6.86 1.78 10.88
5/4/2022 1:15:00 PM 10.65 51.17 0.031 6.86 1.78 10.86
5/4/2022 1:30:00 PM 10.72 51.296 0.031 6.86 1.77 10.86
5/4/2022 1:45:00 PM 10.76 51.368 0.031 6.86 1.82 10.84
5/4/2022 2:00:00 PM 10.85 51.53 0.031 6.87 1.79 10.84
5/4/2022 2:15:00 PM 10.97 51.746 0.031 6.87 1.76 10.83
5/4/2022 2:30:00 PM 11.09 51.962 0.031 6.87 1.72 10.8
5/4/2022 2:45:00 PM 11.2 52.16 0.031 6.87 1.75 10.77
5/4/2022 3:00:00 PM 11.24 52.232 0.031 6.86 1.73 10.72
5/4/2022 3:15:00 PM 11.2 52.16 0.031 6.85 1.78 10.65
5/4/2022 3:30:00 PM 11.2 52.16 0.031 6.82 1.78 10.62
5/4/2022 3:45:00 PM 11.18 52.124 0.031 6.82 1.85 10.61
5/4/2022 4:00:00 PM 11.17 52.106 0.031 6.83 1.79 10.62
5/4/2022 4:15:00 PM 11.19 52.142 0.031 6.84 1.81 10.66
5/4/2022 4:30:00 PM 11.22 52.196 0.031 6.85 1.84 10.68
5/4/2022 4:45:00 PM 11.27 52.286 0.031 6.87 1.94 10.68
5/4/2022 5:00:00 PM 11.3 52.34 0.031 6.87 1.9 10.68
5/4/2022 5:15:00 PM 11.29 52.322 0.031 6.87 2.11 10.65
5/4/2022 5:30:00 PM 11.29 52.322 0.031 6.88 2.25 10.63
5/4/2022 5:45:00 PM 11.27 52.286 0.031 6.87 2.29 10.6
5/4/2022 6:00:00 PM 11.24 52.232 0.032 6.87 2.49 10.59
5/4/2022 6:15:00 PM 11.21 52.178 0.032 6.87 2.58 10.58
5/4/2022 6:30:00 PM 11.17 52.106 0.032 6.86 2.72 10.57
5/4/2022 6:45:00 PM 11.14 52.052 0.032 6.86 3.11 10.58
5/4/2022 7:00:00 PM 11.1 51.98 0.032 6.87 3.01 10.58
5/4/2022 7:15:00 PM 11.06 51.908 0.032 6.85 3.05 10.57
5/4/2022 7:30:00 PM 11.02 51.836 0.032 6.84 2.93 10.55
5/4/2022 7:45:00 PM 10.97 51.746 0.032 6.83 2.75 10.54
5/4/2022 8:00:00 PM 10.93 51.674 0.032 6.81 2.51 10.53
5/4/2022 8:15:00 PM 10.88 51.584 0.032 6.8 2.32 10.53
5/4/2022 8:30:00 PM 10.83 51.494 0.032 6.79 2.22 10.54
5/4/2022 8:45:00 PM 10.78 51.404 0.032 6.8 2.12 10.54
5/4/2022 9:00:00 PM 10.73 51.314 0.032 6.79 2.09 10.55
5/4/2022 9:15:00 PM 10.69 51.242 0.032 6.78 2.06 10.56
5/4/2022 9:30:00 PM 10.64 51.152 0.032 6.77 2.1 10.57
5/4/2022 9:45:00 PM 10.6 51.08 0.032 6.78 2.06 10.59
5/4/2022 10:00:00 PM 10.56 51.008 0.032 6.78 2.03 10.6
5/4/2022 10:15:00 PM 10.53 50.954 0.032 6.77 1.99 10.61
5/4/2022 10:30:00 PM 10.5 50.9 0.032 6.76 2.03 10.62
5/4/2022 10:45:00 PM 10.47 50.846 0.032 6.77 2.01 10.63
5/4/2022 11:00:00 PM 10.44 50.792 0.032 6.76 2.02 10.63
5/4/2022 11:15:00 PM 10.41 50.738 0.032 6.77 1.99 10.65
5/4/2022 11:30:00 PM 10.39 50.702 0.032 6.76 2.01 10.65
5/4/2022 11:45:00 PM 10.37 50.666 0.032 6.77 1.96 10.66
5/5/2022 12:00:00 AM 10.34 50.612 0.032 6.76 1.99 10.66
5/5/2022 12:15:00 AM 10.32 50.576 0.032 6.77 2.03 10.66
5/5/2022 12:30:00 AM 10.3 50.54 0.032 6.75 2.04 10.67
5/5/2022 12:45:00 AM 10.28 50.504 0.032 6.76 1.96 10.68
5/5/2022 1:00:00 AM 10.26 50.468 0.032 6.76 1.95 10.68
5/5/2022 1:15:00 AM 10.24 50.432 0.032 6.75 1.98 10.69
5/5/2022 1:30:00 AM 10.22 50.396 0.032 6.76 2.02 10.69
5/5/2022 1:45:00 AM 10.2 50.36 0.032 6.75 2.01 10.7
5/5/2022 2:00:00 AM 10.18 50.324 0.032 6.75 2.04 10.7
5/5/2022 2:15:00 AM 10.16 50.288 0.032 6.74 1.99 10.71
5/5/2022 2:30:00 AM 10.15 50.27 0.032 6.75 2 10.71
5/5/2022 2:45:00 AM 10.12 50.216 0.032 6.75 2.08 10.72
5/5/2022 3:00:00 AM 10.09 50.162 0.032 6.73 2.01 10.72
5/5/2022 3:15:00 AM 10.05 50.09 0.032 6.73 1.96 10.73
5/5/2022 3:30:00 AM 10.01 50.018 0.032 6.73 1.98 10.74
5/5/2022 3:45:00 AM 9.96 49.928 0.032 6.73 2 10.75
5/5/2022 4:00:00 AM 9.92 49.856 0.032 6.72 2 10.76
5/5/2022 4:15:00 AM 9.87 49.766 0.032 6.73 1.98 10.77
5/5/2022 4:30:00 AM 9.82 49.676 0.032 6.72 1.94 10.78
5/5/2022 4:45:00 AM 9.76 49.568 0.032 6.72 2.03 10.79
5/5/2022 5:00:00 AM 9.71 49.478 0.032 6.72 1.95 10.81
5/5/2022 5:15:00 AM 9.65 49.37 0.032 6.72 1.99 10.82
5/5/2022 5:30:00 AM 9.6 49.28 0.032 6.72 1.95 10.83
5/5/2022 5:45:00 AM 9.57 49.226 0.032 6.73 1.93 10.85
5/5/2022 6:00:00 AM 9.54 49.172 0.032 6.73 1.95 10.86
5/5/2022 6:15:00 AM 9.5 49.1 0.032 6.72 1.9 10.88
5/5/2022 6:30:00 AM 9.48 49.064 0.032 6.73 1.92 10.92
5/5/2022 6:45:00 AM 9.45 49.01 0.032 6.73 1.94 10.95
5/5/2022 7:00:00 AM 9.44 48.992 0.032 6.75 1.91 10.99
5/5/2022 7:15:00 AM 9.41 48.938 0.032 6.75 1.92 11.02
5/5/2022 7:30:00 AM 9.39 48.902 0.032 6.76 1.86 11.04
5/5/2022 7:45:00 AM 9.37 48.866 0.032 6.75 1.92 11.05
5/5/2022 8:00:00 AM 9.37 48.866 0.032 6.77 1.88 11.08
5/5/2022 8:15:00 AM 9.39 48.902 0.032 6.78 1.91 11.11
5/5/2022 8:30:00 AM 9.41 48.938 0.032 6.79 1.85 11.13
5/5/2022 8:45:00 AM 9.45 49.01 0.032 6.8 1.89 11.15
5/5/2022 9:00:00 AM 9.5 49.1 0.032 6.8 1.97 11.15
5/5/2022 9:15:00 AM 9.57 49.226 0.032 6.82 1.83 11.15
5/5/2022 9:30:00 AM 9.64 49.352 0.032 6.83 1.85 11.16
5/5/2022 9:45:00 AM 9.73 49.514 0.031 6.83 1.86 11.15
5/5/2022 10:00:00 AM 9.85 49.73 0.031 6.84 1.88 11.13
5/5/2022 10:15:00 AM 9.97 49.946 0.031 6.84 1.83 11.11
5/5/2022 10:30:00 AM 10.1 50.18 0.031 6.85 1.8 11.09
5/5/2022 10:45:00 AM 10.25 50.45 0.031 6.85 1.79 11.07
5/5/2022 11:00:00 AM 10.42 50.756 0.031 6.86 1.83 11.03
5/5/2022 11:15:00 AM 10.61 51.098 0.031 6.85 1.84 10.98
5/5/2022 11:30:00 AM 10.78 51.404 0.031 6.86 1.8 10.95
5/5/2022 11:45:00 AM 10.99 51.782 0.031 6.87 1.83 10.9
5/5/2022 12:00:00 PM 11.2 52.16 0.031 6.87 1.8 10.85
5/5/2022 12:15:00 PM 11.4 52.52 0.031 6.88 1.78 10.81
5/5/2022 12:30:00 PM 11.62 52.916 0.031 6.88 1.76 10.76
5/5/2022 12:45:00 PM 11.75 53.15 0.031 6.88 1.77 10.71
5/5/2022 1:00:00 PM 11.88 53.384 0.031 6.88 1.75 10.68
5/5/2022 1:15:00 PM 12 53.6 0.031 6.88 1.77 10.64
5/5/2022 1:30:00 PM 12.14 53.852 0.031 6.88 1.77 10.62
5/5/2022 1:45:00 PM 12.34 54.212 0.031 6.88 1.78 10.57
5/5/2022 2:00:00 PM 12.59 54.662 0.031 6.89 1.76 10.53
5/5/2022 2:15:00 PM 12.78 55.004 0.031 6.89 1.74 10.47
5/5/2022 2:30:00 PM 12.89 55.202 0.031 6.88 1.74 10.42
5/5/2022 2:45:00 PM 12.98 55.364 0.031 6.89 1.7 10.39
5/5/2022 3:00:00 PM 13.01 55.418 0.031 6.88 1.76 10.37
5/5/2022 3:15:00 PM 12.98 55.364 0.031 6.88 1.69 10.35
5/5/2022 3:30:00 PM 13 55.4 0.031 6.89 1.74 10.35
5/5/2022 3:45:00 PM 12.99 55.382 0.031 6.89 1.76 10.35
5/5/2022 4:00:00 PM 12.98 55.364 0.031 6.88 1.75 10.34
5/5/2022 4:15:00 PM 12.95 55.31 0.031 6.88 1.75 10.33
5/5/2022 4:30:00 PM 12.89 55.202 0.031 6.87 1.79 10.32
5/5/2022 4:45:00 PM 12.84 55.112 0.031 6.87 1.75 10.32
5/5/2022 5:00:00 PM 12.76 54.968 0.031 6.87 1.8 10.33
5/5/2022 5:15:00 PM 12.69 54.842 0.031 6.87 1.74 10.34
5/5/2022 5:30:00 PM 12.58 54.644 0.031 6.86 1.78 10.35
5/5/2022 5:45:00 PM 12.5 54.5 0.031 6.86 1.77 10.37
5/5/2022 6:00:00 PM 12.41 54.338 0.031 6.85 1.79 10.38
5/5/2022 6:15:00 PM 12.35 54.23 0.031 6.85 1.73 10.38
5/5/2022 6:30:00 PM 12.29 54.122 0.031 6.85 1.74 10.38
5/5/2022 6:45:00 PM 12.23 54.014 0.032 6.83 1.82 10.36
5/5/2022 7:00:00 PM 12.17 53.906 0.032 6.82 1.75 10.35
5/5/2022 7:15:00 PM 12.11 53.798 0.032 6.81 1.8 10.34
5/5/2022 7:30:00 PM 12.05 53.69 0.032 6.8 1.71 10.31
5/5/2022 7:45:00 PM 11.98 53.564 0.032 6.78 1.77 10.29
5/5/2022 8:00:00 PM 11.92 53.456 0.032 6.76 1.76 10.28
5/5/2022 8:15:00 PM 11.85 53.33 0.032 6.75 1.77 10.27
5/5/2022 8:30:00 PM 11.79 53.222 0.032 6.74 1.85 10.26
5/5/2022 8:45:00 PM 11.73 53.114 0.032 6.73 1.83 10.27
5/5/2022 9:00:00 PM 11.68 53.024 0.032 6.74 1.81 10.27
5/5/2022 9:15:00 PM 11.63 52.934 0.032 6.73 1.84 10.28
5/5/2022 9:30:00 PM 11.57 52.826 0.032 6.74 1.85 10.29
5/5/2022 9:45:00 PM 11.52 52.736 0.033 6.72 1.9 10.3
5/5/2022 10:00:00 PM 11.47 52.646 0.033 6.73 1.96 10.32
5/5/2022 10:15:00 PM 11.42 52.556 0.033 6.72 1.91 10.32
5/5/2022 10:30:00 PM 11.37 52.466 0.033 6.73 1.95 10.34
5/5/2022 10:45:00 PM 11.33 52.394 0.033 6.72 1.91 10.35
5/5/2022 11:00:00 PM 11.28 52.304 0.033 6.73 1.88 10.35
5/5/2022 11:15:00 PM 11.24 52.232 0.033 6.72 1.86 10.36
5/5/2022 11:30:00 PM 11.19 52.142 0.033 6.72 1.88 10.38
5/5/2022 11:45:00 PM 11.15 52.07 0.032 6.73 1.86 10.39
5/6/2022 12:00:00 AM 11.11 51.998 0.032 6.73 1.9 10.39
5/6/2022 12:15:00 AM 11.06 51.908 0.032 6.73 1.86 10.4
5/6/2022 12:30:00 AM 11.03 51.854 0.032 6.73 1.91 10.41
5/6/2022 12:45:00 AM 10.99 51.782 0.032 6.72 1.88 10.42
5/6/2022 1:00:00 AM 10.95 51.71 0.032 6.72 1.82 10.43
5/6/2022 1:15:00 AM 10.92 51.656 0.032 6.72 1.92 10.44
5/6/2022 1:30:00 AM 10.88 51.584 0.032 6.72 1.95 10.45
5/6/2022 1:45:00 AM 10.85 51.53 0.032 6.72 1.88 10.46
5/6/2022 2:00:00 AM 10.81 51.458 0.032 6.72 1.93 10.47
5/6/2022 2:15:00 AM 10.78 51.404 0.032 6.72 1.87 10.48
5/6/2022 2:30:00 AM 10.75 51.35 0.032 6.71 1.95 10.48
5/6/2022 2:45:00 AM 10.72 51.296 0.032 6.72 1.89 10.49
5/6/2022 3:00:00 AM 10.69 51.242 0.032 6.72 1.84 10.49
5/6/2022 3:15:00 AM 10.66 51.188 0.032 6.71 1.9 10.5
5/6/2022 3:30:00 AM 10.63 51.134 0.032 6.72 1.88 10.51
5/6/2022 3:45:00 AM 10.6 51.08 0.032 6.71 1.89 10.52
5/6/2022 4:00:00 AM 10.57 51.026 0.032 6.72 1.94 10.52
5/6/2022 4:15:00 AM 10.54 50.972 0.032 6.72 1.9 10.53
5/6/2022 4:30:00 AM 10.51 50.918 0.032 6.71 1.89 10.54
5/6/2022 4:45:00 AM 10.48 50.864 0.032 6.72 1.88 10.54
5/6/2022 5:00:00 AM 10.45 50.81 0.032 6.72 1.89 10.55
5/6/2022 5:15:00 AM 10.42 50.756 0.032 6.72 1.96 10.56
5/6/2022 5:30:00 AM 10.4 50.72 0.032 6.72 1.94 10.56
5/6/2022 5:45:00 AM 10.37 50.666 0.032 6.73 1.87 10.57
5/6/2022 6:00:00 AM 10.34 50.612 0.032 6.73 1.93 10.57
5/6/2022 6:15:00 AM 10.32 50.576 0.032 6.73 1.94 10.58
5/6/2022 6:30:00 AM 10.29 50.522 0.032 6.73 1.96 10.6
5/6/2022 6:45:00 AM 10.27 50.486 0.032 6.74 1.92 10.61
5/6/2022 7:00:00 AM 10.24 50.432 0.032 6.74 1.92 10.63
5/6/2022 7:15:00 AM 10.22 50.396 0.032 6.75 1.94 10.64
5/6/2022 7:30:00 AM 10.2 50.36 0.032 6.75 1.97 10.66
5/6/2022 7:45:00 AM 10.18 50.324 0.032 6.75 1.9 10.69
5/6/2022 8:00:00 AM 10.17 50.306 0.032 6.76 1.93 10.72
5/6/2022 8:15:00 AM 10.16 50.288 0.032 6.76 1.95 10.75
5/6/2022 8:30:00 AM 10.15 50.27 0.032 6.78 1.89 10.77
5/6/2022 8:45:00 AM 10.15 50.27 0.032 6.77 1.91 10.78
5/6/2022 9:00:00 AM 10.14 50.252 0.032 6.79 1.95 10.78
5/6/2022 9:15:00 AM 10.13 50.234 0.032 6.78 2.02 10.79
5/6/2022 9:30:00 AM 10.12 50.216 0.032 6.78 1.97 10.79
5/6/2022 9:45:00 AM 10.11 50.198 0.032 6.78 1.98 10.79
5/6/2022 10:00:00 AM 10.11 50.198 0.032 6.78 2.05 10.79
5/6/2022 10:15:00 AM 10.11 50.198 0.032 6.79 1.99 10.8
5/6/2022 10:30:00 AM 10.12 50.216 0.032 6.8 2.01 10.82
5/6/2022 10:45:00 AM 10.13 50.234 0.032 6.8 2.09 10.84
5/6/2022 11:00:00 AM 10.14 50.252 0.032 6.82 2.12 10.85
5/6/2022 11:15:00 AM 10.16 50.288 0.032 6.82 2.1 10.87
5/6/2022 11:30:00 AM 10.17 50.306 0.032 6.83 2.17 10.85
5/6/2022 11:45:00 AM 10.18 50.324 0.032 6.83 2.22 10.85
5/6/2022 12:00:00 PM 10.19 50.342 0.032 6.84 2.32 10.84
5/6/2022 12:15:00 PM 10.19 50.342 0.032 6.84 2.44 10.83
5/6/2022 12:30:00 PM 10.21 50.378 0.032 6.85 2.6 10.84
5/6/2022 12:45:00 PM 10.22 50.396 0.032 6.85 2.79 10.83
5/6/2022 1:00:00 PM 10.22 50.396 0.032 6.86 2.83 10.81
5/6/2022 1:15:00 PM 10.23 50.414 0.032 6.85 3.02 10.81
5/6/2022 1:30:00 PM 10.24 50.432 0.032 6.87 3.23 10.82
5/6/2022 1:45:00 PM 10.24 50.432 0.032 6.87 3.52 10.8
5/6/2022 2:00:00 PM 10.24 50.432 0.032 6.87 4.16 10.79
5/6/2022 2:15:00 PM 10.25 50.45 0.032 6.88 4.99 10.78
5/6/2022 2:30:00 PM 10.26 50.468 0.032 6.88 5.42 10.79
5/6/2022 2:45:00 PM 10.26 50.468 0.032 6.88 5.68 10.78
5/6/2022 3:00:00 PM 10.26 50.468 0.032 6.89 5.61 10.77
5/6/2022 3:15:00 PM 10.26 50.468 0.032 6.87 5.74 10.76
5/6/2022 3:30:00 PM 10.26 50.468 0.032 6.89 6.09 10.77
5/6/2022 3:45:00 PM 10.26 50.468 0.032 6.9 6.13 10.77
5/6/2022 4:00:00 PM 10.26 50.468 0.032 6.91 6.37 10.77
5/6/2022 4:15:00 PM 10.25 50.45 0.032 6.91 6.49 10.77
5/6/2022 4:30:00 PM 10.26 50.468 0.032 6.89 6.71 10.76
5/6/2022 4:45:00 PM 10.26 50.468 0.032 6.9 6.99 10.76
5/6/2022 5:00:00 PM 10.26 50.468 0.032 6.91 6.69 10.75
5/6/2022 5:15:00 PM 10.25 50.45 0.032 6.9 6.49 10.74
5/6/2022 5:30:00 PM 10.24 50.432 0.032 6.88 6.23 10.74
5/6/2022 5:45:00 PM 10.23 50.414 0.032 6.88 6.03 10.73
5/6/2022 6:00:00 PM 10.21 50.378 0.032 6.89 5.63 10.74
5/6/2022 6:15:00 PM 10.19 50.342 0.032 6.88 5.62 10.74
5/6/2022 6:30:00 PM 10.17 50.306 0.032 6.87 5.46 10.74
5/6/2022 6:45:00 PM 10.16 50.288 0.032 6.87 5.3 10.73
5/6/2022 7:00:00 PM 10.13 50.234 0.032 6.85 5.12 10.72
5/6/2022 7:15:00 PM 10.1 50.18 0.032 6.84 5.09 10.71
5/6/2022 7:30:00 PM 10.07 50.126 0.032 6.83 4.83 10.71
5/6/2022 7:45:00 PM 10.04 50.072 0.032 6.81 4.69 10.7
5/6/2022 8:00:00 PM 10.01 50.018 0.032 6.8 4.61 10.71
5/6/2022 8:15:00 PM 9.99 49.982 0.032 6.8 4.41 10.71
5/6/2022 8:30:00 PM 9.96 49.928 0.032 6.79 4.26 10.71
5/6/2022 8:45:00 PM 9.93 49.874 0.032 6.79 4.18 10.72
5/6/2022 9:00:00 PM 9.9 49.82 0.032 6.79 4.16 10.72
5/6/2022 9:15:00 PM 9.88 49.784 0.032 6.78 4.1 10.73
5/6/2022 9:30:00 PM 9.86 49.748 0.032 6.79 3.94 10.73
5/6/2022 9:45:00 PM 9.84 49.712 0.032 6.79 3.95 10.74
5/6/2022 10:00:00 PM 9.82 49.676 0.032 6.79 4.08 10.75
5/6/2022 10:15:00 PM 9.79 49.622 0.032 6.79 4.07 10.75
5/6/2022 10:30:00 PM 9.77 49.586 0.032 6.79 3.94 10.76
5/6/2022 10:45:00 PM 9.75 49.55 0.032 6.77 3.91 10.76
5/6/2022 11:00:00 PM 9.72 49.496 0.032 6.79 4.8 10.77
5/6/2022 11:15:00 PM 9.7 49.46 0.032 6.78 4.05 10.77
5/6/2022 11:30:00 PM 9.68 49.424 0.032 6.78 3.92 10.77
5/6/2022 11:45:00 PM 9.66 49.388 0.032 6.78 3.87 10.77
5/7/2022 12:00:00 AM 9.63 49.334 0.032 6.78 3.83 10.78
5/7/2022 12:15:00 AM 9.6 49.28 0.032 6.78 3.77 10.79
5/7/2022 12:30:00 AM 9.58 49.244 0.032 6.77 3.71 10.79
5/7/2022 12:45:00 AM 9.56 49.208 0.032 6.77 3.57 10.79
5/7/2022 1:00:00 AM 9.54 49.172 0.032 6.77 3.62 10.8
5/7/2022 1:15:00 AM 9.52 49.136 0.032 6.76 3.67 10.81
5/7/2022 1:30:00 AM 9.5 49.1 0.032 6.76 3.6 10.81
5/7/2022 1:45:00 AM 9.48 49.064 0.032 6.75 3.55 10.82
5/7/2022 2:00:00 AM 9.47 49.046 0.032 6.74 3.62 10.81
5/7/2022 2:15:00 AM 9.46 49.028 0.032 6.73 3.43 10.82
5/7/2022 2:30:00 AM 9.44 48.992 0.032 6.73 3.4 10.82
5/7/2022 2:45:00 AM 9.43 48.974 0.032 6.73 3.37 10.82
5/7/2022 3:00:00 AM 9.41 48.938 0.032 6.73 3.3 10.82
5/7/2022 3:15:00 AM 9.4 48.92 0.032 6.75 3.29 10.83
5/7/2022 3:30:00 AM 9.38 48.884 0.032 6.74 3.2 10.84
5/7/2022 3:45:00 AM 9.37 48.866 0.032 6.75 3.12 10.83
5/7/2022 4:00:00 AM 9.36 48.848 0.032 6.74 2.99 10.83
5/7/2022 4:15:00 AM 9.34 48.812 0.032 6.74 3.1 10.84
5/7/2022 4:30:00 AM 9.32 48.776 0.032 6.75 2.83 10.85
5/7/2022 4:45:00 AM 9.3 48.74 0.032 6.75 2.93 10.85
5/7/2022 5:00:00 AM 9.28 48.704 0.032 6.75 2.96 10.86
5/7/2022 5:15:00 AM 9.27 48.686 0.032 6.75 2.88 10.86
5/7/2022 5:30:00 AM 9.25 48.65 0.032 6.76 2.94 10.87
5/7/2022 5:45:00 AM 9.23 48.614 0.032 6.75 2.84 10.87
5/7/2022 6:00:00 AM 9.21 48.578 0.032 6.74 2.86 10.88
5/7/2022 6:15:00 AM 9.19 48.542 0.032 6.75 2.81 10.89
5/7/2022 6:30:00 AM 9.18 48.524 0.032 6.75 2.87 10.89
5/7/2022 6:45:00 AM 9.16 48.488 0.032 6.74 2.91 10.9
5/7/2022 7:00:00 AM 9.15 48.47 0.032 6.75 2.69 10.91
5/7/2022 7:15:00 AM 9.13 48.434 0.032 6.75 3.08 10.93
5/7/2022 7:30:00 AM 9.12 48.416 0.032 6.75 2.76 10.94
5/7/2022 7:45:00 AM 9.1 48.38 0.032 6.76 2.86 10.95
5/7/2022 8:00:00 AM 9.09 48.362 0.032 6.77 2.89 10.98
5/7/2022 8:15:00 AM 9.07 48.326 0.032 6.78 3.12 10.99
5/7/2022 8:30:00 AM 9.05 48.29 0.032 6.79 2.77 11.02
5/7/2022 8:45:00 AM 9.04 48.272 0.032 6.78 2.74 11.04
5/7/2022 9:00:00 AM 9.02 48.236 0.032 6.81 2.97 11.06
5/7/2022 9:15:00 AM 9.01 48.218 0.032 6.81 2.83 11.08
5/7/2022 9:30:00 AM 9.01 48.218 0.032 6.8 2.65 11.09
5/7/2022 9:45:00 AM 9.01 48.218 0.032 6.81 2.61 11.09
5/7/2022 10:00:00 AM 9 48.2 0.032 6.8 2.83 11.1
5/7/2022 10:15:00 AM 8.99 48.182 0.032 6.81 2.94